<?xml version='1.0' encoding='UTF-8'?><gpx version="1.1" creator="JPX - https://github.com/jenetics/jpx" xmlns="http://www.topografix.com/GPX/1/1"><trk><trkseg><trkpt lat="45.6342786" lon="11.4154503"><ele>153.0</ele><time>2026-05-03T07:03:57.971Z</time></trkpt><trkpt lat="45.6342749" lon="11.4156004"><ele>153.0</ele><time>2026-05-03T07:04:00.971Z</time></trkpt><trkpt lat="45.634196" lon="11.4156713"><ele>153.0</ele><time>2026-05-03T07:04:03.972Z</time></trkpt><trkpt lat="45.6340893" lon="11.4156964"><ele>153.0</ele><time>2026-05-03T07:04:05.971Z</time></trkpt><trkpt lat="45.6339721" lon="11.4158072"><ele>153.0</ele><time>2026-05-03T07:04:07.971Z</time></trkpt><trkpt lat="45.633909" lon="11.4159329"><ele>153.0</ele><time>2026-05-03T07:04:09.971Z</time></trkpt><trkpt lat="45.6338357" lon="11.415993"><ele>153.0</ele><time>2026-05-03T07:04:10.971Z</time></trkpt><trkpt lat="45.633736" lon="11.4160438"><ele>153.0</ele><time>2026-05-03T07:04:12.971Z</time></trkpt><trkpt lat="45.6336695" lon="11.4160789"><ele>153.0</ele><time>2026-05-03T07:04:15.971Z</time></trkpt><trkpt lat="45.6335945" lon="11.4161315"><ele>153.0</ele><time>2026-05-03T07:04:18.972Z</time></trkpt><trkpt lat="45.6335293" lon="11.4161253"><ele>153.0</ele><time>2026-05-03T07:04:24.971Z</time></trkpt><trkpt lat="45.6334535" lon="11.4161047"><ele>151.6</ele><time>2026-05-03T07:04:27.971Z</time></trkpt><trkpt lat="45.6332903" lon="11.41608"><ele>150.20000000000002</ele><time>2026-05-03T07:04:30.971Z</time></trkpt><trkpt lat="45.633211" lon="11.4160169"><ele>148.8</ele><time>2026-05-03T07:04:33.97Z</time></trkpt><trkpt lat="45.6331511" lon="11.4159653"><ele>147.4</ele><time>2026-05-03T07:04:35.972Z</time></trkpt><trkpt lat="45.6330519" lon="11.4159678"><ele>146.0</ele><time>2026-05-03T07:04:37.971Z</time></trkpt><trkpt lat="45.6329528" lon="11.4159296"><ele>146.0</ele><time>2026-05-03T07:04:39.971Z</time></trkpt><trkpt lat="45.6328691" lon="11.4159276"><ele>146.0</ele><time>2026-05-03T07:04:40.971Z</time></trkpt><trkpt lat="45.632808" lon="11.415866"><ele>146.0</ele><time>2026-05-03T07:04:43.971Z</time></trkpt><trkpt lat="45.6327678" lon="11.4157571"><ele>146.0</ele><time>2026-05-03T07:04:46.971Z</time></trkpt><trkpt lat="45.632721" lon="11.4156461"><ele>146.0</ele><time>2026-05-03T07:04:48.971Z</time></trkpt><trkpt lat="45.6326751" lon="11.4155646"><ele>146.0</ele><time>2026-05-03T07:04:50.971Z</time></trkpt><trkpt lat="45.6326143" lon="11.4154558"><ele>145.4</ele><time>2026-05-03T07:04:52.971Z</time></trkpt><trkpt lat="45.6325141" lon="11.4152679"><ele>144.8</ele><time>2026-05-03T07:04:54.971Z</time></trkpt><trkpt lat="45.6324756" lon="11.4151617"><ele>144.20000000000002</ele><time>2026-05-03T07:04:57.971Z</time></trkpt><trkpt lat="45.6324242" lon="11.4150643"><ele>143.6</ele><time>2026-05-03T07:04:59.971Z</time></trkpt><trkpt lat="45.6323456" lon="11.4149935"><ele>143.0</ele><time>2026-05-03T07:05:02.971Z</time></trkpt><trkpt lat="45.6322905" lon="11.4149416"><ele>143.0</ele><time>2026-05-03T07:05:05.97Z</time></trkpt><trkpt lat="45.6322224" lon="11.4149186"><ele>143.0</ele><time>2026-05-03T07:05:07.971Z</time></trkpt><trkpt lat="45.6321713" lon="11.414727"><ele>143.0</ele><time>2026-05-03T07:05:08.971Z</time></trkpt><trkpt lat="45.6321215" lon="11.4146543"><ele>143.0</ele><time>2026-05-03T07:05:09.971Z</time></trkpt><trkpt lat="45.6320557" lon="11.4145788"><ele>143.0</ele><time>2026-05-03T07:05:10.971Z</time></trkpt><trkpt lat="45.6319805" lon="11.4144854"><ele>139.6</ele><time>2026-05-03T07:05:12.97Z</time></trkpt><trkpt lat="45.6318732" lon="11.414374"><ele>136.20000000000002</ele><time>2026-05-03T07:05:14.97Z</time></trkpt><trkpt lat="45.6317966" lon="11.4143241"><ele>132.8</ele><time>2026-05-03T07:05:16.972Z</time></trkpt><trkpt lat="45.6316999" lon="11.4143072"><ele>129.4</ele><time>2026-05-03T07:05:18.971Z</time></trkpt><trkpt lat="45.6316285" lon="11.4142515"><ele>126.0</ele><time>2026-05-03T07:05:20.971Z</time></trkpt><trkpt lat="45.6315154" lon="11.4142442"><ele>126.0</ele><time>2026-05-03T07:05:23.971Z</time></trkpt><trkpt lat="45.6312472" lon="11.4142404"><ele>126.0</ele><time>2026-05-03T07:05:24.971Z</time></trkpt><trkpt lat="45.6312491" lon="11.4144106"><ele>126.0</ele><time>2026-05-03T07:05:25.971Z</time></trkpt><trkpt lat="45.6312619" lon="11.4145783"><ele>123.19999999999999</ele><time>2026-05-03T07:05:26.971Z</time></trkpt><trkpt lat="45.6312731" lon="11.4146763"><ele>120.39999999999999</ele><time>2026-05-03T07:05:27.972Z</time></trkpt><trkpt lat="45.6313132" lon="11.4148928"><ele>117.6</ele><time>2026-05-03T07:05:29.972Z</time></trkpt><trkpt lat="45.631338" lon="11.4150099"><ele>114.8</ele><time>2026-05-03T07:05:30.971Z</time></trkpt><trkpt lat="45.6313377" lon="11.4151229"><ele>112.0</ele><time>2026-05-03T07:05:31.971Z</time></trkpt><trkpt lat="45.631337" lon="11.4152282"><ele>112.0</ele><time>2026-05-03T07:05:32.971Z</time></trkpt><trkpt lat="45.6313312" lon="11.415338"><ele>111.99999999999999</ele><time>2026-05-03T07:05:33.971Z</time></trkpt><trkpt lat="45.6312445" lon="11.4155005"><ele>111.99999999999999</ele><time>2026-05-03T07:05:34.971Z</time></trkpt><trkpt lat="45.6311724" lon="11.4156346"><ele>112.0</ele><time>2026-05-03T07:05:35.971Z</time></trkpt><trkpt lat="45.6311327" lon="11.4157734"><ele>112.0</ele><time>2026-05-03T07:05:36.971Z</time></trkpt><trkpt lat="45.631074" lon="11.4158749"><ele>107.8</ele><time>2026-05-03T07:05:37.971Z</time></trkpt><trkpt lat="45.6310006" lon="11.4159582"><ele>103.6</ele><time>2026-05-03T07:05:38.971Z</time></trkpt><trkpt lat="45.6309184" lon="11.416062"><ele>99.39999999999999</ele><time>2026-05-03T07:05:39.971Z</time></trkpt><trkpt lat="45.6308502" lon="11.4161271"><ele>95.19999999999999</ele><time>2026-05-03T07:05:40.972Z</time></trkpt><trkpt lat="45.6307825" lon="11.41619"><ele>91.0</ele><time>2026-05-03T07:05:41.971Z</time></trkpt><trkpt lat="45.6307044" lon="11.4162948"><ele>91.0</ele><time>2026-05-03T07:05:43.971Z</time></trkpt><trkpt lat="45.6306413" lon="11.4163324"><ele>91.0</ele><time>2026-05-03T07:05:45.971Z</time></trkpt><trkpt lat="45.6305727" lon="11.4162414"><ele>91.0</ele><time>2026-05-03T07:05:48.97Z</time></trkpt><trkpt lat="45.6305154" lon="11.4161148"><ele>91.0</ele><time>2026-05-03T07:05:51.971Z</time></trkpt><trkpt lat="45.6304947" lon="11.4160056"><ele>91.0</ele><time>2026-05-03T07:05:53.972Z</time></trkpt><trkpt lat="45.6304605" lon="11.4159287"><ele>91.0</ele><time>2026-05-03T07:05:54.971Z</time></trkpt><trkpt lat="45.6304016" lon="11.4158195"><ele>91.0</ele><time>2026-05-03T07:05:56.971Z</time></trkpt><trkpt lat="45.630351" lon="11.4157295"><ele>91.0</ele><time>2026-05-03T07:05:58.971Z</time></trkpt><trkpt lat="45.6303007" lon="11.4156141"><ele>91.0</ele><time>2026-05-03T07:06:00.971Z</time></trkpt><trkpt lat="45.630249" lon="11.4155064"><ele>91.0</ele><time>2026-05-03T07:06:02.971Z</time></trkpt><trkpt lat="45.630209" lon="11.4154076"><ele>91.0</ele><time>2026-05-03T07:06:03.971Z</time></trkpt><trkpt lat="45.6301625" lon="11.4153449"><ele>91.0</ele><time>2026-05-03T07:06:04.972Z</time></trkpt><trkpt lat="45.630148" lon="11.4152342"><ele>90.6</ele><time>2026-05-03T07:06:06.972Z</time></trkpt><trkpt lat="45.6301213" lon="11.4151271"><ele>90.19999999999999</ele><time>2026-05-03T07:06:08.971Z</time></trkpt><trkpt lat="45.6300717" lon="11.4150084"><ele>89.80000000000001</ele><time>2026-05-03T07:06:10.971Z</time></trkpt><trkpt lat="45.6300247" lon="11.4148842"><ele>89.4</ele><time>2026-05-03T07:06:12.971Z</time></trkpt><trkpt lat="45.6299862" lon="11.4147585"><ele>89.0</ele><time>2026-05-03T07:06:14.971Z</time></trkpt><trkpt lat="45.6299468" lon="11.4146398"><ele>90.0</ele><time>2026-05-03T07:06:16.971Z</time></trkpt><trkpt lat="45.6298851" lon="11.41452"><ele>91.0</ele><time>2026-05-03T07:06:18.971Z</time></trkpt><trkpt lat="45.6298254" lon="11.4143983"><ele>92.0</ele><time>2026-05-03T07:06:20.971Z</time></trkpt><trkpt lat="45.6297688" lon="11.4142795"><ele>93.0</ele><time>2026-05-03T07:06:22.971Z</time></trkpt><trkpt lat="45.6297116" lon="11.4141562"><ele>94.0</ele><time>2026-05-03T07:06:24.971Z</time></trkpt><trkpt lat="45.6296558" lon="11.4140243"><ele>94.0</ele><time>2026-05-03T07:06:26.971Z</time></trkpt><trkpt lat="45.6295865" lon="11.4138811"><ele>94.0</ele><time>2026-05-03T07:06:28.972Z</time></trkpt><trkpt lat="45.6295095" lon="11.4137525"><ele>94.0</ele><time>2026-05-03T07:06:30.971Z</time></trkpt><trkpt lat="45.6294387" lon="11.4136342"><ele>94.0</ele><time>2026-05-03T07:06:32.972Z</time></trkpt><trkpt lat="45.6293701" lon="11.4135222"><ele>93.2</ele><time>2026-05-03T07:06:34.972Z</time></trkpt><trkpt lat="45.6293078" lon="11.4133911"><ele>92.4</ele><time>2026-05-03T07:06:36.971Z</time></trkpt><trkpt lat="45.6292316" lon="11.4132675"><ele>91.6</ele><time>2026-05-03T07:06:38.971Z</time></trkpt><trkpt lat="45.6291531" lon="11.4131712"><ele>90.8</ele><time>2026-05-03T07:06:40.971Z</time></trkpt><trkpt lat="45.6290898" lon="11.4130693"><ele>90.0</ele><time>2026-05-03T07:06:42.971Z</time></trkpt><trkpt lat="45.6290187" lon="11.4129514"><ele>90.0</ele><time>2026-05-03T07:06:44.971Z</time></trkpt><trkpt lat="45.6289425" lon="11.4128313"><ele>90.0</ele><time>2026-05-03T07:06:46.97Z</time></trkpt><trkpt lat="45.6288703" lon="11.4127112"><ele>90.0</ele><time>2026-05-03T07:06:48.972Z</time></trkpt><trkpt lat="45.6288034" lon="11.4125717"><ele>90.0</ele><time>2026-05-03T07:06:50.971Z</time></trkpt><trkpt lat="45.6287525" lon="11.4124392"><ele>90.0</ele><time>2026-05-03T07:06:52.972Z</time></trkpt><trkpt lat="45.6287057" lon="11.4122962"><ele>89.0</ele><time>2026-05-03T07:06:54.971Z</time></trkpt><trkpt lat="45.6286557" lon="11.4121539"><ele>88.0</ele><time>2026-05-03T07:06:56.972Z</time></trkpt><trkpt lat="45.6285973" lon="11.4120156"><ele>87.0</ele><time>2026-05-03T07:06:58.971Z</time></trkpt><trkpt lat="45.6285577" lon="11.4118806"><ele>86.0</ele><time>2026-05-03T07:07:00.971Z</time></trkpt><trkpt lat="45.6285186" lon="11.41174"><ele>85.0</ele><time>2026-05-03T07:07:02.971Z</time></trkpt><trkpt lat="45.6284806" lon="11.411591"><ele>85.0</ele><time>2026-05-03T07:07:04.971Z</time></trkpt><trkpt lat="45.6284409" lon="11.4114401"><ele>85.0</ele><time>2026-05-03T07:07:06.971Z</time></trkpt><trkpt lat="45.6284009" lon="11.4112891"><ele>85.0</ele><time>2026-05-03T07:07:08.971Z</time></trkpt><trkpt lat="45.6283539" lon="11.4111335"><ele>85.0</ele><time>2026-05-03T07:07:10.972Z</time></trkpt><trkpt lat="45.6283122" lon="11.4109845"><ele>85.2</ele><time>2026-05-03T07:07:12.971Z</time></trkpt><trkpt lat="45.6282672" lon="11.4108374"><ele>85.4</ele><time>2026-05-03T07:07:14.971Z</time></trkpt><trkpt lat="45.6282189" lon="11.4107006"><ele>85.6</ele><time>2026-05-03T07:07:16.971Z</time></trkpt><trkpt lat="45.6281823" lon="11.4105681"><ele>85.8</ele><time>2026-05-03T07:07:18.971Z</time></trkpt><trkpt lat="45.628166" lon="11.4104371"><ele>86.0</ele><time>2026-05-03T07:07:20.97Z</time></trkpt><trkpt lat="45.6281637" lon="11.4103058"><ele>86.33333333333334</ele><time>2026-05-03T07:07:22.971Z</time></trkpt><trkpt lat="45.6281684" lon="11.4101831"><ele>86.66666666666667</ele><time>2026-05-03T07:07:24.971Z</time></trkpt><trkpt lat="45.6281861" lon="11.4100531"><ele>87.0</ele><time>2026-05-03T07:07:26.971Z</time></trkpt><trkpt lat="45.6282099" lon="11.4099291"><ele>87.33333333333333</ele><time>2026-05-03T07:07:28.971Z</time></trkpt><trkpt lat="45.6282393" lon="11.4098016"><ele>87.66666666666666</ele><time>2026-05-03T07:07:30.97Z</time></trkpt><trkpt lat="45.628277" lon="11.4096925"><ele>88.0</ele><time>2026-05-03T07:07:32.972Z</time></trkpt><trkpt lat="45.6283112" lon="11.4095767"><ele>88.2</ele><time>2026-05-03T07:07:34.971Z</time></trkpt><trkpt lat="45.6283462" lon="11.4094483"><ele>88.4</ele><time>2026-05-03T07:07:36.971Z</time></trkpt><trkpt lat="45.6283678" lon="11.4093162"><ele>88.60000000000001</ele><time>2026-05-03T07:07:38.97Z</time></trkpt><trkpt lat="45.6283738" lon="11.4091944"><ele>88.80000000000001</ele><time>2026-05-03T07:07:40.971Z</time></trkpt><trkpt lat="45.6283826" lon="11.4090663"><ele>89.0</ele><time>2026-05-03T07:07:42.972Z</time></trkpt><trkpt lat="45.6283923" lon="11.4089349"><ele>89.0</ele><time>2026-05-03T07:07:44.971Z</time></trkpt><trkpt lat="45.6283877" lon="11.4088022"><ele>89.0</ele><time>2026-05-03T07:07:46.971Z</time></trkpt><trkpt lat="45.6283745" lon="11.4086703"><ele>89.0</ele><time>2026-05-03T07:07:48.971Z</time></trkpt><trkpt lat="45.6283605" lon="11.4085425"><ele>89.0</ele><time>2026-05-03T07:07:50.971Z</time></trkpt><trkpt lat="45.6283411" lon="11.4084245"><ele>89.0</ele><time>2026-05-03T07:07:52.971Z</time></trkpt><trkpt lat="45.6283134" lon="11.4083076"><ele>89.0</ele><time>2026-05-03T07:07:54.972Z</time></trkpt><trkpt lat="45.6282957" lon="11.4081913"><ele>88.99999999999999</ele><time>2026-05-03T07:07:56.971Z</time></trkpt><trkpt lat="45.6282843" lon="11.4080877"><ele>89.0</ele><time>2026-05-03T07:07:58.972Z</time></trkpt><trkpt lat="45.6282692" lon="11.4079808"><ele>89.0</ele><time>2026-05-03T07:08:00.971Z</time></trkpt><trkpt lat="45.6282516" lon="11.4078717"><ele>89.0</ele><time>2026-05-03T07:08:02.971Z</time></trkpt><trkpt lat="45.6282352" lon="11.407771"><ele>89.0</ele><time>2026-05-03T07:08:04.971Z</time></trkpt><trkpt lat="45.6282185" lon="11.4076788"><ele>88.99999999999999</ele><time>2026-05-03T07:08:06.971Z</time></trkpt><trkpt lat="45.6282119" lon="11.4075793"><ele>89.0</ele><time>2026-05-03T07:08:08.972Z</time></trkpt><trkpt lat="45.628215" lon="11.407485"><ele>89.16666666666667</ele><time>2026-05-03T07:08:10.971Z</time></trkpt><trkpt lat="45.6282015" lon="11.4073505"><ele>89.33333333333334</ele><time>2026-05-03T07:08:13.971Z</time></trkpt><trkpt lat="45.6281695" lon="11.4072437"><ele>89.5</ele><time>2026-05-03T07:08:16.971Z</time></trkpt><trkpt lat="45.6281442" lon="11.4071372"><ele>89.66666666666667</ele><time>2026-05-03T07:08:19.971Z</time></trkpt><trkpt lat="45.6281267" lon="11.4070119"><ele>89.83333333333333</ele><time>2026-05-03T07:08:22.971Z</time></trkpt><trkpt lat="45.6281142" lon="11.4068831"><ele>90.0</ele><time>2026-05-03T07:08:25.971Z</time></trkpt><trkpt lat="45.6280972" lon="11.4067677"><ele>90.33333333333333</ele><time>2026-05-03T07:08:28.971Z</time></trkpt><trkpt lat="45.6280991" lon="11.4066439"><ele>90.66666666666667</ele><time>2026-05-03T07:08:31.971Z</time></trkpt><trkpt lat="45.6280956" lon="11.4065163"><ele>91.0</ele><time>2026-05-03T07:08:34.972Z</time></trkpt><trkpt lat="45.6280465" lon="11.4064039"><ele>91.33333333333334</ele><time>2026-05-03T07:08:37.971Z</time></trkpt><trkpt lat="45.6279948" lon="11.4062995"><ele>91.66666666666667</ele><time>2026-05-03T07:08:39.971Z</time></trkpt><trkpt lat="45.6279527" lon="11.4062288"><ele>92.0</ele><time>2026-05-03T07:08:40.971Z</time></trkpt><trkpt lat="45.6278786" lon="11.4061024"><ele>91.39999999999999</ele><time>2026-05-03T07:08:42.971Z</time></trkpt><trkpt lat="45.6277468" lon="11.4059521"><ele>90.8</ele><time>2026-05-03T07:08:44.971Z</time></trkpt><trkpt lat="45.6276879" lon="11.4058476"><ele>90.2</ele><time>2026-05-03T07:08:46.971Z</time></trkpt><trkpt lat="45.6276053" lon="11.4058045"><ele>89.6</ele><time>2026-05-03T07:08:48.971Z</time></trkpt><trkpt lat="45.6275347" lon="11.4057282"><ele>89.0</ele><time>2026-05-03T07:08:50.971Z</time></trkpt><trkpt lat="45.6274551" lon="11.4056558"><ele>89.0</ele><time>2026-05-03T07:08:52.971Z</time></trkpt><trkpt lat="45.6273834" lon="11.405588"><ele>89.0</ele><time>2026-05-03T07:08:55.972Z</time></trkpt><trkpt lat="45.6273159" lon="11.4055012"><ele>89.0</ele><time>2026-05-03T07:08:58.971Z</time></trkpt><trkpt lat="45.6272627" lon="11.4054159"><ele>89.0</ele><time>2026-05-03T07:09:01.971Z</time></trkpt><trkpt lat="45.627196" lon="11.4053338"><ele>89.0</ele><time>2026-05-03T07:09:04.971Z</time></trkpt><trkpt lat="45.6271455" lon="11.4052791"><ele>89.0</ele><time>2026-05-03T07:09:06.971Z</time></trkpt><trkpt lat="45.6270663" lon="11.4052008"><ele>89.33333333333334</ele><time>2026-05-03T07:09:09.971Z</time></trkpt><trkpt lat="45.6270064" lon="11.4051025"><ele>89.66666666666667</ele><time>2026-05-03T07:09:12.971Z</time></trkpt><trkpt lat="45.6269454" lon="11.4050267"><ele>90.0</ele><time>2026-05-03T07:09:15.971Z</time></trkpt><trkpt lat="45.6268973" lon="11.4049665"><ele>90.33333333333333</ele><time>2026-05-03T07:09:18.971Z</time></trkpt><trkpt lat="45.6268551" lon="11.4048919"><ele>90.66666666666666</ele><time>2026-05-03T07:09:21.972Z</time></trkpt><trkpt lat="45.6268113" lon="11.4048061"><ele>91.0</ele><time>2026-05-03T07:09:24.972Z</time></trkpt><trkpt lat="45.6267748" lon="11.40471"><ele>93.0</ele><time>2026-05-03T07:09:27.971Z</time></trkpt><trkpt lat="45.6267123" lon="11.4046445"><ele>95.0</ele><time>2026-05-03T07:09:30.971Z</time></trkpt><trkpt lat="45.6266376" lon="11.4045685"><ele>97.0</ele><time>2026-05-03T07:09:33.971Z</time></trkpt><trkpt lat="45.6265936" lon="11.4045041"><ele>99.0</ele><time>2026-05-03T07:09:35.971Z</time></trkpt><trkpt lat="45.6265343" lon="11.4044226"><ele>101.0</ele><time>2026-05-03T07:09:38.971Z</time></trkpt><trkpt lat="45.6264783" lon="11.4043694"><ele>103.0</ele><time>2026-05-03T07:09:41.971Z</time></trkpt><trkpt lat="45.6264356" lon="11.4042989"><ele>105.0</ele><time>2026-05-03T07:09:44.971Z</time></trkpt><trkpt lat="45.6264045" lon="11.4042016"><ele>105.0</ele><time>2026-05-03T07:09:48.971Z</time></trkpt><trkpt lat="45.6264148" lon="11.4041078"><ele>105.0</ele><time>2026-05-03T07:09:52.972Z</time></trkpt><trkpt lat="45.6264236" lon="11.4040121"><ele>105.0</ele><time>2026-05-03T07:09:57.971Z</time></trkpt><trkpt lat="45.6264585" lon="11.4039253"><ele>105.0</ele><time>2026-05-03T07:10:03.972Z</time></trkpt><trkpt lat="45.62651" lon="11.4038375"><ele>105.0</ele><time>2026-05-03T07:10:09.972Z</time></trkpt><trkpt lat="45.6265497" lon="11.4037402"><ele>105.0</ele><time>2026-05-03T07:10:14.971Z</time></trkpt><trkpt lat="45.6266046" lon="11.4036592"><ele>105.0</ele><time>2026-05-03T07:10:18.971Z</time></trkpt><trkpt lat="45.6266279" lon="11.4035457"><ele>105.42857142857143</ele><time>2026-05-03T07:10:22.971Z</time></trkpt><trkpt lat="45.6266377" lon="11.403454"><ele>105.85714285714286</ele><time>2026-05-03T07:10:25.971Z</time></trkpt><trkpt lat="45.6266478" lon="11.403342"><ele>106.28571428571428</ele><time>2026-05-03T07:10:29.971Z</time></trkpt><trkpt lat="45.6266458" lon="11.4032492"><ele>106.71428571428572</ele><time>2026-05-03T07:10:32.972Z</time></trkpt><trkpt lat="45.6266511" lon="11.4031532"><ele>107.14285714285714</ele><time>2026-05-03T07:10:35.971Z</time></trkpt><trkpt lat="45.6266773" lon="11.4030339"><ele>107.57142857142857</ele><time>2026-05-03T07:10:38.971Z</time></trkpt><trkpt lat="45.626691" lon="11.4029216"><ele>108.0</ele><time>2026-05-03T07:10:41.971Z</time></trkpt><trkpt lat="45.6266888" lon="11.402819"><ele>108.57142857142857</ele><time>2026-05-03T07:10:45.971Z</time></trkpt><trkpt lat="45.6267132" lon="11.4027296"><ele>109.14285714285714</ele><time>2026-05-03T07:10:49.971Z</time></trkpt><trkpt lat="45.6267176" lon="11.4026248"><ele>109.71428571428572</ele><time>2026-05-03T07:10:53.971Z</time></trkpt><trkpt lat="45.626726" lon="11.402515"><ele>110.28571428571428</ele><time>2026-05-03T07:10:58.972Z</time></trkpt><trkpt lat="45.6267114" lon="11.4024268"><ele>110.85714285714286</ele><time>2026-05-03T07:11:03.971Z</time></trkpt><trkpt lat="45.6266879" lon="11.4023195"><ele>111.42857142857143</ele><time>2026-05-03T07:11:08.972Z</time></trkpt><trkpt lat="45.6266733" lon="11.4022167"><ele>112.0</ele><time>2026-05-03T07:11:12.972Z</time></trkpt><trkpt lat="45.6266844" lon="11.4021238"><ele>112.71428571428572</ele><time>2026-05-03T07:11:17.971Z</time></trkpt><trkpt lat="45.6266841" lon="11.4020128"><ele>113.42857142857143</ele><time>2026-05-03T07:11:22.971Z</time></trkpt><trkpt lat="45.6266908" lon="11.4019186"><ele>114.14285714285714</ele><time>2026-05-03T07:11:25.971Z</time></trkpt><trkpt lat="45.6266945" lon="11.4018189"><ele>114.85714285714286</ele><time>2026-05-03T07:11:29.971Z</time></trkpt><trkpt lat="45.6266209" lon="11.4018428"><ele>115.57142857142858</ele><time>2026-05-03T07:11:37.971Z</time></trkpt><trkpt lat="45.6265577" lon="11.4018753"><ele>116.28571428571429</ele><time>2026-05-03T07:11:41.971Z</time></trkpt><trkpt lat="45.6264925" lon="11.4019019"><ele>117.0</ele><time>2026-05-03T07:11:45.972Z</time></trkpt><trkpt lat="45.6264286" lon="11.4019308"><ele>117.0</ele><time>2026-05-03T07:11:51.971Z</time></trkpt><trkpt lat="45.6263639" lon="11.4019666"><ele>117.00000000000001</ele><time>2026-05-03T07:11:56.971Z</time></trkpt><trkpt lat="45.6263" lon="11.402001"><ele>117.0</ele><time>2026-05-03T07:12:01.971Z</time></trkpt><trkpt lat="45.6262297" lon="11.4020069"><ele>117.0</ele><time>2026-05-03T07:12:06.971Z</time></trkpt><trkpt lat="45.6261666" lon="11.4020182"><ele>117.00000000000001</ele><time>2026-05-03T07:12:11.972Z</time></trkpt><trkpt lat="45.6260987" lon="11.4020202"><ele>117.0</ele><time>2026-05-03T07:12:16.971Z</time></trkpt><trkpt lat="45.6260344" lon="11.4020395"><ele>117.0</ele><time>2026-05-03T07:12:21.971Z</time></trkpt><trkpt lat="45.6259677" lon="11.4020559"><ele>119.42857142857143</ele><time>2026-05-03T07:12:26.971Z</time></trkpt><trkpt lat="45.6258935" lon="11.402052"><ele>121.85714285714286</ele><time>2026-05-03T07:12:32.971Z</time></trkpt><trkpt lat="45.6258312" lon="11.4020106"><ele>124.28571428571429</ele><time>2026-05-03T07:12:41.971Z</time></trkpt><trkpt lat="45.62581" lon="11.4019083"><ele>126.71428571428572</ele><time>2026-05-03T07:12:49.971Z</time></trkpt><trkpt lat="45.6257607" lon="11.4018266"><ele>129.14285714285714</ele><time>2026-05-03T07:12:55.971Z</time></trkpt><trkpt lat="45.6257564" lon="11.4017245"><ele>131.57142857142858</ele><time>2026-05-03T07:13:02.971Z</time></trkpt><trkpt lat="45.6257751" lon="11.401634"><ele>134.0</ele><time>2026-05-03T07:13:08.972Z</time></trkpt><trkpt lat="45.6258002" lon="11.401548"><ele>134.0</ele><time>2026-05-03T07:13:14.972Z</time></trkpt><trkpt lat="45.6257927" lon="11.4014582"><ele>134.0</ele><time>2026-05-03T07:13:19.971Z</time></trkpt><trkpt lat="45.6258063" lon="11.4013611"><ele>134.0</ele><time>2026-05-03T07:13:25.972Z</time></trkpt><trkpt lat="45.6258178" lon="11.4012711"><ele>134.0</ele><time>2026-05-03T07:13:31.972Z</time></trkpt><trkpt lat="45.6258263" lon="11.4011682"><ele>134.0</ele><time>2026-05-03T07:13:37.971Z</time></trkpt><trkpt lat="45.6258283" lon="11.401064"><ele>134.0</ele><time>2026-05-03T07:13:42.969Z</time></trkpt><trkpt lat="45.6258272" lon="11.4009661"><ele>134.0</ele><time>2026-05-03T07:13:49.97Z</time></trkpt><trkpt lat="45.625837" lon="11.4008725"><ele>135.28571428571428</ele><time>2026-05-03T07:13:55.97Z</time></trkpt><trkpt lat="45.6258334" lon="11.4007721"><ele>136.57142857142856</ele><time>2026-05-03T07:14:00.971Z</time></trkpt><trkpt lat="45.625809" lon="11.4006829"><ele>137.85714285714283</ele><time>2026-05-03T07:14:05.97Z</time></trkpt><trkpt lat="45.6257555" lon="11.4006168"><ele>139.14285714285714</ele><time>2026-05-03T07:14:11.97Z</time></trkpt><trkpt lat="45.6257007" lon="11.400529"><ele>140.42857142857142</ele><time>2026-05-03T07:14:16.97Z</time></trkpt><trkpt lat="45.6256652" lon="11.4004474"><ele>141.7142857142857</ele><time>2026-05-03T07:14:19.97Z</time></trkpt><trkpt lat="45.6256212" lon="11.4003728"><ele>143.0</ele><time>2026-05-03T07:14:23.969Z</time></trkpt><trkpt lat="45.6255648" lon="11.4003197"><ele>143.7142857142857</ele><time>2026-05-03T07:14:31.97Z</time></trkpt><trkpt lat="45.6254956" lon="11.4003038"><ele>144.42857142857142</ele><time>2026-05-03T07:14:37.97Z</time></trkpt><trkpt lat="45.6254204" lon="11.4002993"><ele>145.14285714285714</ele><time>2026-05-03T07:14:43.97Z</time></trkpt><trkpt lat="45.6253445" lon="11.4003137"><ele>145.85714285714283</ele><time>2026-05-03T07:14:47.97Z</time></trkpt><trkpt lat="45.6252766" lon="11.4003367"><ele>146.57142857142856</ele><time>2026-05-03T07:14:51.97Z</time></trkpt><trkpt lat="45.6252014" lon="11.4003578"><ele>147.28571428571428</ele><time>2026-05-03T07:14:56.97Z</time></trkpt><trkpt lat="45.6251298" lon="11.4003441"><ele>148.0</ele><time>2026-05-03T07:15:00.97Z</time></trkpt><trkpt lat="45.6250541" lon="11.4003377"><ele>149.71428571428572</ele><time>2026-05-03T07:15:04.971Z</time></trkpt><trkpt lat="45.6249847" lon="11.4003544"><ele>151.42857142857142</ele><time>2026-05-03T07:15:08.971Z</time></trkpt><trkpt lat="45.6249053" lon="11.4003431"><ele>153.14285714285714</ele><time>2026-05-03T07:15:13.97Z</time></trkpt><trkpt lat="45.6248411" lon="11.4003343"><ele>154.85714285714286</ele><time>2026-05-03T07:15:17.971Z</time></trkpt><trkpt lat="45.6247717" lon="11.4003348"><ele>156.57142857142858</ele><time>2026-05-03T07:15:22.97Z</time></trkpt><trkpt lat="45.6247087" lon="11.4003373"><ele>158.28571428571428</ele><time>2026-05-03T07:15:27.971Z</time></trkpt><trkpt lat="45.6246336" lon="11.4003415"><ele>160.0</ele><time>2026-05-03T07:15:33.97Z</time></trkpt><trkpt lat="45.6245567" lon="11.4003559"><ele>160.0</ele><time>2026-05-03T07:15:38.97Z</time></trkpt><trkpt lat="45.6244856" lon="11.4003945"><ele>160.0</ele><time>2026-05-03T07:15:42.97Z</time></trkpt><trkpt lat="45.624418" lon="11.4004344"><ele>160.0</ele><time>2026-05-03T07:15:46.97Z</time></trkpt><trkpt lat="45.624351" lon="11.4004545"><ele>160.0</ele><time>2026-05-03T07:15:50.97Z</time></trkpt><trkpt lat="45.6242901" lon="11.4004917"><ele>160.0</ele><time>2026-05-03T07:15:54.97Z</time></trkpt><trkpt lat="45.6242353" lon="11.400544"><ele>160.0</ele><time>2026-05-03T07:15:59.971Z</time></trkpt><trkpt lat="45.6241702" lon="11.4005719"><ele>160.0</ele><time>2026-05-03T07:16:04.971Z</time></trkpt><trkpt lat="45.6241061" lon="11.4005829"><ele>160.14285714285714</ele><time>2026-05-03T07:16:11.97Z</time></trkpt><trkpt lat="45.6240356" lon="11.4006021"><ele>160.28571428571428</ele><time>2026-05-03T07:16:16.97Z</time></trkpt><trkpt lat="45.623957" lon="11.4005986"><ele>160.42857142857144</ele><time>2026-05-03T07:16:21.97Z</time></trkpt><trkpt lat="45.6238839" lon="11.400594"><ele>160.57142857142856</ele><time>2026-05-03T07:16:27.97Z</time></trkpt><trkpt lat="45.6238171" lon="11.4006081"><ele>160.71428571428572</ele><time>2026-05-03T07:16:32.97Z</time></trkpt><trkpt lat="45.6237473" lon="11.4006438"><ele>160.85714285714286</ele><time>2026-05-03T07:16:37.969Z</time></trkpt><trkpt lat="45.6236797" lon="11.4006763"><ele>161.0</ele><time>2026-05-03T07:16:41.97Z</time></trkpt><trkpt lat="45.6236115" lon="11.4006449"><ele>162.28571428571428</ele><time>2026-05-03T07:16:45.97Z</time></trkpt><trkpt lat="45.6235455" lon="11.4006463"><ele>163.57142857142856</ele><time>2026-05-03T07:16:49.97Z</time></trkpt><trkpt lat="45.6234861" lon="11.4006078"><ele>164.85714285714286</ele><time>2026-05-03T07:16:53.97Z</time></trkpt><trkpt lat="45.623447" lon="11.4005349"><ele>166.14285714285714</ele><time>2026-05-03T07:16:57.97Z</time></trkpt><trkpt lat="45.6233952" lon="11.4004805"><ele>167.42857142857142</ele><time>2026-05-03T07:17:01.97Z</time></trkpt><trkpt lat="45.623324" lon="11.4004467"><ele>168.71428571428572</ele><time>2026-05-03T07:17:06.97Z</time></trkpt><trkpt lat="45.623261" lon="11.4003939"><ele>170.0</ele><time>2026-05-03T07:17:11.97Z</time></trkpt><trkpt lat="45.6232591" lon="11.4002953"><ele>171.57142857142858</ele><time>2026-05-03T07:17:17.97Z</time></trkpt><trkpt lat="45.623316" lon="11.4002534"><ele>173.14285714285714</ele><time>2026-05-03T07:17:24.97Z</time></trkpt><trkpt lat="45.6233847" lon="11.4002179"><ele>174.71428571428572</ele><time>2026-05-03T07:17:30.97Z</time></trkpt><trkpt lat="45.6234444" lon="11.4001583"><ele>176.28571428571428</ele><time>2026-05-03T07:17:35.97Z</time></trkpt><trkpt lat="45.6234683" lon="11.400061"><ele>177.85714285714283</ele><time>2026-05-03T07:17:41.97Z</time></trkpt><trkpt lat="45.6235297" lon="11.4000025"><ele>179.42857142857142</ele><time>2026-05-03T07:17:46.97Z</time></trkpt><trkpt lat="45.6235887" lon="11.3999388"><ele>181.0</ele><time>2026-05-03T07:17:50.97Z</time></trkpt><trkpt lat="45.6236239" lon="11.3998587"><ele>181.85714285714286</ele><time>2026-05-03T07:17:54.97Z</time></trkpt><trkpt lat="45.6236665" lon="11.3997773"><ele>182.71428571428572</ele><time>2026-05-03T07:17:58.97Z</time></trkpt><trkpt lat="45.623719" lon="11.3997238"><ele>183.57142857142856</ele><time>2026-05-03T07:18:02.97Z</time></trkpt><trkpt lat="45.623765" lon="11.3996566"><ele>184.42857142857144</ele><time>2026-05-03T07:18:06.97Z</time></trkpt><trkpt lat="45.6238105" lon="11.3995902"><ele>185.2857142857143</ele><time>2026-05-03T07:18:12.97Z</time></trkpt><trkpt lat="45.6238564" lon="11.3995189"><ele>186.14285714285714</ele><time>2026-05-03T07:18:18.97Z</time></trkpt><trkpt lat="45.6239005" lon="11.3994385"><ele>187.0</ele><time>2026-05-03T07:18:23.97Z</time></trkpt><trkpt lat="45.6239387" lon="11.3993647"><ele>187.0</ele><time>2026-05-03T07:18:28.97Z</time></trkpt><trkpt lat="45.6239648" lon="11.3992778"><ele>187.0</ele><time>2026-05-03T07:18:33.969Z</time></trkpt><trkpt lat="45.6240156" lon="11.3992186"><ele>187.0</ele><time>2026-05-03T07:18:38.969Z</time></trkpt><trkpt lat="45.6240543" lon="11.3991395"><ele>187.0</ele><time>2026-05-03T07:18:43.969Z</time></trkpt><trkpt lat="45.6240891" lon="11.3990472"><ele>187.0</ele><time>2026-05-03T07:18:50.969Z</time></trkpt><trkpt lat="45.6241463" lon="11.3989923"><ele>187.0</ele><time>2026-05-03T07:18:56.969Z</time></trkpt><trkpt lat="45.6241809" lon="11.398894"><ele>187.0</ele><time>2026-05-03T07:19:05.969Z</time></trkpt><trkpt lat="45.6242013" lon="11.3988037"><ele>189.85714285714286</ele><time>2026-05-03T07:19:10.969Z</time></trkpt><trkpt lat="45.6242354" lon="11.3987226"><ele>192.71428571428572</ele><time>2026-05-03T07:19:17.969Z</time></trkpt><trkpt lat="45.6242833" lon="11.398657"><ele>195.57142857142858</ele><time>2026-05-03T07:19:23.97Z</time></trkpt><trkpt lat="45.6243123" lon="11.3985589"><ele>198.42857142857144</ele><time>2026-05-03T07:19:27.969Z</time></trkpt><trkpt lat="45.6243593" lon="11.39847"><ele>201.28571428571428</ele><time>2026-05-03T07:19:32.97Z</time></trkpt><trkpt lat="45.6244156" lon="11.3983932"><ele>204.14285714285717</ele><time>2026-05-03T07:19:37.97Z</time></trkpt><trkpt lat="45.624456" lon="11.3982957"><ele>207.0</ele><time>2026-05-03T07:19:42.97Z</time></trkpt><trkpt lat="45.6244777" lon="11.3981963"><ele>205.14285714285717</ele><time>2026-05-03T07:19:49.97Z</time></trkpt><trkpt lat="45.6245087" lon="11.3980975"><ele>203.28571428571428</ele><time>2026-05-03T07:19:56.969Z</time></trkpt><trkpt lat="45.6245507" lon="11.3980126"><ele>201.42857142857144</ele><time>2026-05-03T07:20:01.969Z</time></trkpt><trkpt lat="45.6245777" lon="11.3979154"><ele>199.57142857142858</ele><time>2026-05-03T07:20:06.97Z</time></trkpt><trkpt lat="45.6245973" lon="11.397819"><ele>197.71428571428572</ele><time>2026-05-03T07:20:12.969Z</time></trkpt><trkpt lat="45.6246308" lon="11.3977312"><ele>195.85714285714286</ele><time>2026-05-03T07:20:16.969Z</time></trkpt><trkpt lat="45.6246616" lon="11.3976325"><ele>194.0</ele><time>2026-05-03T07:20:20.969Z</time></trkpt><trkpt lat="45.6246748" lon="11.3975263"><ele>194.0</ele><time>2026-05-03T07:20:24.968Z</time></trkpt><trkpt lat="45.624698" lon="11.397414"><ele>194.0</ele><time>2026-05-03T07:20:28.969Z</time></trkpt><trkpt lat="45.6247033" lon="11.3973028"><ele>194.0</ele><time>2026-05-03T07:20:31.969Z</time></trkpt><trkpt lat="45.6247055" lon="11.3972094"><ele>194.0</ele><time>2026-05-03T07:20:34.969Z</time></trkpt><trkpt lat="45.6247088" lon="11.3970947"><ele>194.0</ele><time>2026-05-03T07:20:38.969Z</time></trkpt><trkpt lat="45.6247159" lon="11.3969911"><ele>194.0</ele><time>2026-05-03T07:20:42.969Z</time></trkpt><trkpt lat="45.6247067" lon="11.396897"><ele>194.0</ele><time>2026-05-03T07:20:45.969Z</time></trkpt><trkpt lat="45.6247279" lon="11.3967845"><ele>195.57142857142856</ele><time>2026-05-03T07:20:51.969Z</time></trkpt><trkpt lat="45.6247348" lon="11.3966879"><ele>197.14285714285717</ele><time>2026-05-03T07:20:54.969Z</time></trkpt><trkpt lat="45.6247577" lon="11.3965753"><ele>198.71428571428572</ele><time>2026-05-03T07:20:58.969Z</time></trkpt><trkpt lat="45.6247678" lon="11.3964857"><ele>200.28571428571428</ele><time>2026-05-03T07:21:03.969Z</time></trkpt><trkpt lat="45.6247823" lon="11.3963786"><ele>201.85714285714283</ele><time>2026-05-03T07:21:07.969Z</time></trkpt><trkpt lat="45.6247864" lon="11.3962688"><ele>203.42857142857144</ele><time>2026-05-03T07:21:11.969Z</time></trkpt><trkpt lat="45.6247609" lon="11.396168"><ele>205.0</ele><time>2026-05-03T07:21:15.969Z</time></trkpt><trkpt lat="45.6247625" lon="11.3960642"><ele>205.85714285714286</ele><time>2026-05-03T07:21:19.969Z</time></trkpt><trkpt lat="45.6247646" lon="11.3959658"><ele>206.7142857142857</ele><time>2026-05-03T07:21:23.97Z</time></trkpt><trkpt lat="45.6247422" lon="11.3958798"><ele>207.57142857142856</ele><time>2026-05-03T07:21:27.969Z</time></trkpt><trkpt lat="45.6247546" lon="11.3957866"><ele>208.42857142857144</ele><time>2026-05-03T07:21:30.97Z</time></trkpt><trkpt lat="45.6247722" lon="11.3956741"><ele>209.28571428571428</ele><time>2026-05-03T07:21:34.969Z</time></trkpt><trkpt lat="45.6247856" lon="11.3955736"><ele>210.14285714285714</ele><time>2026-05-03T07:21:37.969Z</time></trkpt><trkpt lat="45.6248024" lon="11.3954728"><ele>211.0</ele><time>2026-05-03T07:21:40.969Z</time></trkpt><trkpt lat="45.6248206" lon="11.395375"><ele>211.42857142857144</ele><time>2026-05-03T07:21:43.97Z</time></trkpt><trkpt lat="45.6248454" lon="11.395287"><ele>211.85714285714286</ele><time>2026-05-03T07:21:46.969Z</time></trkpt><trkpt lat="45.6248537" lon="11.3951787"><ele>212.28571428571428</ele><time>2026-05-03T07:21:49.969Z</time></trkpt><trkpt lat="45.6248653" lon="11.3950719"><ele>212.71428571428572</ele><time>2026-05-03T07:21:52.969Z</time></trkpt><trkpt lat="45.6248897" lon="11.3949704"><ele>213.14285714285714</ele><time>2026-05-03T07:21:55.97Z</time></trkpt><trkpt lat="45.6248787" lon="11.3948593"><ele>213.57142857142858</ele><time>2026-05-03T07:21:59.969Z</time></trkpt><trkpt lat="45.6248754" lon="11.3947506"><ele>214.0</ele><time>2026-05-03T07:22:03.968Z</time></trkpt><trkpt lat="45.6248636" lon="11.3946554"><ele>214.42857142857144</ele><time>2026-05-03T07:22:08.969Z</time></trkpt><trkpt lat="45.6248408" lon="11.394562"><ele>214.85714285714286</ele><time>2026-05-03T07:22:11.969Z</time></trkpt><trkpt lat="45.6248388" lon="11.394468"><ele>215.28571428571428</ele><time>2026-05-03T07:22:15.969Z</time></trkpt><trkpt lat="45.6248299" lon="11.3943767"><ele>215.71428571428572</ele><time>2026-05-03T07:22:20.969Z</time></trkpt><trkpt lat="45.6248414" lon="11.3942849"><ele>216.14285714285714</ele><time>2026-05-03T07:22:23.969Z</time></trkpt><trkpt lat="45.6248733" lon="11.3941883"><ele>216.57142857142858</ele><time>2026-05-03T07:22:26.97Z</time></trkpt><trkpt lat="45.6249053" lon="11.394109"><ele>217.0</ele><time>2026-05-03T07:22:28.969Z</time></trkpt><trkpt lat="45.6249272" lon="11.3940206"><ele>216.99999999999997</ele><time>2026-05-03T07:22:30.968Z</time></trkpt><trkpt lat="45.6249576" lon="11.393919"><ele>217.0</ele><time>2026-05-03T07:22:33.969Z</time></trkpt><trkpt lat="45.6249826" lon="11.3937943"><ele>217.0</ele><time>2026-05-03T07:22:37.969Z</time></trkpt><trkpt lat="45.6249554" lon="11.3936948"><ele>217.0</ele><time>2026-05-03T07:22:41.969Z</time></trkpt><trkpt lat="45.6249489" lon="11.3935952"><ele>216.99999999999997</ele><time>2026-05-03T07:22:45.97Z</time></trkpt><trkpt lat="45.6249599" lon="11.393487"><ele>217.0</ele><time>2026-05-03T07:22:49.969Z</time></trkpt><trkpt lat="45.6249501" lon="11.3933961"><ele>218.0</ele><time>2026-05-03T07:22:54.97Z</time></trkpt><trkpt lat="45.6249744" lon="11.3933017"><ele>219.0</ele><time>2026-05-03T07:22:58.969Z</time></trkpt><trkpt lat="45.6250479" lon="11.3932323"><ele>220.0</ele><time>2026-05-03T07:23:01.968Z</time></trkpt><trkpt lat="45.6250705" lon="11.3931474"><ele>221.0</ele><time>2026-05-03T07:23:04.97Z</time></trkpt><trkpt lat="45.6251139" lon="11.393082"><ele>222.0</ele><time>2026-05-03T07:23:07.969Z</time></trkpt><trkpt lat="45.6251794" lon="11.393036"><ele>223.0</ele><time>2026-05-03T07:23:10.969Z</time></trkpt><trkpt lat="45.6252281" lon="11.3929497"><ele>224.0</ele><time>2026-05-03T07:23:13.97Z</time></trkpt><trkpt lat="45.625259" lon="11.3928672"><ele>221.33333333333334</ele><time>2026-05-03T07:23:15.969Z</time></trkpt><trkpt lat="45.6252855" lon="11.3927811"><ele>218.66666666666669</ele><time>2026-05-03T07:23:17.969Z</time></trkpt><trkpt lat="45.6253147" lon="11.3926581"><ele>216.0</ele><time>2026-05-03T07:23:20.969Z</time></trkpt><trkpt lat="45.6253563" lon="11.3925433"><ele>213.33333333333331</ele><time>2026-05-03T07:23:23.97Z</time></trkpt><trkpt lat="45.625408" lon="11.3924413"><ele>210.66666666666666</ele><time>2026-05-03T07:23:26.969Z</time></trkpt><trkpt lat="45.6254386" lon="11.3923451"><ele>208.0</ele><time>2026-05-03T07:23:28.969Z</time></trkpt><trkpt lat="45.6254569" lon="11.3922485"><ele>210.99999999999997</ele><time>2026-05-03T07:23:30.969Z</time></trkpt><trkpt lat="45.6254892" lon="11.3921468"><ele>214.0</ele><time>2026-05-03T07:23:34.97Z</time></trkpt><trkpt lat="45.6255308" lon="11.3920589"><ele>217.0</ele><time>2026-05-03T07:23:37.969Z</time></trkpt><trkpt lat="45.6255769" lon="11.391984"><ele>220.0</ele><time>2026-05-03T07:23:40.969Z</time></trkpt><trkpt lat="45.6256258" lon="11.3919"><ele>222.99999999999997</ele><time>2026-05-03T07:23:44.969Z</time></trkpt><trkpt lat="45.6256988" lon="11.3918386"><ele>226.0</ele><time>2026-05-03T07:23:47.969Z</time></trkpt><trkpt lat="45.6257624" lon="11.3917714"><ele>225.99999999999997</ele><time>2026-05-03T07:23:50.969Z</time></trkpt><trkpt lat="45.6258291" lon="11.391704"><ele>226.0</ele><time>2026-05-03T07:23:54.969Z</time></trkpt><trkpt lat="45.6258948" lon="11.391637"><ele>226.0</ele><time>2026-05-03T07:23:58.97Z</time></trkpt><trkpt lat="45.6259603" lon="11.3915909"><ele>226.0</ele><time>2026-05-03T07:24:02.969Z</time></trkpt><trkpt lat="45.6260312" lon="11.3915609"><ele>225.99999999999997</ele><time>2026-05-03T07:24:06.969Z</time></trkpt><trkpt lat="45.6261051" lon="11.3915482"><ele>226.0</ele><time>2026-05-03T07:24:11.969Z</time></trkpt><trkpt lat="45.6261805" lon="11.3915593"><ele>225.42857142857144</ele><time>2026-05-03T07:24:16.969Z</time></trkpt><trkpt lat="45.6262529" lon="11.3915879"><ele>224.85714285714283</ele><time>2026-05-03T07:24:21.969Z</time></trkpt><trkpt lat="45.626322" lon="11.3916001"><ele>224.28571428571428</ele><time>2026-05-03T07:24:24.969Z</time></trkpt><trkpt lat="45.6264026" lon="11.3915766"><ele>223.71428571428572</ele><time>2026-05-03T07:24:28.969Z</time></trkpt><trkpt lat="45.6264648" lon="11.3915459"><ele>223.14285714285717</ele><time>2026-05-03T07:24:31.969Z</time></trkpt><trkpt lat="45.6265258" lon="11.3915186"><ele>222.57142857142856</ele><time>2026-05-03T07:24:34.969Z</time></trkpt><trkpt lat="45.6266054" lon="11.3914974"><ele>222.0</ele><time>2026-05-03T07:24:37.969Z</time></trkpt><trkpt lat="45.6267044" lon="11.3914907"><ele>222.0</ele><time>2026-05-03T07:24:42.969Z</time></trkpt><trkpt lat="45.6267625" lon="11.3914484"><ele>222.0</ele><time>2026-05-03T07:24:45.969Z</time></trkpt><trkpt lat="45.6268433" lon="11.3914365"><ele>222.0</ele><time>2026-05-03T07:24:49.969Z</time></trkpt><trkpt lat="45.6269052" lon="11.391414"><ele>222.0</ele><time>2026-05-03T07:24:52.969Z</time></trkpt><trkpt lat="45.6269725" lon="11.3913888"><ele>222.0</ele><time>2026-05-03T07:24:55.969Z</time></trkpt><trkpt lat="45.6270351" lon="11.3913576"><ele>222.0</ele><time>2026-05-03T07:24:58.969Z</time></trkpt><trkpt lat="45.627103" lon="11.3913304"><ele>222.0</ele><time>2026-05-03T07:25:03.969Z</time></trkpt><trkpt lat="45.6272902" lon="11.3913417"><ele>226.71428571428572</ele><time>2026-05-03T07:25:13.969Z</time></trkpt><trkpt lat="45.6273708" lon="11.3913289"><ele>231.42857142857144</ele><time>2026-05-03T07:25:17.969Z</time></trkpt><trkpt lat="45.627437" lon="11.3912989"><ele>236.14285714285717</ele><time>2026-05-03T07:25:20.969Z</time></trkpt><trkpt lat="45.6275005" lon="11.3912632"><ele>240.85714285714286</ele><time>2026-05-03T07:25:23.969Z</time></trkpt><trkpt lat="45.6275782" lon="11.3912296"><ele>245.5714285714286</ele><time>2026-05-03T07:25:27.969Z</time></trkpt><trkpt lat="45.6276515" lon="11.3912028"><ele>250.2857142857143</ele><time>2026-05-03T07:25:31.969Z</time></trkpt><trkpt lat="45.6277157" lon="11.3911895"><ele>255.0</ele><time>2026-05-03T07:25:34.969Z</time></trkpt><trkpt lat="45.6277787" lon="11.3911281"><ele>251.5</ele><time>2026-05-03T07:25:39.97Z</time></trkpt><trkpt lat="45.6280097" lon="11.3910912"><ele>248.0</ele><time>2026-05-03T07:25:52.969Z</time></trkpt><trkpt lat="45.6280855" lon="11.3910862"><ele>244.5</ele><time>2026-05-03T07:25:56.97Z</time></trkpt><trkpt lat="45.6281571" lon="11.3910298"><ele>241.0</ele><time>2026-05-03T07:26:00.969Z</time></trkpt><trkpt lat="45.6282208" lon="11.3909992"><ele>241.0</ele><time>2026-05-03T07:26:04.97Z</time></trkpt><trkpt lat="45.6282808" lon="11.3909563"><ele>241.00000000000003</ele><time>2026-05-03T07:26:06.97Z</time></trkpt><trkpt lat="45.6283357" lon="11.3909103"><ele>241.0</ele><time>2026-05-03T07:26:08.969Z</time></trkpt><trkpt lat="45.6284134" lon="11.3908924"><ele>241.0</ele><time>2026-05-03T07:26:11.969Z</time></trkpt><trkpt lat="45.6284757" lon="11.3908723"><ele>241.00000000000003</ele><time>2026-05-03T07:26:13.969Z</time></trkpt><trkpt lat="45.6285361" lon="11.3908179"><ele>241.0</ele><time>2026-05-03T07:26:16.969Z</time></trkpt><trkpt lat="45.6285919" lon="11.3907445"><ele>241.0</ele><time>2026-05-03T07:26:19.969Z</time></trkpt><trkpt lat="45.6286282" lon="11.3906479"><ele>242.71428571428572</ele><time>2026-05-03T07:26:22.969Z</time></trkpt><trkpt lat="45.6286637" lon="11.3905616"><ele>244.42857142857144</ele><time>2026-05-03T07:26:25.969Z</time></trkpt><trkpt lat="45.6287105" lon="11.3904666"><ele>246.14285714285717</ele><time>2026-05-03T07:26:29.969Z</time></trkpt><trkpt lat="45.6287543" lon="11.3903934"><ele>247.8571428571429</ele><time>2026-05-03T07:26:38.97Z</time></trkpt><trkpt lat="45.6287964" lon="11.3902938"><ele>249.57142857142858</ele><time>2026-05-03T07:26:43.969Z</time></trkpt><trkpt lat="45.6288226" lon="11.3902062"><ele>251.28571428571433</ele><time>2026-05-03T07:26:46.97Z</time></trkpt><trkpt lat="45.6288912" lon="11.3901467"><ele>253.00000000000003</ele><time>2026-05-03T07:26:51.969Z</time></trkpt><trkpt lat="45.6289514" lon="11.3900836"><ele>253.00000000000003</ele><time>2026-05-03T07:26:54.969Z</time></trkpt><trkpt lat="45.6289761" lon="11.3899871"><ele>253.0</ele><time>2026-05-03T07:26:57.969Z</time></trkpt><trkpt lat="45.6289958" lon="11.389888"><ele>253.00000000000003</ele><time>2026-05-03T07:27:01.969Z</time></trkpt><trkpt lat="45.6290437" lon="11.389825"><ele>253.00000000000003</ele><time>2026-05-03T07:27:06.969Z</time></trkpt><trkpt lat="45.6291133" lon="11.3897857"><ele>253.0</ele><time>2026-05-03T07:27:16.969Z</time></trkpt><trkpt lat="45.6291611" lon="11.389723"><ele>253.00000000000003</ele><time>2026-05-03T07:27:21.969Z</time></trkpt><trkpt lat="45.6292205" lon="11.3897542"><ele>253.00000000000003</ele><time>2026-05-03T07:27:27.969Z</time></trkpt><trkpt lat="45.6293128" lon="11.3897861"><ele>222.0</ele><time>2026-05-03T07:27:34.969Z</time></trkpt><trkpt lat="45.6266054" lon="11.3914974"><ele>222.0</ele><time>2026-05-03T07:24:37.969Z</time></trkpt><trkpt lat="45.6267044" lon="11.3914907"><ele>222.0</ele><time>2026-05-03T07:24:42.969Z</time></trkpt><trkpt lat="45.6267625" lon="11.3914484"><ele>222.0</ele><time>2026-05-03T07:24:45.969Z</time></trkpt><trkpt lat="45.6268433" lon="11.3914365"><ele>222.0</ele><time>2026-05-03T07:24:49.969Z</time></trkpt><trkpt lat="45.6269052" lon="11.391414"><ele>222.0</ele><time>2026-05-03T07:24:52.969Z</time></trkpt><trkpt lat="45.6269725" lon="11.3913888"><ele>222.0</ele><time>2026-05-03T07:24:55.969Z</time></trkpt><trkpt lat="45.6270351" lon="11.3913576"><ele>222.0</ele><time>2026-05-03T07:24:58.969Z</time></trkpt><trkpt lat="45.627103" lon="11.3913304"><ele>223.0</ele><time>2026-05-03T07:25:03.969Z</time></trkpt><trkpt lat="45.6272902" lon="11.3913417"><ele>224.0</ele><time>2026-05-03T07:25:13.969Z</time></trkpt><trkpt lat="45.6273708" lon="11.3913289"><ele>225.0</ele><time>2026-05-03T07:25:17.969Z</time></trkpt><trkpt lat="45.627437" lon="11.3912989"><ele>226.0</ele><time>2026-05-03T07:25:20.969Z</time></trkpt><trkpt lat="45.6275005" lon="11.3912632"><ele>227.0</ele><time>2026-05-03T07:25:23.969Z</time></trkpt><trkpt lat="45.6275782" lon="11.3912296"><ele>229.8</ele><time>2026-05-03T07:25:27.969Z</time></trkpt><trkpt lat="45.6276515" lon="11.3912028"><ele>232.6</ele><time>2026-05-03T07:25:31.969Z</time></trkpt><trkpt lat="45.6277157" lon="11.3911895"><ele>235.40000000000003</ele><time>2026-05-03T07:25:34.969Z</time></trkpt><trkpt lat="45.6277787" lon="11.3911281"><ele>238.20000000000002</ele><time>2026-05-03T07:25:39.97Z</time></trkpt><trkpt lat="45.6280097" lon="11.3910912"><ele>241.0</ele><time>2026-05-03T07:25:52.969Z</time></trkpt><trkpt lat="45.6280855" lon="11.3910862"><ele>241.0</ele><time>2026-05-03T07:25:56.97Z</time></trkpt><trkpt lat="45.6281571" lon="11.3910298"><ele>241.00000000000003</ele><time>2026-05-03T07:26:00.969Z</time></trkpt><trkpt lat="45.6282208" lon="11.3909992"><ele>241.0</ele><time>2026-05-03T07:26:04.97Z</time></trkpt><trkpt lat="45.6282808" lon="11.3909563"><ele>241.0</ele><time>2026-05-03T07:26:06.97Z</time></trkpt><trkpt lat="45.6283357" lon="11.3909103"><ele>241.00000000000003</ele><time>2026-05-03T07:26:08.969Z</time></trkpt><trkpt lat="45.6284134" lon="11.3908924"><ele>241.0</ele><time>2026-05-03T07:26:11.969Z</time></trkpt><trkpt lat="45.6284757" lon="11.3908723"><ele>241.0</ele><time>2026-05-03T07:26:13.969Z</time></trkpt><trkpt lat="45.6285361" lon="11.3908179"><ele>240.99999999999997</ele><time>2026-05-03T07:26:16.969Z</time></trkpt><trkpt lat="45.6285919" lon="11.3907445"><ele>241.0</ele><time>2026-05-03T07:26:19.969Z</time></trkpt><trkpt lat="45.6286282" lon="11.3906479"><ele>241.0</ele><time>2026-05-03T07:26:22.969Z</time></trkpt><trkpt lat="45.6286637" lon="11.3905616"><ele>241.0</ele><time>2026-05-03T07:26:25.969Z</time></trkpt><trkpt lat="45.6287105" lon="11.3904666"><ele>240.99999999999997</ele><time>2026-05-03T07:26:29.969Z</time></trkpt><trkpt lat="45.6287543" lon="11.3903934"><ele>241.0</ele><time>2026-05-03T07:26:38.97Z</time></trkpt><trkpt lat="45.6287964" lon="11.3902938"><ele>242.71428571428572</ele><time>2026-05-03T07:26:43.969Z</time></trkpt><trkpt lat="45.6288226" lon="11.3902062"><ele>244.42857142857144</ele><time>2026-05-03T07:26:46.97Z</time></trkpt><trkpt lat="45.6288912" lon="11.3901467"><ele>246.14285714285717</ele><time>2026-05-03T07:26:51.969Z</time></trkpt><trkpt lat="45.6289514" lon="11.3900836"><ele>247.8571428571429</ele><time>2026-05-03T07:26:54.969Z</time></trkpt><trkpt lat="45.6289761" lon="11.3899871"><ele>249.57142857142858</ele><time>2026-05-03T07:26:57.969Z</time></trkpt><trkpt lat="45.6289958" lon="11.389888"><ele>251.28571428571433</ele><time>2026-05-03T07:27:01.969Z</time></trkpt><trkpt lat="45.6290437" lon="11.389825"><ele>253.00000000000003</ele><time>2026-05-03T07:27:06.969Z</time></trkpt><trkpt lat="45.6291133" lon="11.3897857"><ele>253.00000000000003</ele><time>2026-05-03T07:27:16.969Z</time></trkpt><trkpt lat="45.6291611" lon="11.389723"><ele>253.0</ele><time>2026-05-03T07:27:21.969Z</time></trkpt><trkpt lat="45.6292205" lon="11.3897542"><ele>253.00000000000003</ele><time>2026-05-03T07:27:27.969Z</time></trkpt><trkpt lat="45.6293128" lon="11.3897861"><ele>253.00000000000003</ele><time>2026-05-03T07:27:34.969Z</time></trkpt><trkpt lat="45.6293751" lon="11.3898266"><ele>253.0</ele><time>2026-05-03T07:27:41.97Z</time></trkpt><trkpt lat="45.629392" lon="11.3897194"><ele>253.00000000000003</ele><time>2026-05-03T07:27:47.969Z</time></trkpt><trkpt lat="45.6294144" lon="11.3896302"><ele>253.00000000000003</ele><time>2026-05-03T07:27:53.969Z</time></trkpt><trkpt lat="45.6295571" lon="11.3896213"><ele>255.00000000000003</ele><time>2026-05-03T07:28:05.969Z</time></trkpt><trkpt lat="45.6296181" lon="11.3895664"><ele>257.0</ele><time>2026-05-03T07:28:08.969Z</time></trkpt><trkpt lat="45.6297076" lon="11.3895309"><ele>259.0</ele><time>2026-05-03T07:28:13.969Z</time></trkpt><trkpt lat="45.6297604" lon="11.3894782"><ele>261.0</ele><time>2026-05-03T07:28:19.969Z</time></trkpt><trkpt lat="45.6298069" lon="11.3894137"><ele>263.0</ele><time>2026-05-03T07:28:24.969Z</time></trkpt><trkpt lat="45.6298547" lon="11.3893257"><ele>265.00000000000006</ele><time>2026-05-03T07:28:29.969Z</time></trkpt><trkpt lat="45.6298972" lon="11.389254"><ele>267.0</ele><time>2026-05-03T07:28:33.969Z</time></trkpt><trkpt lat="45.6299607" lon="11.3892432"><ele>267.00000000000006</ele><time>2026-05-03T07:28:43.969Z</time></trkpt><trkpt lat="45.63002" lon="11.389208"><ele>267.0</ele><time>2026-05-03T07:28:48.969Z</time></trkpt><trkpt lat="45.6301325" lon="11.3891795"><ele>267.0</ele><time>2026-05-03T07:28:56.97Z</time></trkpt><trkpt lat="45.6301639" lon="11.389088"><ele>267.0</ele><time>2026-05-03T07:29:03.969Z</time></trkpt><trkpt lat="45.6302058" lon="11.3890179"><ele>267.0</ele><time>2026-05-03T07:29:09.97Z</time></trkpt><trkpt lat="45.6302253" lon="11.3889316"><ele>267.00000000000006</ele><time>2026-05-03T07:29:15.969Z</time></trkpt><trkpt lat="45.630263" lon="11.3888474"><ele>267.0</ele><time>2026-05-03T07:29:20.969Z</time></trkpt><trkpt lat="45.6302849" lon="11.3887508"><ele>269.28571428571433</ele><time>2026-05-03T07:29:26.969Z</time></trkpt><trkpt lat="45.6303327" lon="11.3886797"><ele>271.57142857142856</ele><time>2026-05-03T07:29:32.969Z</time></trkpt><trkpt lat="45.6303811" lon="11.3886096"><ele>273.8571428571429</ele><time>2026-05-03T07:29:35.969Z</time></trkpt><trkpt lat="45.6304202" lon="11.3885346"><ele>276.14285714285717</ele><time>2026-05-03T07:29:38.969Z</time></trkpt><trkpt lat="45.6304874" lon="11.3884892"><ele>278.42857142857144</ele><time>2026-05-03T07:29:42.969Z</time></trkpt><trkpt lat="45.6305197" lon="11.3883933"><ele>280.7142857142857</ele><time>2026-05-03T07:29:46.969Z</time></trkpt><trkpt lat="45.6305461" lon="11.3882854"><ele>283.0</ele><time>2026-05-03T07:29:50.969Z</time></trkpt><trkpt lat="45.6305843" lon="11.3882103"><ele>283.0</ele><time>2026-05-03T07:29:53.969Z</time></trkpt><trkpt lat="45.6306248" lon="11.3881247"><ele>283.0</ele><time>2026-05-03T07:29:57.97Z</time></trkpt><trkpt lat="45.630692" lon="11.3881142"><ele>283.0</ele><time>2026-05-03T07:30:03.969Z</time></trkpt><trkpt lat="45.6307403" lon="11.3880289"><ele>283.0</ele><time>2026-05-03T07:30:08.97Z</time></trkpt><trkpt lat="45.6307595" lon="11.3879315"><ele>283.0</ele><time>2026-05-03T07:30:12.968Z</time></trkpt><trkpt lat="45.6308169" lon="11.3878819"><ele>283.0</ele><time>2026-05-03T07:30:18.969Z</time></trkpt><trkpt lat="45.6308604" lon="11.3877929"><ele>283.0</ele><time>2026-05-03T07:30:23.969Z</time></trkpt><trkpt lat="45.6308716" lon="11.3876989"><ele>283.2857142857143</ele><time>2026-05-03T07:30:27.97Z</time></trkpt><trkpt lat="45.630895" lon="11.3876101"><ele>283.5714285714286</ele><time>2026-05-03T07:30:33.969Z</time></trkpt><trkpt lat="45.6309178" lon="11.3875233"><ele>283.8571428571429</ele><time>2026-05-03T07:30:38.969Z</time></trkpt><trkpt lat="45.6309227" lon="11.3874301"><ele>284.14285714285717</ele><time>2026-05-03T07:30:44.969Z</time></trkpt><trkpt lat="45.6309331" lon="11.3873347"><ele>284.42857142857144</ele><time>2026-05-03T07:30:48.969Z</time></trkpt><trkpt lat="45.6309331" lon="11.3872257"><ele>284.7142857142857</ele><time>2026-05-03T07:30:52.969Z</time></trkpt><trkpt lat="45.6309506" lon="11.3871354"><ele>285.0</ele><time>2026-05-03T07:30:56.969Z</time></trkpt><trkpt lat="45.6309533" lon="11.3870354"><ele>285.7142857142857</ele><time>2026-05-03T07:31:03.969Z</time></trkpt><trkpt lat="45.6309936" lon="11.3869442"><ele>286.42857142857144</ele><time>2026-05-03T07:31:09.969Z</time></trkpt><trkpt lat="45.6309854" lon="11.3868471"><ele>287.14285714285717</ele><time>2026-05-03T07:31:13.969Z</time></trkpt><trkpt lat="45.6309509" lon="11.3867575"><ele>287.8571428571429</ele><time>2026-05-03T07:31:17.968Z</time></trkpt><trkpt lat="45.6308982" lon="11.3866623"><ele>288.5714285714286</ele><time>2026-05-03T07:31:21.968Z</time></trkpt><trkpt lat="45.6308538" lon="11.3865961"><ele>289.2857142857143</ele><time>2026-05-03T07:31:25.968Z</time></trkpt><trkpt lat="45.6308258" lon="11.3865095"><ele>290.0</ele><time>2026-05-03T07:31:30.968Z</time></trkpt><trkpt lat="45.6307966" lon="11.3864157"><ele>290.0</ele><time>2026-05-03T07:31:34.968Z</time></trkpt><trkpt lat="45.6307346" lon="11.3863626"><ele>290.0</ele><time>2026-05-03T07:31:38.968Z</time></trkpt><trkpt lat="45.6306692" lon="11.3863063"><ele>290.0</ele><time>2026-05-03T07:31:41.968Z</time></trkpt><trkpt lat="45.6305966" lon="11.3862428"><ele>290.0</ele><time>2026-05-03T07:31:44.968Z</time></trkpt><trkpt lat="45.6305393" lon="11.3861517"><ele>290.0</ele><time>2026-05-03T07:31:47.968Z</time></trkpt><trkpt lat="45.6305016" lon="11.3860653"><ele>290.0</ele><time>2026-05-03T07:31:50.968Z</time></trkpt><trkpt lat="45.6305152" lon="11.3859667"><ele>289.7142857142857</ele><time>2026-05-03T07:31:55.968Z</time></trkpt><trkpt lat="45.630532" lon="11.3858614"><ele>289.42857142857144</ele><time>2026-05-03T07:31:59.968Z</time></trkpt><trkpt lat="45.6305324" lon="11.3857414"><ele>289.14285714285717</ele><time>2026-05-03T07:32:03.968Z</time></trkpt><trkpt lat="45.6305576" lon="11.3856409"><ele>288.8571428571429</ele><time>2026-05-03T07:32:06.969Z</time></trkpt><trkpt lat="45.6305645" lon="11.3855458"><ele>288.57142857142856</ele><time>2026-05-03T07:32:09.968Z</time></trkpt><trkpt lat="45.630563" lon="11.3854504"><ele>288.28571428571433</ele><time>2026-05-03T07:32:12.968Z</time></trkpt><trkpt lat="45.6305924" lon="11.3853545"><ele>288.0</ele><time>2026-05-03T07:32:15.968Z</time></trkpt><trkpt lat="45.6306459" lon="11.3852568"><ele>290.42857142857144</ele><time>2026-05-03T07:32:18.968Z</time></trkpt><trkpt lat="45.6306947" lon="11.385182"><ele>292.8571428571429</ele><time>2026-05-03T07:32:21.968Z</time></trkpt><trkpt lat="45.6307636" lon="11.3851432"><ele>295.28571428571433</ele><time>2026-05-03T07:32:25.968Z</time></trkpt><trkpt lat="45.6308086" lon="11.3850761"><ele>297.7142857142857</ele><time>2026-05-03T07:32:28.968Z</time></trkpt><trkpt lat="45.630849" lon="11.3849992"><ele>300.1428571428571</ele><time>2026-05-03T07:32:31.969Z</time></trkpt><trkpt lat="45.6309046" lon="11.3849207"><ele>302.5714285714286</ele><time>2026-05-03T07:32:35.967Z</time></trkpt><trkpt lat="45.6309554" lon="11.3848478"><ele>305.0</ele><time>2026-05-03T07:32:40.969Z</time></trkpt><trkpt lat="45.6310002" lon="11.3847729"><ele>305.0</ele><time>2026-05-03T07:32:44.968Z</time></trkpt><trkpt lat="45.6310407" lon="11.3847036"><ele>305.0</ele><time>2026-05-03T07:32:48.967Z</time></trkpt><trkpt lat="45.6310898" lon="11.384612"><ele>305.0</ele><time>2026-05-03T07:32:52.968Z</time></trkpt><trkpt lat="45.6311336" lon="11.3845184"><ele>305.0</ele><time>2026-05-03T07:32:56.968Z</time></trkpt><trkpt lat="45.6311804" lon="11.3844534"><ele>305.0</ele><time>2026-05-03T07:32:59.968Z</time></trkpt><trkpt lat="45.6312414" lon="11.3843924"><ele>305.0</ele><time>2026-05-03T07:33:02.968Z</time></trkpt><trkpt lat="45.631324" lon="11.3843317"><ele>304.33333333333337</ele><time>2026-05-03T07:33:05.968Z</time></trkpt><trkpt lat="45.6314081" lon="11.3842871"><ele>303.6666666666667</ele><time>2026-05-03T07:33:08.968Z</time></trkpt><trkpt lat="45.6314726" lon="11.3842422"><ele>303.0</ele><time>2026-05-03T07:33:10.969Z</time></trkpt><trkpt lat="45.6315238" lon="11.3841855"><ele>302.3333333333333</ele><time>2026-05-03T07:33:12.968Z</time></trkpt><trkpt lat="45.6315745" lon="11.3840853"><ele>301.66666666666663</ele><time>2026-05-03T07:33:16.968Z</time></trkpt><trkpt lat="45.6316297" lon="11.3839928"><ele>301.0</ele><time>2026-05-03T07:33:19.968Z</time></trkpt><trkpt lat="45.6316778" lon="11.3839338"><ele>301.0</ele><time>2026-05-03T07:33:21.968Z</time></trkpt><trkpt lat="45.6317329" lon="11.3838549"><ele>301.0</ele><time>2026-05-03T07:33:23.968Z</time></trkpt><trkpt lat="45.6317837" lon="11.3837608"><ele>301.0</ele><time>2026-05-03T07:33:25.968Z</time></trkpt><trkpt lat="45.6318422" lon="11.3836644"><ele>301.0</ele><time>2026-05-03T07:33:27.968Z</time></trkpt><trkpt lat="45.6318986" lon="11.3835794"><ele>301.0</ele><time>2026-05-03T07:33:29.968Z</time></trkpt><trkpt lat="45.6319597" lon="11.3834844"><ele>301.0</ele><time>2026-05-03T07:33:31.968Z</time></trkpt><trkpt lat="45.6320245" lon="11.383405"><ele>300.3333333333333</ele><time>2026-05-03T07:33:33.968Z</time></trkpt><trkpt lat="45.6320884" lon="11.3833414"><ele>299.66666666666663</ele><time>2026-05-03T07:33:35.969Z</time></trkpt><trkpt lat="45.632165" lon="11.3832841"><ele>299.0</ele><time>2026-05-03T07:33:37.968Z</time></trkpt><trkpt lat="45.6322426" lon="11.3832443"><ele>298.3333333333333</ele><time>2026-05-03T07:33:39.969Z</time></trkpt><trkpt lat="45.632313" lon="11.3832196"><ele>297.6666666666667</ele><time>2026-05-03T07:33:41.968Z</time></trkpt><trkpt lat="45.6323981" lon="11.3831768"><ele>297.0</ele><time>2026-05-03T07:33:44.969Z</time></trkpt><trkpt lat="45.6324629" lon="11.3831021"><ele>297.1666666666667</ele><time>2026-05-03T07:33:47.968Z</time></trkpt><trkpt lat="45.6325135" lon="11.3830024"><ele>297.3333333333333</ele><time>2026-05-03T07:33:50.968Z</time></trkpt><trkpt lat="45.6325474" lon="11.3828959"><ele>297.5</ele><time>2026-05-03T07:33:53.968Z</time></trkpt><trkpt lat="45.6325882" lon="11.3827844"><ele>297.66666666666663</ele><time>2026-05-03T07:33:56.968Z</time></trkpt><trkpt lat="45.6326222" lon="11.3827013"><ele>297.8333333333333</ele><time>2026-05-03T07:33:58.968Z</time></trkpt><trkpt lat="45.6326668" lon="11.3825842"><ele>298.0</ele><time>2026-05-03T07:34:01.968Z</time></trkpt><trkpt lat="45.6327075" lon="11.3824839"><ele>298.0</ele><time>2026-05-03T07:34:04.968Z</time></trkpt><trkpt lat="45.632764" lon="11.382411"><ele>298.0</ele><time>2026-05-03T07:34:07.968Z</time></trkpt><trkpt lat="45.6327997" lon="11.3823096"><ele>298.0</ele><time>2026-05-03T07:34:09.968Z</time></trkpt><trkpt lat="45.6327891" lon="11.3821555"><ele>298.0</ele><time>2026-05-03T07:34:11.968Z</time></trkpt><trkpt lat="45.6327625" lon="11.382062"><ele>298.0</ele><time>2026-05-03T07:34:12.968Z</time></trkpt><trkpt lat="45.6327369" lon="11.3819571"><ele>298.0</ele><time>2026-05-03T07:34:13.969Z</time></trkpt><trkpt lat="45.6327151" lon="11.3817619"><ele>297.16666666666663</ele><time>2026-05-03T07:34:14.968Z</time></trkpt><trkpt lat="45.6327253" lon="11.3816727"><ele>296.3333333333333</ele><time>2026-05-03T07:34:15.968Z</time></trkpt><trkpt lat="45.6327045" lon="11.3815839"><ele>295.5</ele><time>2026-05-03T07:34:17.968Z</time></trkpt><trkpt lat="45.6327146" lon="11.3814424"><ele>294.6666666666667</ele><time>2026-05-03T07:34:20.969Z</time></trkpt><trkpt lat="45.632734" lon="11.3813298"><ele>293.83333333333337</ele><time>2026-05-03T07:34:22.968Z</time></trkpt><trkpt lat="45.6327918" lon="11.3812133"><ele>293.0</ele><time>2026-05-03T07:34:24.968Z</time></trkpt><trkpt lat="45.6328404" lon="11.38114"><ele>297.8</ele><time>2026-05-03T07:34:26.968Z</time></trkpt><trkpt lat="45.6328419" lon="11.3810402"><ele>302.6</ele><time>2026-05-03T07:34:28.968Z</time></trkpt><trkpt lat="45.6328608" lon="11.3809244"><ele>307.4</ele><time>2026-05-03T07:34:30.969Z</time></trkpt><trkpt lat="45.6328909" lon="11.3807013"><ele>312.2</ele><time>2026-05-03T07:34:32.968Z</time></trkpt><trkpt lat="45.6329304" lon="11.3805335"><ele>317.0</ele><time>2026-05-03T07:34:34.968Z</time></trkpt><trkpt lat="45.6329012" lon="11.380387"><ele>317.0</ele><time>2026-05-03T07:34:36.968Z</time></trkpt><trkpt lat="45.6328794" lon="11.3808696"><ele>317.0</ele><time>2026-05-03T07:34:37.969Z</time></trkpt><trkpt lat="45.632873" lon="11.3803873"><ele>317.0</ele><time>2026-05-03T07:34:42.968Z</time></trkpt><trkpt lat="45.6328776" lon="11.3801113"><ele>317.0</ele><time>2026-05-03T07:34:43.968Z</time></trkpt><trkpt lat="45.632884" lon="11.3799789"><ele>317.0</ele><time>2026-05-03T07:34:44.968Z</time></trkpt><trkpt lat="45.6328914" lon="11.3798739"><ele>317.0</ele><time>2026-05-03T07:34:47.968Z</time></trkpt><trkpt lat="45.6328827" lon="11.3797551"><ele>317.0</ele><time>2026-05-03T07:34:49.968Z</time></trkpt><trkpt lat="45.6328825" lon="11.3796634"><ele>315.4</ele><time>2026-05-03T07:34:51.968Z</time></trkpt><trkpt lat="45.63289" lon="11.3795641"><ele>313.79999999999995</ele><time>2026-05-03T07:34:54.968Z</time></trkpt><trkpt lat="45.632912" lon="11.3794607"><ele>312.2</ele><time>2026-05-03T07:34:57.968Z</time></trkpt><trkpt lat="45.6329298" lon="11.3793596"><ele>310.59999999999997</ele><time>2026-05-03T07:35:03.968Z</time></trkpt><trkpt lat="45.6329575" lon="11.3791131"><ele>309.0</ele><time>2026-05-03T07:35:06.968Z</time></trkpt><trkpt lat="45.6329739" lon="11.3788074"><ele>305.5</ele><time>2026-05-03T07:35:07.968Z</time></trkpt><trkpt lat="45.632987" lon="11.3786028"><ele>302.0</ele><time>2026-05-03T07:35:08.968Z</time></trkpt><trkpt lat="45.6329983" lon="11.3784026"><ele>298.5</ele><time>2026-05-03T07:35:09.969Z</time></trkpt><trkpt lat="45.6330198" lon="11.378229"><ele>295.0</ele><time>2026-05-03T07:35:11.968Z</time></trkpt><trkpt lat="45.6330245" lon="11.3781346"><ele>295.0</ele><time>2026-05-03T07:35:12.968Z</time></trkpt><trkpt lat="45.6330197" lon="11.3780417"><ele>295.0</ele><time>2026-05-03T07:35:14.969Z</time></trkpt><trkpt lat="45.6330927" lon="11.3778007"><ele>295.0</ele><time>2026-05-03T07:35:20.968Z</time></trkpt><trkpt lat="45.6331886" lon="11.3774908"><ele>288.3333333333333</ele><time>2026-05-03T07:35:21.968Z</time></trkpt><trkpt lat="45.6332503" lon="11.3772898"><ele>281.6666666666667</ele><time>2026-05-03T07:35:22.968Z</time></trkpt><trkpt lat="45.6333406" lon="11.3770315"><ele>275.0</ele><time>2026-05-03T07:35:23.968Z</time></trkpt><trkpt lat="45.6334095" lon="11.3768762"><ele>271.6666666666667</ele><time>2026-05-03T07:35:24.968Z</time></trkpt><trkpt lat="45.6334807" lon="11.3767593"><ele>268.3333333333333</ele><time>2026-05-03T07:35:26.968Z</time></trkpt><trkpt lat="45.6335646" lon="11.3765582"><ele>265.0</ele><time>2026-05-03T07:35:30.968Z</time></trkpt><trkpt lat="45.6336875" lon="11.3763054"><ele>265.0</ele><time>2026-05-03T07:35:31.968Z</time></trkpt><trkpt lat="45.6337889" lon="11.3760936"><ele>265.0</ele><time>2026-05-03T07:35:32.91Z</time></trkpt><trkpt lat="45.6338748" lon="11.3759151"><ele>265.0</ele><time>2026-05-03T07:35:33.968Z</time></trkpt><trkpt lat="45.634002" lon="11.3756439"><ele>265.0</ele><time>2026-05-03T07:35:35.969Z</time></trkpt><trkpt lat="45.6340336" lon="11.3755299"><ele>265.0</ele><time>2026-05-03T07:35:37.969Z</time></trkpt><trkpt lat="45.6340689" lon="11.3754493"><ele>265.0</ele><time>2026-05-03T07:35:40.969Z</time></trkpt><trkpt lat="45.6341359" lon="11.3753352"><ele>265.0</ele><time>2026-05-03T07:35:43.969Z</time></trkpt><trkpt lat="45.6341799" lon="11.3752366"><ele>265.0</ele><time>2026-05-03T07:35:46.968Z</time></trkpt><trkpt lat="45.6342172" lon="11.3751394"><ele>265.0</ele><time>2026-05-03T07:35:50.968Z</time></trkpt><trkpt lat="45.6342423" lon="11.3750518"><ele>264.5</ele><time>2026-05-03T07:35:52.968Z</time></trkpt><trkpt lat="45.63427" lon="11.3749222"><ele>264.0</ele><time>2026-05-03T07:35:54.968Z</time></trkpt><trkpt lat="45.6342948" lon="11.3747561"><ele>263.5</ele><time>2026-05-03T07:35:56.968Z</time></trkpt><trkpt lat="45.6343054" lon="11.3746663"><ele>263.0</ele><time>2026-05-03T07:35:57.968Z</time></trkpt><trkpt lat="45.6343181" lon="11.3745686"><ele>262.5</ele><time>2026-05-03T07:35:58.969Z</time></trkpt><trkpt lat="45.6343312" lon="11.3744674"><ele>262.0</ele><time>2026-05-03T07:35:59.968Z</time></trkpt><trkpt lat="45.6343445" lon="11.3743617"><ele>261.4</ele><time>2026-05-03T07:36:00.968Z</time></trkpt><trkpt lat="45.6343788" lon="11.3741982"><ele>260.79999999999995</ele><time>2026-05-03T07:36:01.968Z</time></trkpt><trkpt lat="45.6343759" lon="11.3740632"><ele>260.2</ele><time>2026-05-03T07:36:02.968Z</time></trkpt><trkpt lat="45.6343442" lon="11.373948"><ele>259.59999999999997</ele><time>2026-05-03T07:36:03.968Z</time></trkpt><trkpt lat="45.6343064" lon="11.3738428"><ele>259.0</ele><time>2026-05-03T07:36:04.968Z</time></trkpt><trkpt lat="45.634222" lon="11.3737919"><ele>259.0</ele><time>2026-05-03T07:36:05.968Z</time></trkpt><trkpt lat="45.6341476" lon="11.3737259"><ele>259.0</ele><time>2026-05-03T07:36:06.968Z</time></trkpt><trkpt lat="45.6340749" lon="11.3736168"><ele>259.0</ele><time>2026-05-03T07:36:08.968Z</time></trkpt><trkpt lat="45.6340287" lon="11.3735459"><ele>259.0</ele><time>2026-05-03T07:36:09.968Z</time></trkpt><trkpt lat="45.6339902" lon="11.3734657"><ele>259.0</ele><time>2026-05-03T07:36:14.968Z</time></trkpt><trkpt lat="45.6339269" lon="11.3733668"><ele>259.0</ele><time>2026-05-03T07:36:17.968Z</time></trkpt><trkpt lat="45.6338412" lon="11.3733191"><ele>259.0</ele><time>2026-05-03T07:36:19.97Z</time></trkpt><trkpt lat="45.6337665" lon="11.3733101"><ele>259.0</ele><time>2026-05-03T07:36:21.968Z</time></trkpt><trkpt lat="45.6336754" lon="11.3732476"><ele>259.0</ele><time>2026-05-03T07:36:24.969Z</time></trkpt><trkpt lat="45.6336065" lon="11.3731986"><ele>259.0</ele><time>2026-05-03T07:36:26.969Z</time></trkpt><trkpt lat="45.6335339" lon="11.3731469"><ele>259.0</ele><time>2026-05-03T07:36:28.968Z</time></trkpt><trkpt lat="45.6334691" lon="11.3730956"><ele>259.0</ele><time>2026-05-03T07:36:30.968Z</time></trkpt><trkpt lat="45.6334104" lon="11.3730436"><ele>258.66666666666663</ele><time>2026-05-03T07:36:32.968Z</time></trkpt><trkpt lat="45.633344" lon="11.3729816"><ele>258.3333333333333</ele><time>2026-05-03T07:36:34.969Z</time></trkpt><trkpt lat="45.6332821" lon="11.3729286"><ele>258.0</ele><time>2026-05-03T07:36:36.969Z</time></trkpt><trkpt lat="45.633226" lon="11.3728459"><ele>257.6666666666667</ele><time>2026-05-03T07:36:39.968Z</time></trkpt><trkpt lat="45.633152" lon="11.3727768"><ele>257.33333333333337</ele><time>2026-05-03T07:36:41.968Z</time></trkpt><trkpt lat="45.6330515" lon="11.3727013"><ele>257.0</ele><time>2026-05-03T07:36:43.968Z</time></trkpt><trkpt lat="45.6329681" lon="11.3726847"><ele>257.0</ele><time>2026-05-03T07:36:44.969Z</time></trkpt><trkpt lat="45.6328892" lon="11.372616"><ele>257.0</ele><time>2026-05-03T07:36:45.968Z</time></trkpt><trkpt lat="45.6327145" lon="11.3724716"><ele>257.0</ele><time>2026-05-03T07:36:50.968Z</time></trkpt><trkpt lat="45.6326461" lon="11.3724217"><ele>257.0</ele><time>2026-05-03T07:36:51.969Z</time></trkpt><trkpt lat="45.632572" lon="11.3723838"><ele>256.0</ele><time>2026-05-03T07:36:52.968Z</time></trkpt><trkpt lat="45.6325112" lon="11.3723355"><ele>255.0</ele><time>2026-05-03T07:36:53.968Z</time></trkpt><trkpt lat="45.6324222" lon="11.3723143"><ele>254.0</ele><time>2026-05-03T07:36:54.968Z</time></trkpt><trkpt lat="45.6323148" lon="11.3723146"><ele>253.0</ele><time>2026-05-03T07:36:56.968Z</time></trkpt><trkpt lat="45.6322478" lon="11.3723148"><ele>252.00000000000003</ele><time>2026-05-03T07:36:57.968Z</time></trkpt><trkpt lat="45.632148" lon="11.3723143"><ele>251.0</ele><time>2026-05-03T07:36:59.968Z</time></trkpt><trkpt lat="45.6320348" lon="11.3723257"><ele>250.83333333333334</ele><time>2026-05-03T07:37:01.969Z</time></trkpt><trkpt lat="45.6319728" lon="11.3723589"><ele>250.66666666666669</ele><time>2026-05-03T07:37:02.968Z</time></trkpt><trkpt lat="45.6318977" lon="11.3724111"><ele>250.5</ele><time>2026-05-03T07:37:04.968Z</time></trkpt><trkpt lat="45.6318205" lon="11.3724952"><ele>250.33333333333331</ele><time>2026-05-03T07:37:06.969Z</time></trkpt><trkpt lat="45.6317395" lon="11.3725659"><ele>250.16666666666666</ele><time>2026-05-03T07:37:08.969Z</time></trkpt><trkpt lat="45.6316522" lon="11.3726087"><ele>250.0</ele><time>2026-05-03T07:37:09.969Z</time></trkpt><trkpt lat="45.63159" lon="11.3726478"><ele>249.99999999999997</ele><time>2026-05-03T07:37:10.968Z</time></trkpt><trkpt lat="45.6315406" lon="11.3727306"><ele>250.0</ele><time>2026-05-03T07:37:12.969Z</time></trkpt><trkpt lat="45.6314693" lon="11.3727947"><ele>250.0</ele><time>2026-05-03T07:37:14.968Z</time></trkpt><trkpt lat="45.6314092" lon="11.3728552"><ele>250.0</ele><time>2026-05-03T07:37:16.968Z</time></trkpt><trkpt lat="45.6313367" lon="11.3729266"><ele>249.99999999999997</ele><time>2026-05-03T07:37:18.969Z</time></trkpt><trkpt lat="45.6312686" lon="11.3730147"><ele>250.0</ele><time>2026-05-03T07:37:20.968Z</time></trkpt><trkpt lat="45.6311992" lon="11.373107"><ele>250.42857142857142</ele><time>2026-05-03T07:37:22.968Z</time></trkpt><trkpt lat="45.6311525" lon="11.3731762"><ele>250.8571428571429</ele><time>2026-05-03T07:37:26.968Z</time></trkpt><trkpt lat="45.6310962" lon="11.3732317"><ele>251.2857142857143</ele><time>2026-05-03T07:37:29.968Z</time></trkpt><trkpt lat="45.6310281" lon="11.3732647"><ele>251.71428571428572</ele><time>2026-05-03T07:37:31.968Z</time></trkpt><trkpt lat="45.6309537" lon="11.3733065"><ele>252.14285714285717</ele><time>2026-05-03T07:37:33.968Z</time></trkpt><trkpt lat="45.6308934" lon="11.3733555"><ele>252.5714285714286</ele><time>2026-05-03T07:37:35.968Z</time></trkpt><trkpt lat="45.6308334" lon="11.3733939"><ele>253.00000000000003</ele><time>2026-05-03T07:37:37.968Z</time></trkpt><trkpt lat="45.6307489" lon="11.3734332"><ele>253.00000000000003</ele><time>2026-05-03T07:37:40.968Z</time></trkpt><trkpt lat="45.6306833" lon="11.373458"><ele>253.0</ele><time>2026-05-03T07:37:42.968Z</time></trkpt><trkpt lat="45.6306171" lon="11.3734792"><ele>253.00000000000003</ele><time>2026-05-03T07:37:44.968Z</time></trkpt><trkpt lat="45.6305463" lon="11.3735297"><ele>253.00000000000003</ele><time>2026-05-03T07:37:47.968Z</time></trkpt><trkpt lat="45.630503" lon="11.3736233"><ele>253.0</ele><time>2026-05-03T07:37:51.968Z</time></trkpt><trkpt lat="45.6304495" lon="11.3736891"><ele>253.00000000000003</ele><time>2026-05-03T07:37:56.968Z</time></trkpt><trkpt lat="45.630367" lon="11.3736952"><ele>253.00000000000003</ele><time>2026-05-03T07:38:00.969Z</time></trkpt><trkpt lat="45.6302995" lon="11.3737332"><ele>252.71428571428575</ele><time>2026-05-03T07:38:03.968Z</time></trkpt><trkpt lat="45.6302522" lon="11.3738018"><ele>252.42857142857144</ele><time>2026-05-03T07:38:08.968Z</time></trkpt><trkpt lat="45.6301958" lon="11.37385"><ele>252.14285714285714</ele><time>2026-05-03T07:38:11.968Z</time></trkpt><trkpt lat="45.6301288" lon="11.3739157"><ele>251.85714285714286</ele><time>2026-05-03T07:38:15.968Z</time></trkpt><trkpt lat="45.630075" lon="11.3739645"><ele>251.57142857142856</ele><time>2026-05-03T07:38:19.968Z</time></trkpt><trkpt lat="45.6300057" lon="11.3739812"><ele>251.28571428571425</ele><time>2026-05-03T07:38:24.968Z</time></trkpt><trkpt lat="45.6299365" lon="11.3740096"><ele>250.99999999999997</ele><time>2026-05-03T07:38:28.968Z</time></trkpt><trkpt lat="45.6298672" lon="11.3740357"><ele>250.99999999999997</ele><time>2026-05-03T07:38:32.968Z</time></trkpt><trkpt lat="45.6297877" lon="11.3740278"><ele>251.0</ele><time>2026-05-03T07:38:36.968Z</time></trkpt><trkpt lat="45.6297161" lon="11.3740183"><ele>250.99999999999997</ele><time>2026-05-03T07:38:40.968Z</time></trkpt><trkpt lat="45.6296458" lon="11.3740321"><ele>250.99999999999997</ele><time>2026-05-03T07:38:44.967Z</time></trkpt><trkpt lat="45.6295806" lon="11.3740211"><ele>251.0</ele><time>2026-05-03T07:38:48.968Z</time></trkpt><trkpt lat="45.6295034" lon="11.3740295"><ele>250.99999999999997</ele><time>2026-05-03T07:38:53.968Z</time></trkpt><trkpt lat="45.6294315" lon="11.3740514"><ele>250.99999999999997</ele><time>2026-05-03T07:38:57.968Z</time></trkpt><trkpt lat="45.6293618" lon="11.3740514"><ele>251.57142857142856</ele><time>2026-05-03T07:39:01.968Z</time></trkpt><trkpt lat="45.6292924" lon="11.3740288"><ele>252.14285714285714</ele><time>2026-05-03T07:39:07.969Z</time></trkpt><trkpt lat="45.6292306" lon="11.3739988"><ele>252.71428571428572</ele><time>2026-05-03T07:39:11.968Z</time></trkpt><trkpt lat="45.6291544" lon="11.3739925"><ele>253.28571428571428</ele><time>2026-05-03T07:39:16.968Z</time></trkpt><trkpt lat="45.6290802" lon="11.3740121"><ele>253.8571428571429</ele><time>2026-05-03T07:39:21.968Z</time></trkpt><trkpt lat="45.6290155" lon="11.374023"><ele>254.42857142857144</ele><time>2026-05-03T07:39:25.968Z</time></trkpt><trkpt lat="45.6289385" lon="11.3740252"><ele>255.0</ele><time>2026-05-03T07:39:30.968Z</time></trkpt><trkpt lat="45.6288675" lon="11.3740418"><ele>255.0</ele><time>2026-05-03T07:39:35.968Z</time></trkpt><trkpt lat="45.6288008" lon="11.3740753"><ele>255.0</ele><time>2026-05-03T07:39:40.968Z</time></trkpt><trkpt lat="45.6287238" lon="11.3741117"><ele>255.0</ele><time>2026-05-03T07:39:44.968Z</time></trkpt><trkpt lat="45.6286448" lon="11.3741401"><ele>255.0</ele><time>2026-05-03T07:39:48.968Z</time></trkpt><trkpt lat="45.6285799" lon="11.3741804"><ele>255.0</ele><time>2026-05-03T07:39:52.968Z</time></trkpt><trkpt lat="45.6285211" lon="11.3742422"><ele>255.0</ele><time>2026-05-03T07:39:57.968Z</time></trkpt><trkpt lat="45.6284723" lon="11.3743239"><ele>257.57142857142856</ele><time>2026-05-03T07:40:04.967Z</time></trkpt><trkpt lat="45.628407" lon="11.3743792"><ele>260.14285714285717</ele><time>2026-05-03T07:40:10.968Z</time></trkpt><trkpt lat="45.6283449" lon="11.3744229"><ele>262.7142857142857</ele><time>2026-05-03T07:40:14.967Z</time></trkpt><trkpt lat="45.6282849" lon="11.3744605"><ele>265.2857142857143</ele><time>2026-05-03T07:40:19.967Z</time></trkpt><trkpt lat="45.6282189" lon="11.3744825"><ele>267.8571428571429</ele><time>2026-05-03T07:40:26.967Z</time></trkpt><trkpt lat="45.6281539" lon="11.3744975"><ele>270.42857142857144</ele><time>2026-05-03T07:40:30.967Z</time></trkpt><trkpt lat="45.6280888" lon="11.374496"><ele>273.0</ele><time>2026-05-03T07:40:33.968Z</time></trkpt><trkpt lat="45.6280141" lon="11.3744763"><ele>273.0</ele><time>2026-05-03T07:40:37.967Z</time></trkpt><trkpt lat="45.627942" lon="11.3744377"><ele>273.0</ele><time>2026-05-03T07:40:41.968Z</time></trkpt><trkpt lat="45.6278795" lon="11.3744233"><ele>273.0</ele><time>2026-05-03T07:40:45.967Z</time></trkpt><trkpt lat="45.6278037" lon="11.3744276"><ele>273.0</ele><time>2026-05-03T07:40:48.967Z</time></trkpt><trkpt lat="45.6277386" lon="11.3744447"><ele>273.0</ele><time>2026-05-03T07:40:51.968Z</time></trkpt><trkpt lat="45.6276718" lon="11.3744454"><ele>273.0</ele><time>2026-05-03T07:40:54.967Z</time></trkpt><trkpt lat="45.6276056" lon="11.3743946"><ele>273.0</ele><time>2026-05-03T07:40:59.967Z</time></trkpt><trkpt lat="45.6275374" lon="11.3743771"><ele>274.57142857142856</ele><time>2026-05-03T07:41:03.967Z</time></trkpt><trkpt lat="45.6274655" lon="11.3743959"><ele>276.1428571428571</ele><time>2026-05-03T07:41:07.967Z</time></trkpt><trkpt lat="45.6273968" lon="11.374397"><ele>277.7142857142857</ele><time>2026-05-03T07:41:13.967Z</time></trkpt><trkpt lat="45.6273361" lon="11.3744251"><ele>279.2857142857143</ele><time>2026-05-03T07:41:19.967Z</time></trkpt><trkpt lat="45.6272693" lon="11.3744549"><ele>280.85714285714283</ele><time>2026-05-03T07:41:26.967Z</time></trkpt><trkpt lat="45.6271963" lon="11.3744195"><ele>282.42857142857144</ele><time>2026-05-03T07:41:31.967Z</time></trkpt><trkpt lat="45.6271351" lon="11.3743855"><ele>284.0</ele><time>2026-05-03T07:41:36.968Z</time></trkpt><trkpt lat="45.6270735" lon="11.3743595"><ele>284.0</ele><time>2026-05-03T07:41:41.968Z</time></trkpt><trkpt lat="45.6270159" lon="11.3743042"><ele>284.0</ele><time>2026-05-03T07:41:46.967Z</time></trkpt><trkpt lat="45.6269511" lon="11.3743061"><ele>284.0</ele><time>2026-05-03T07:41:50.966Z</time></trkpt><trkpt lat="45.6268755" lon="11.374321"><ele>284.0</ele><time>2026-05-03T07:41:55.968Z</time></trkpt><trkpt lat="45.6268097" lon="11.3743311"><ele>284.0</ele><time>2026-05-03T07:42:00.966Z</time></trkpt><trkpt lat="45.6267408" lon="11.3743102"><ele>284.0</ele><time>2026-05-03T07:42:08.967Z</time></trkpt><trkpt lat="45.6266609" lon="11.3742912"><ele>284.0</ele><time>2026-05-03T07:42:13.967Z</time></trkpt><trkpt lat="45.6265933" lon="11.3742807"><ele>286.2857142857143</ele><time>2026-05-03T07:42:16.967Z</time></trkpt><trkpt lat="45.6265201" lon="11.374259"><ele>288.57142857142856</ele><time>2026-05-03T07:42:21.968Z</time></trkpt><trkpt lat="45.626436" lon="11.3742614"><ele>290.85714285714283</ele><time>2026-05-03T07:42:26.967Z</time></trkpt><trkpt lat="45.6263633" lon="11.3742583"><ele>293.1428571428571</ele><time>2026-05-03T07:42:30.968Z</time></trkpt><trkpt lat="45.6262938" lon="11.3742991"><ele>295.42857142857144</ele><time>2026-05-03T07:42:34.967Z</time></trkpt><trkpt lat="45.6262287" lon="11.3743213"><ele>297.71428571428567</ele><time>2026-05-03T07:42:38.967Z</time></trkpt><trkpt lat="45.6261601" lon="11.3743416"><ele>300.0</ele><time>2026-05-03T07:42:45.967Z</time></trkpt><trkpt lat="45.6261175" lon="11.3744092"><ele>297.99999999999994</ele><time>2026-05-03T07:42:50.967Z</time></trkpt><trkpt lat="45.6260661" lon="11.3744621"><ele>296.0</ele><time>2026-05-03T07:42:54.968Z</time></trkpt><trkpt lat="45.6260187" lon="11.374527"><ele>294.0</ele><time>2026-05-03T07:42:58.967Z</time></trkpt><trkpt lat="45.6259651" lon="11.3745829"><ele>292.0</ele><time>2026-05-03T07:43:02.967Z</time></trkpt><trkpt lat="45.6258867" lon="11.3746153"><ele>290.0</ele><time>2026-05-03T07:43:06.967Z</time></trkpt><trkpt lat="45.62582" lon="11.3746493"><ele>287.99999999999994</ele><time>2026-05-03T07:43:10.967Z</time></trkpt><trkpt lat="45.6258098" lon="11.3747407"><ele>286.0</ele><time>2026-05-03T07:43:14.967Z</time></trkpt><trkpt lat="45.6257868" lon="11.374825"><ele>286.0</ele><time>2026-05-03T07:43:18.967Z</time></trkpt><trkpt lat="45.6257254" lon="11.3748614"><ele>286.0</ele><time>2026-05-03T07:43:21.967Z</time></trkpt><trkpt lat="45.6256526" lon="11.3749036"><ele>286.0</ele><time>2026-05-03T07:43:24.967Z</time></trkpt><trkpt lat="45.6255968" lon="11.374949"><ele>286.0</ele><time>2026-05-03T07:43:27.967Z</time></trkpt><trkpt lat="45.6255428" lon="11.3750314"><ele>286.0</ele><time>2026-05-03T07:43:30.967Z</time></trkpt><trkpt lat="45.6254759" lon="11.3751209"><ele>286.0</ele><time>2026-05-03T07:43:33.967Z</time></trkpt><trkpt lat="45.6254152" lon="11.3751889"><ele>285.99999999999994</ele><time>2026-05-03T07:43:36.968Z</time></trkpt><trkpt lat="45.6253606" lon="11.3752351"><ele>286.0</ele><time>2026-05-03T07:43:38.968Z</time></trkpt><trkpt lat="45.6253031" lon="11.3753088"><ele>286.0</ele><time>2026-05-03T07:43:41.967Z</time></trkpt><trkpt lat="45.6252353" lon="11.3753647"><ele>286.0</ele><time>2026-05-03T07:43:45.967Z</time></trkpt><trkpt lat="45.6251647" lon="11.3753476"><ele>286.0</ele><time>2026-05-03T07:43:50.967Z</time></trkpt><trkpt lat="45.6250948" lon="11.3753471"><ele>285.99999999999994</ele><time>2026-05-03T07:43:54.968Z</time></trkpt><trkpt lat="45.6250227" lon="11.3753293"><ele>286.0</ele><time>2026-05-03T07:43:57.968Z</time></trkpt><trkpt lat="45.6249511" lon="11.3753289"><ele>285.4285714285714</ele><time>2026-05-03T07:44:00.967Z</time></trkpt><trkpt lat="45.6248963" lon="11.3753743"><ele>284.85714285714283</ele><time>2026-05-03T07:44:03.967Z</time></trkpt><trkpt lat="45.6248266" lon="11.3754201"><ele>284.2857142857143</ele><time>2026-05-03T07:44:06.967Z</time></trkpt><trkpt lat="45.6247575" lon="11.3754494"><ele>283.71428571428567</ele><time>2026-05-03T07:44:09.967Z</time></trkpt><trkpt lat="45.6246962" lon="11.3754894"><ele>283.1428571428571</ele><time>2026-05-03T07:44:11.967Z</time></trkpt><trkpt lat="45.6246272" lon="11.3755293"><ele>282.57142857142856</ele><time>2026-05-03T07:44:14.967Z</time></trkpt><trkpt lat="45.6245652" lon="11.3755706"><ele>282.0</ele><time>2026-05-03T07:44:17.967Z</time></trkpt><trkpt lat="45.6245052" lon="11.375617"><ele>285.1666666666667</ele><time>2026-05-03T07:44:20.967Z</time></trkpt><trkpt lat="45.6244278" lon="11.3756839"><ele>288.3333333333333</ele><time>2026-05-03T07:44:23.967Z</time></trkpt><trkpt lat="45.6243561" lon="11.375758"><ele>291.5</ele><time>2026-05-03T07:44:26.968Z</time></trkpt><trkpt lat="45.6242842" lon="11.3758343"><ele>294.66666666666663</ele><time>2026-05-03T07:44:29.967Z</time></trkpt><trkpt lat="45.6242213" lon="11.3759234"><ele>297.8333333333333</ele><time>2026-05-03T07:44:32.967Z</time></trkpt><trkpt lat="45.6241637" lon="11.3760008"><ele>301.0</ele><time>2026-05-03T07:44:35.968Z</time></trkpt><trkpt lat="45.6240786" lon="11.3760518"><ele>301.0</ele><time>2026-05-03T07:44:38.967Z</time></trkpt><trkpt lat="45.6240062" lon="11.3760968"><ele>301.0</ele><time>2026-05-03T07:44:41.967Z</time></trkpt><trkpt lat="45.6239405" lon="11.376151"><ele>301.0</ele><time>2026-05-03T07:44:44.967Z</time></trkpt><trkpt lat="45.6238732" lon="11.3761942"><ele>301.0</ele><time>2026-05-03T07:44:47.967Z</time></trkpt><trkpt lat="45.6238173" lon="11.3762469"><ele>301.0</ele><time>2026-05-03T07:44:50.967Z</time></trkpt><trkpt lat="45.6237547" lon="11.3763009"><ele>301.0</ele><time>2026-05-03T07:44:54.968Z</time></trkpt><trkpt lat="45.6237056" lon="11.3763682"><ele>301.0</ele><time>2026-05-03T07:44:57.967Z</time></trkpt><trkpt lat="45.6236485" lon="11.3764282"><ele>301.0</ele><time>2026-05-03T07:45:00.968Z</time></trkpt><trkpt lat="45.6235815" lon="11.3764652"><ele>301.0</ele><time>2026-05-03T07:45:04.967Z</time></trkpt><trkpt lat="45.6235129" lon="11.3765017"><ele>301.0</ele><time>2026-05-03T07:45:07.967Z</time></trkpt><trkpt lat="45.6234488" lon="11.3765235"><ele>301.0</ele><time>2026-05-03T07:45:10.966Z</time></trkpt><trkpt lat="45.6233816" lon="11.3765384"><ele>301.0</ele><time>2026-05-03T07:45:14.968Z</time></trkpt><trkpt lat="45.6233082" lon="11.3765611"><ele>301.0</ele><time>2026-05-03T07:45:18.967Z</time></trkpt><trkpt lat="45.6232278" lon="11.3765869"><ele>301.0</ele><time>2026-05-03T07:45:22.967Z</time></trkpt><trkpt lat="45.6231522" lon="11.3766068"><ele>301.0</ele><time>2026-05-03T07:45:25.967Z</time></trkpt><trkpt lat="45.6230883" lon="11.3766186"><ele>301.0</ele><time>2026-05-03T07:45:27.967Z</time></trkpt><trkpt lat="45.6230143" lon="11.3766179"><ele>301.0</ele><time>2026-05-03T07:45:29.966Z</time></trkpt><trkpt lat="45.6229228" lon="11.376612"><ele>301.0</ele><time>2026-05-03T07:45:31.967Z</time></trkpt><trkpt lat="45.6228554" lon="11.3766074"><ele>301.0</ele><time>2026-05-03T07:45:33.967Z</time></trkpt><trkpt lat="45.6227815" lon="11.3765761"><ele>301.0</ele><time>2026-05-03T07:45:36.967Z</time></trkpt><trkpt lat="45.6227127" lon="11.3765028"><ele>301.6</ele><time>2026-05-03T07:45:39.967Z</time></trkpt><trkpt lat="45.6226255" lon="11.3764324"><ele>302.20000000000005</ele><time>2026-05-03T07:45:41.967Z</time></trkpt><trkpt lat="45.6225207" lon="11.376356"><ele>302.79999999999995</ele><time>2026-05-03T07:45:43.967Z</time></trkpt><trkpt lat="45.622457" lon="11.3763205"><ele>303.4</ele><time>2026-05-03T07:45:44.967Z</time></trkpt><trkpt lat="45.6223872" lon="11.3762825"><ele>304.0</ele><time>2026-05-03T07:45:45.967Z</time></trkpt><trkpt lat="45.6221566" lon="11.376257"><ele>304.16666666666663</ele><time>2026-05-03T07:45:46.967Z</time></trkpt><trkpt lat="45.6220857" lon="11.3762141"><ele>304.3333333333333</ele><time>2026-05-03T07:45:47.968Z</time></trkpt><trkpt lat="45.6220142" lon="11.3761758"><ele>304.5</ele><time>2026-05-03T07:45:48.967Z</time></trkpt><trkpt lat="45.6219478" lon="11.3761414"><ele>304.6666666666667</ele><time>2026-05-03T07:45:49.967Z</time></trkpt><trkpt lat="45.6218549" lon="11.3761144"><ele>304.83333333333337</ele><time>2026-05-03T07:45:50.967Z</time></trkpt><trkpt lat="45.6217722" lon="11.3760755"><ele>305.0</ele><time>2026-05-03T07:45:51.967Z</time></trkpt><trkpt lat="45.6217118" lon="11.3760127"><ele>305.0</ele><time>2026-05-03T07:45:53.967Z</time></trkpt><trkpt lat="45.6217194" lon="11.3759204"><ele>305.0</ele><time>2026-05-03T07:45:58.967Z</time></trkpt><trkpt lat="45.6218093" lon="11.3759125"><ele>305.0</ele><time>2026-05-03T07:46:06.967Z</time></trkpt><trkpt lat="45.6218827" lon="11.3758778"><ele>305.0</ele><time>2026-05-03T07:46:12.966Z</time></trkpt><trkpt lat="45.6219456" lon="11.3758571"><ele>305.0</ele><time>2026-05-03T07:46:16.967Z</time></trkpt><trkpt lat="45.6220033" lon="11.3758173"><ele>305.0</ele><time>2026-05-03T07:46:20.967Z</time></trkpt><trkpt lat="45.6221204" lon="11.3758093"><ele>306.2857142857143</ele><time>2026-05-03T07:46:28.967Z</time></trkpt><trkpt lat="45.6221859" lon="11.3757631"><ele>307.57142857142856</ele><time>2026-05-03T07:46:33.968Z</time></trkpt><trkpt lat="45.6222463" lon="11.3757027"><ele>308.85714285714283</ele><time>2026-05-03T07:46:38.967Z</time></trkpt><trkpt lat="45.6223018" lon="11.3756521"><ele>310.1428571428571</ele><time>2026-05-03T07:46:42.967Z</time></trkpt><trkpt lat="45.6223429" lon="11.3755717"><ele>311.42857142857144</ele><time>2026-05-03T07:46:47.968Z</time></trkpt><trkpt lat="45.6223922" lon="11.3755021"><ele>312.71428571428567</ele><time>2026-05-03T07:46:52.967Z</time></trkpt><trkpt lat="45.6224356" lon="11.3754286"><ele>314.0</ele><time>2026-05-03T07:46:56.967Z</time></trkpt><trkpt lat="45.6224721" lon="11.3753331"><ele>315.1666666666667</ele><time>2026-05-03T07:47:00.967Z</time></trkpt><trkpt lat="45.6225081" lon="11.3752329"><ele>316.33333333333337</ele><time>2026-05-03T07:47:04.967Z</time></trkpt><trkpt lat="45.6225463" lon="11.3751613"><ele>317.5</ele><time>2026-05-03T07:47:09.967Z</time></trkpt><trkpt lat="45.6226208" lon="11.3750993"><ele>318.6666666666667</ele><time>2026-05-03T07:47:13.967Z</time></trkpt><trkpt lat="45.6226803" lon="11.375029"><ele>319.8333333333333</ele><time>2026-05-03T07:47:16.967Z</time></trkpt><trkpt lat="45.6227369" lon="11.3749478"><ele>321.0</ele><time>2026-05-03T07:47:20.968Z</time></trkpt><trkpt lat="45.622798" lon="11.3748682"><ele>319.99999999999994</ele><time>2026-05-03T07:47:24.966Z</time></trkpt><trkpt lat="45.6228433" lon="11.3748031"><ele>319.0</ele><time>2026-05-03T07:47:27.966Z</time></trkpt><trkpt lat="45.6228601" lon="11.3747158"><ele>318.0</ele><time>2026-05-03T07:47:31.966Z</time></trkpt><trkpt lat="45.622869" lon="11.3746262"><ele>317.0</ele><time>2026-05-03T07:47:35.966Z</time></trkpt><trkpt lat="45.622874" lon="11.374528"><ele>316.0</ele><time>2026-05-03T07:47:40.966Z</time></trkpt><trkpt lat="45.6228765" lon="11.3744304"><ele>314.99999999999994</ele><time>2026-05-03T07:47:44.966Z</time></trkpt><trkpt lat="45.6228772" lon="11.3743399"><ele>314.0</ele><time>2026-05-03T07:47:47.966Z</time></trkpt><trkpt lat="45.622899" lon="11.374235"><ele>313.1428571428571</ele><time>2026-05-03T07:47:51.966Z</time></trkpt><trkpt lat="45.6229228" lon="11.3741452"><ele>312.2857142857143</ele><time>2026-05-03T07:47:55.966Z</time></trkpt><trkpt lat="45.6229437" lon="11.3740462"><ele>311.42857142857144</ele><time>2026-05-03T07:48:00.966Z</time></trkpt><trkpt lat="45.6229895" lon="11.3739706"><ele>310.57142857142856</ele><time>2026-05-03T07:48:05.966Z</time></trkpt><trkpt lat="45.6230267" lon="11.3738898"><ele>309.7142857142857</ele><time>2026-05-03T07:48:10.965Z</time></trkpt><trkpt lat="45.6230652" lon="11.3738066"><ele>308.85714285714283</ele><time>2026-05-03T07:48:14.966Z</time></trkpt><trkpt lat="45.6231277" lon="11.3737712"><ele>308.0</ele><time>2026-05-03T07:48:20.966Z</time></trkpt><trkpt lat="45.623157" lon="11.3736846"><ele>310.57142857142856</ele><time>2026-05-03T07:48:25.966Z</time></trkpt><trkpt lat="45.6232046" lon="11.3736129"><ele>313.1428571428571</ele><time>2026-05-03T07:48:30.966Z</time></trkpt><trkpt lat="45.6232176" lon="11.3735086"><ele>315.7142857142857</ele><time>2026-05-03T07:48:36.966Z</time></trkpt><trkpt lat="45.6232373" lon="11.3734121"><ele>318.2857142857143</ele><time>2026-05-03T07:48:39.966Z</time></trkpt><trkpt lat="45.6232673" lon="11.3733172"><ele>320.85714285714283</ele><time>2026-05-03T07:48:43.967Z</time></trkpt><trkpt lat="45.6233185" lon="11.3732446"><ele>323.42857142857144</ele><time>2026-05-03T07:48:49.967Z</time></trkpt><trkpt lat="45.6233762" lon="11.3731916"><ele>326.0</ele><time>2026-05-03T07:48:56.966Z</time></trkpt><trkpt lat="45.6234248" lon="11.3731139"><ele>326.0</ele><time>2026-05-03T07:49:02.966Z</time></trkpt><trkpt lat="45.6234727" lon="11.3730332"><ele>326.0</ele><time>2026-05-03T07:49:12.966Z</time></trkpt><trkpt lat="45.6235282" lon="11.3729896"><ele>326.0</ele><time>2026-05-03T07:49:21.966Z</time></trkpt><trkpt lat="45.623589" lon="11.3729521"><ele>326.0</ele><time>2026-05-03T07:49:27.966Z</time></trkpt><trkpt lat="45.6236532" lon="11.372974"><ele>326.0</ele><time>2026-05-03T07:49:33.966Z</time></trkpt><trkpt lat="45.6237269" lon="11.3729752"><ele>326.0</ele><time>2026-05-03T07:49:39.966Z</time></trkpt><trkpt lat="45.623776" lon="11.3729042"><ele>326.0</ele><time>2026-05-03T07:49:43.967Z</time></trkpt><trkpt lat="45.6238041" lon="11.3728112"><ele>326.7142857142857</ele><time>2026-05-03T07:49:46.966Z</time></trkpt><trkpt lat="45.6238258" lon="11.3727129"><ele>327.4285714285714</ele><time>2026-05-03T07:49:50.966Z</time></trkpt><trkpt lat="45.623867" lon="11.3726397"><ele>328.1428571428571</ele><time>2026-05-03T07:49:54.965Z</time></trkpt><trkpt lat="45.6239004" lon="11.372554"><ele>328.8571428571429</ele><time>2026-05-03T07:49:59.966Z</time></trkpt><trkpt lat="45.6239242" lon="11.3724639"><ele>329.57142857142856</ele><time>2026-05-03T07:50:03.966Z</time></trkpt><trkpt lat="45.6239622" lon="11.3723839"><ele>330.2857142857143</ele><time>2026-05-03T07:50:09.966Z</time></trkpt><trkpt lat="45.6239847" lon="11.3722898"><ele>331.0</ele><time>2026-05-03T07:50:13.966Z</time></trkpt><trkpt lat="45.6240286" lon="11.3722017"><ele>332.7142857142857</ele><time>2026-05-03T07:50:18.966Z</time></trkpt><trkpt lat="45.6240663" lon="11.3721078"><ele>334.42857142857144</ele><time>2026-05-03T07:50:23.965Z</time></trkpt><trkpt lat="45.624102" lon="11.3720273"><ele>336.1428571428571</ele><time>2026-05-03T07:50:27.966Z</time></trkpt><trkpt lat="45.6241248" lon="11.3719229"><ele>337.8571428571429</ele><time>2026-05-03T07:50:31.966Z</time></trkpt><trkpt lat="45.6241637" lon="11.3718451"><ele>339.57142857142856</ele><time>2026-05-03T07:50:35.966Z</time></trkpt><trkpt lat="45.6241883" lon="11.3717568"><ele>341.2857142857143</ele><time>2026-05-03T07:50:38.966Z</time></trkpt><trkpt lat="45.6242335" lon="11.3716885"><ele>343.0</ele><time>2026-05-03T07:50:42.966Z</time></trkpt><trkpt lat="45.6242889" lon="11.371623"><ele>343.0</ele><time>2026-05-03T07:50:47.967Z</time></trkpt><trkpt lat="45.6243352" lon="11.3715526"><ele>343.0</ele><time>2026-05-03T07:50:51.967Z</time></trkpt><trkpt lat="45.6243936" lon="11.3715089"><ele>343.0</ele><time>2026-05-03T07:50:56.966Z</time></trkpt><trkpt lat="45.6244329" lon="11.371418"><ele>343.0</ele><time>2026-05-03T07:51:01.966Z</time></trkpt><trkpt lat="45.6244538" lon="11.3713283"><ele>343.0</ele><time>2026-05-03T07:51:07.966Z</time></trkpt><trkpt lat="45.6245092" lon="11.3712678"><ele>343.0</ele><time>2026-05-03T07:51:13.966Z</time></trkpt><trkpt lat="45.6245904" lon="11.3712429"><ele>343.0</ele><time>2026-05-03T07:51:17.966Z</time></trkpt><trkpt lat="45.6246562" lon="11.3711926"><ele>343.66666666666663</ele><time>2026-05-03T07:51:20.966Z</time></trkpt><trkpt lat="45.624727" lon="11.3711401"><ele>344.3333333333333</ele><time>2026-05-03T07:51:23.965Z</time></trkpt><trkpt lat="45.624803" lon="11.3710843"><ele>345.0</ele><time>2026-05-03T07:51:27.967Z</time></trkpt><trkpt lat="45.6248696" lon="11.3710435"><ele>345.6666666666667</ele><time>2026-05-03T07:51:30.966Z</time></trkpt><trkpt lat="45.6249388" lon="11.3709892"><ele>346.33333333333337</ele><time>2026-05-03T07:51:34.966Z</time></trkpt><trkpt lat="45.6249934" lon="11.3709358"><ele>347.0</ele><time>2026-05-03T07:51:37.966Z</time></trkpt><trkpt lat="45.6250484" lon="11.3708627"><ele>347.0</ele><time>2026-05-03T07:51:40.967Z</time></trkpt><trkpt lat="45.6251048" lon="11.3707899"><ele>347.0</ele><time>2026-05-03T07:51:44.966Z</time></trkpt><trkpt lat="45.6251541" lon="11.3707036"><ele>347.0</ele><time>2026-05-03T07:51:48.966Z</time></trkpt><trkpt lat="45.6252022" lon="11.3706181"><ele>347.0</ele><time>2026-05-03T07:51:52.967Z</time></trkpt><trkpt lat="45.6252362" lon="11.3705413"><ele>347.0</ele><time>2026-05-03T07:51:55.965Z</time></trkpt><trkpt lat="45.6252783" lon="11.3704473"><ele>347.0</ele><time>2026-05-03T07:51:59.966Z</time></trkpt><trkpt lat="45.6253179" lon="11.3703466"><ele>349.7142857142857</ele><time>2026-05-03T07:52:03.966Z</time></trkpt><trkpt lat="45.6253648" lon="11.3702782"><ele>352.4285714285714</ele><time>2026-05-03T07:52:06.966Z</time></trkpt><trkpt lat="45.6253943" lon="11.3701964"><ele>355.1428571428571</ele><time>2026-05-03T07:52:09.966Z</time></trkpt><trkpt lat="45.6254313" lon="11.3701033"><ele>357.8571428571429</ele><time>2026-05-03T07:52:14.966Z</time></trkpt><trkpt lat="45.6254465" lon="11.3700159"><ele>360.57142857142856</ele><time>2026-05-03T07:52:18.966Z</time></trkpt><trkpt lat="45.6254546" lon="11.369926"><ele>363.2857142857143</ele><time>2026-05-03T07:52:22.965Z</time></trkpt><trkpt lat="45.6254745" lon="11.3698247"><ele>366.0</ele><time>2026-05-03T07:52:26.966Z</time></trkpt><trkpt lat="45.6254945" lon="11.3697343"><ele>364.7142857142857</ele><time>2026-05-03T07:52:30.966Z</time></trkpt><trkpt lat="45.6255274" lon="11.3696353"><ele>363.42857142857144</ele><time>2026-05-03T07:52:35.966Z</time></trkpt><trkpt lat="45.6255856" lon="11.3695734"><ele>362.1428571428571</ele><time>2026-05-03T07:52:39.965Z</time></trkpt><trkpt lat="45.6256428" lon="11.3695288"><ele>360.8571428571429</ele><time>2026-05-03T07:52:42.966Z</time></trkpt><trkpt lat="45.6257029" lon="11.3694943"><ele>359.57142857142856</ele><time>2026-05-03T07:52:45.967Z</time></trkpt><trkpt lat="45.625772" lon="11.3694666"><ele>358.2857142857143</ele><time>2026-05-03T07:52:49.966Z</time></trkpt><trkpt lat="45.6258424" lon="11.3694471"><ele>357.0</ele><time>2026-05-03T07:52:53.967Z</time></trkpt><trkpt lat="45.6259096" lon="11.3694101"><ele>357.0</ele><time>2026-05-03T07:52:57.966Z</time></trkpt><trkpt lat="45.6259767" lon="11.3693831"><ele>357.0</ele><time>2026-05-03T07:53:01.966Z</time></trkpt><trkpt lat="45.6260441" lon="11.3693284"><ele>357.0</ele><time>2026-05-03T07:53:05.966Z</time></trkpt><trkpt lat="45.6261095" lon="11.3693012"><ele>357.0</ele><time>2026-05-03T07:53:08.966Z</time></trkpt><trkpt lat="45.6261845" lon="11.3692614"><ele>357.0</ele><time>2026-05-03T07:53:12.966Z</time></trkpt><trkpt lat="45.6262626" lon="11.3692619"><ele>357.0</ele><time>2026-05-03T07:53:16.966Z</time></trkpt><trkpt lat="45.6263268" lon="11.3692757"><ele>357.0</ele><time>2026-05-03T07:53:19.966Z</time></trkpt><trkpt lat="45.6264116" lon="11.369283"><ele>357.7142857142857</ele><time>2026-05-03T07:53:23.966Z</time></trkpt><trkpt lat="45.6264832" lon="11.3692849"><ele>358.42857142857144</ele><time>2026-05-03T07:53:26.966Z</time></trkpt><trkpt lat="45.6265615" lon="11.3693054"><ele>359.1428571428571</ele><time>2026-05-03T07:53:30.966Z</time></trkpt><trkpt lat="45.6266411" lon="11.369338"><ele>359.8571428571429</ele><time>2026-05-03T07:53:34.966Z</time></trkpt><trkpt lat="45.6267022" lon="11.3693602"><ele>360.57142857142856</ele><time>2026-05-03T07:53:37.966Z</time></trkpt><trkpt lat="45.6267631" lon="11.369386"><ele>361.2857142857143</ele><time>2026-05-03T07:53:40.966Z</time></trkpt><trkpt lat="45.6268326" lon="11.3694173"><ele>362.0</ele><time>2026-05-03T07:53:43.965Z</time></trkpt><trkpt lat="45.6269018" lon="11.3694595"><ele>362.0</ele><time>2026-05-03T07:53:46.965Z</time></trkpt><trkpt lat="45.6268101" lon="11.3694927"><ele>362.0</ele><time>2026-05-03T07:53:48.965Z</time></trkpt><trkpt lat="45.6268752" lon="11.3695119"><ele>362.0</ele><time>2026-05-03T07:53:52.966Z</time></trkpt><trkpt lat="45.626954" lon="11.3695484"><ele>362.0</ele><time>2026-05-03T07:53:54.966Z</time></trkpt><trkpt lat="45.62704" lon="11.3695895"><ele>362.0</ele><time>2026-05-03T07:53:56.965Z</time></trkpt><trkpt lat="45.6271262" lon="11.3696061"><ele>362.0</ele><time>2026-05-03T07:53:58.966Z</time></trkpt><trkpt lat="45.6271994" lon="11.3696172"><ele>362.5</ele><time>2026-05-03T07:54:00.965Z</time></trkpt><trkpt lat="45.6272697" lon="11.3696184"><ele>363.0</ele><time>2026-05-03T07:54:02.965Z</time></trkpt><trkpt lat="45.627333" lon="11.3696001"><ele>363.5</ele><time>2026-05-03T07:54:04.965Z</time></trkpt><trkpt lat="45.6274131" lon="11.3695718"><ele>364.0</ele><time>2026-05-03T07:54:06.965Z</time></trkpt><trkpt lat="45.6274952" lon="11.3695381"><ele>364.5</ele><time>2026-05-03T07:54:08.965Z</time></trkpt><trkpt lat="45.6275723" lon="11.3695042"><ele>365.0</ele><time>2026-05-03T07:54:10.965Z</time></trkpt><trkpt lat="45.6276419" lon="11.3694856"><ele>365.0</ele><time>2026-05-03T07:54:12.965Z</time></trkpt><trkpt lat="45.6277118" lon="11.369459"><ele>365.0</ele><time>2026-05-03T07:54:14.965Z</time></trkpt><trkpt lat="45.6277952" lon="11.3694093"><ele>365.0</ele><time>2026-05-03T07:54:17.965Z</time></trkpt><trkpt lat="45.6278736" lon="11.3693469"><ele>365.0</ele><time>2026-05-03T07:54:20.965Z</time></trkpt><trkpt lat="45.6279367" lon="11.3692684"><ele>365.0</ele><time>2026-05-03T07:54:23.965Z</time></trkpt><trkpt lat="45.6279846" lon="11.3692083"><ele>365.0</ele><time>2026-05-03T07:54:26.965Z</time></trkpt><trkpt lat="45.6280286" lon="11.3691406"><ele>365.14285714285717</ele><time>2026-05-03T07:54:29.966Z</time></trkpt><trkpt lat="45.6280695" lon="11.3690717"><ele>365.2857142857143</ele><time>2026-05-03T07:54:32.965Z</time></trkpt><trkpt lat="45.6281264" lon="11.3690106"><ele>365.42857142857144</ele><time>2026-05-03T07:54:37.965Z</time></trkpt><trkpt lat="45.6281989" lon="11.3689702"><ele>365.57142857142856</ele><time>2026-05-03T07:54:41.965Z</time></trkpt><trkpt lat="45.6282699" lon="11.3689054"><ele>365.7142857142857</ele><time>2026-05-03T07:54:45.966Z</time></trkpt><trkpt lat="45.628316" lon="11.3688216"><ele>365.8571428571429</ele><time>2026-05-03T07:54:48.965Z</time></trkpt><trkpt lat="45.6283782" lon="11.3688014"><ele>366.0</ele><time>2026-05-03T07:54:51.965Z</time></trkpt><trkpt lat="45.6284445" lon="11.3688039"><ele>366.14285714285717</ele><time>2026-05-03T07:54:55.965Z</time></trkpt><trkpt lat="45.6285073" lon="11.3687856"><ele>366.28571428571433</ele><time>2026-05-03T07:54:58.965Z</time></trkpt><trkpt lat="45.6285818" lon="11.3687651"><ele>366.42857142857144</ele><time>2026-05-03T07:55:01.965Z</time></trkpt><trkpt lat="45.6286366" lon="11.3687141"><ele>366.57142857142856</ele><time>2026-05-03T07:55:04.965Z</time></trkpt><trkpt lat="45.6286929" lon="11.3686704"><ele>366.7142857142857</ele><time>2026-05-03T07:55:07.965Z</time></trkpt><trkpt lat="45.6287547" lon="11.3685965"><ele>366.85714285714283</ele><time>2026-05-03T07:55:11.965Z</time></trkpt><trkpt lat="45.628805" lon="11.3685291"><ele>367.0</ele><time>2026-05-03T07:55:14.965Z</time></trkpt><trkpt lat="45.6288532" lon="11.3684711"><ele>367.0</ele><time>2026-05-03T07:55:17.965Z</time></trkpt><trkpt lat="45.6289122" lon="11.3684003"><ele>367.0</ele><time>2026-05-03T07:55:21.965Z</time></trkpt><trkpt lat="45.6289581" lon="11.3683359"><ele>367.0</ele><time>2026-05-03T07:55:25.965Z</time></trkpt><trkpt lat="45.628994" lon="11.3682527"><ele>367.0</ele><time>2026-05-03T07:55:28.965Z</time></trkpt><trkpt lat="45.6290113" lon="11.3681413"><ele>367.0</ele><time>2026-05-03T07:55:31.965Z</time></trkpt><trkpt lat="45.6290228" lon="11.3680502"><ele>367.0</ele><time>2026-05-03T07:55:34.965Z</time></trkpt><trkpt lat="45.6290048" lon="11.367959"><ele>367.0</ele><time>2026-05-03T07:55:37.965Z</time></trkpt><trkpt lat="45.6289958" lon="11.3678372"><ele>371.16666666666663</ele><time>2026-05-03T07:55:40.965Z</time></trkpt><trkpt lat="45.6289942" lon="11.3677092"><ele>375.3333333333333</ele><time>2026-05-03T07:55:43.965Z</time></trkpt><trkpt lat="45.6290188" lon="11.3675971"><ele>379.5</ele><time>2026-05-03T07:55:46.966Z</time></trkpt><trkpt lat="45.6290757" lon="11.3675447"><ele>383.66666666666663</ele><time>2026-05-03T07:55:49.965Z</time></trkpt><trkpt lat="45.6291498" lon="11.3675113"><ele>387.8333333333333</ele><time>2026-05-03T07:55:52.965Z</time></trkpt><trkpt lat="45.6292252" lon="11.3674857"><ele>392.0</ele><time>2026-05-03T07:55:55.965Z</time></trkpt><trkpt lat="45.6292914" lon="11.3674053"><ele>392.0</ele><time>2026-05-03T07:55:58.965Z</time></trkpt><trkpt lat="45.6293508" lon="11.3673674"><ele>392.0</ele><time>2026-05-03T07:56:00.965Z</time></trkpt><trkpt lat="45.6294148" lon="11.3673451"><ele>392.0</ele><time>2026-05-03T07:56:02.965Z</time></trkpt><trkpt lat="45.6294842" lon="11.3673335"><ele>392.0</ele><time>2026-05-03T07:56:04.965Z</time></trkpt><trkpt lat="45.6295514" lon="11.3673044"><ele>392.0</ele><time>2026-05-03T07:56:06.965Z</time></trkpt><trkpt lat="45.6296191" lon="11.3672395"><ele>392.0</ele><time>2026-05-03T07:56:08.965Z</time></trkpt><trkpt lat="45.6296707" lon="11.3671628"><ele>392.0</ele><time>2026-05-03T07:56:10.965Z</time></trkpt><trkpt lat="45.6297102" lon="11.3670837"><ele>391.16666666666663</ele><time>2026-05-03T07:56:12.966Z</time></trkpt><trkpt lat="45.6297336" lon="11.3669853"><ele>390.3333333333333</ele><time>2026-05-03T07:56:15.966Z</time></trkpt><trkpt lat="45.6297751" lon="11.3669037"><ele>389.5</ele><time>2026-05-03T07:56:18.965Z</time></trkpt><trkpt lat="45.6298013" lon="11.3667886"><ele>388.66666666666663</ele><time>2026-05-03T07:56:22.966Z</time></trkpt><trkpt lat="45.6298176" lon="11.3666643"><ele>387.8333333333333</ele><time>2026-05-03T07:56:25.965Z</time></trkpt><trkpt lat="45.6298355" lon="11.3665347"><ele>387.0</ele><time>2026-05-03T07:56:28.965Z</time></trkpt><trkpt lat="45.6298557" lon="11.3664396"><ele>389.0</ele><time>2026-05-03T07:56:31.965Z</time></trkpt><trkpt lat="45.6298938" lon="11.3663394"><ele>391.0</ele><time>2026-05-03T07:56:35.965Z</time></trkpt><trkpt lat="45.6299497" lon="11.3662719"><ele>393.0</ele><time>2026-05-03T07:56:39.966Z</time></trkpt><trkpt lat="45.6300175" lon="11.3662265"><ele>395.0</ele><time>2026-05-03T07:56:42.965Z</time></trkpt><trkpt lat="45.6300755" lon="11.3661643"><ele>397.0</ele><time>2026-05-03T07:56:45.965Z</time></trkpt><trkpt lat="45.6301311" lon="11.3660939"><ele>399.0</ele><time>2026-05-03T07:56:48.965Z</time></trkpt><trkpt lat="45.6301864" lon="11.3660174"><ele>399.0</ele><time>2026-05-03T07:56:51.965Z</time></trkpt><trkpt lat="45.6302326" lon="11.3659413"><ele>399.0</ele><time>2026-05-03T07:56:54.965Z</time></trkpt><trkpt lat="45.6302897" lon="11.3658931"><ele>399.0</ele><time>2026-05-03T07:56:58.965Z</time></trkpt><trkpt lat="45.6303385" lon="11.3658302"><ele>399.0</ele><time>2026-05-03T07:57:04.965Z</time></trkpt><trkpt lat="45.6303799" lon="11.3657578"><ele>399.0</ele><time>2026-05-03T07:57:07.965Z</time></trkpt><trkpt lat="45.6304184" lon="11.3656821"><ele>399.0</ele><time>2026-05-03T07:57:10.965Z</time></trkpt><trkpt lat="45.6304499" lon="11.365603"><ele>399.0</ele><time>2026-05-03T07:57:13.965Z</time></trkpt><trkpt lat="45.6304697" lon="11.3654899"><ele>401.14285714285717</ele><time>2026-05-03T07:57:17.966Z</time></trkpt><trkpt lat="45.6304898" lon="11.3653813"><ele>403.2857142857143</ele><time>2026-05-03T07:57:21.965Z</time></trkpt><trkpt lat="45.6304992" lon="11.3652834"><ele>405.42857142857144</ele><time>2026-05-03T07:57:24.965Z</time></trkpt><trkpt lat="45.630513" lon="11.3651849"><ele>407.57142857142856</ele><time>2026-05-03T07:57:29.965Z</time></trkpt><trkpt lat="45.6305232" lon="11.3650887"><ele>409.7142857142857</ele><time>2026-05-03T07:57:34.965Z</time></trkpt><trkpt lat="45.6305227" lon="11.3649926"><ele>411.8571428571429</ele><time>2026-05-03T07:57:38.965Z</time></trkpt><trkpt lat="45.6305399" lon="11.3648961"><ele>414.0</ele><time>2026-05-03T07:57:42.965Z</time></trkpt><trkpt lat="45.6305509" lon="11.3647941"><ele>414.00000000000006</ele><time>2026-05-03T07:57:46.965Z</time></trkpt><trkpt lat="45.6305212" lon="11.3647026"><ele>414.0</ele><time>2026-05-03T07:57:52.966Z</time></trkpt><trkpt lat="45.6304783" lon="11.3646363"><ele>414.0</ele><time>2026-05-03T07:57:57.966Z</time></trkpt><trkpt lat="45.6304851" lon="11.3645388"><ele>414.0</ele><time>2026-05-03T07:58:01.965Z</time></trkpt><trkpt lat="45.6305091" lon="11.3644524"><ele>414.0</ele><time>2026-05-03T07:58:06.965Z</time></trkpt><trkpt lat="45.6305003" lon="11.3643602"><ele>414.00000000000006</ele><time>2026-05-03T07:58:15.965Z</time></trkpt><trkpt lat="45.6304534" lon="11.3642823"><ele>414.0</ele><time>2026-05-03T07:59:06.965Z</time></trkpt><trkpt lat="45.6304869" lon="11.3641904"><ele>414.8571428571429</ele><time>2026-05-03T07:59:13.965Z</time></trkpt><trkpt lat="45.6304869" lon="11.3640869"><ele>415.7142857142857</ele><time>2026-05-03T07:59:18.966Z</time></trkpt><trkpt lat="45.630474" lon="11.3639793"><ele>416.57142857142856</ele><time>2026-05-03T07:59:23.965Z</time></trkpt><trkpt lat="45.6305121" lon="11.3638961"><ele>417.42857142857144</ele><time>2026-05-03T07:59:27.965Z</time></trkpt><trkpt lat="45.6305609" lon="11.3638271"><ele>418.2857142857143</ele><time>2026-05-03T07:59:31.965Z</time></trkpt><trkpt lat="45.63059" lon="11.3637259"><ele>419.14285714285717</ele><time>2026-05-03T07:59:36.966Z</time></trkpt><trkpt lat="45.6305896" lon="11.3636281"><ele>420.0</ele><time>2026-05-03T07:59:39.965Z</time></trkpt><trkpt lat="45.6305653" lon="11.3635434"><ele>421.0</ele><time>2026-05-03T07:59:43.965Z</time></trkpt><trkpt lat="45.630575" lon="11.3634524"><ele>422.0</ele><time>2026-05-03T07:59:53.964Z</time></trkpt><trkpt lat="45.6306412" lon="11.3634223"><ele>423.0</ele><time>2026-05-03T08:00:00.964Z</time></trkpt><trkpt lat="45.6307072" lon="11.3633753"><ele>424.0</ele><time>2026-05-03T08:00:06.964Z</time></trkpt><trkpt lat="45.6307366" lon="11.3632777"><ele>425.0</ele><time>2026-05-03T08:00:11.964Z</time></trkpt><trkpt lat="45.6307581" lon="11.3631618"><ele>426.0</ele><time>2026-05-03T08:00:16.964Z</time></trkpt><trkpt lat="45.630729" lon="11.3630718"><ele>427.0</ele><time>2026-05-03T08:00:20.964Z</time></trkpt><trkpt lat="45.6306592" lon="11.3630251"><ele>427.0</ele><time>2026-05-03T08:00:25.965Z</time></trkpt><trkpt lat="45.6305927" lon="11.3630123"><ele>427.0</ele><time>2026-05-03T08:00:33.964Z</time></trkpt><trkpt lat="45.6305171" lon="11.3630306"><ele>427.0</ele><time>2026-05-03T08:00:39.964Z</time></trkpt><trkpt lat="45.6304395" lon="11.363042"><ele>427.0</ele><time>2026-05-03T08:00:43.964Z</time></trkpt><trkpt lat="45.6303749" lon="11.3630663"><ele>427.0</ele><time>2026-05-03T08:00:47.965Z</time></trkpt><trkpt lat="45.6303164" lon="11.3631403"><ele>427.0</ele><time>2026-05-03T08:00:52.964Z</time></trkpt><trkpt lat="45.6302516" lon="11.3631987"><ele>427.0</ele><time>2026-05-03T08:00:56.965Z</time></trkpt><trkpt lat="45.6301998" lon="11.3632557"><ele>428.7142857142857</ele><time>2026-05-03T08:00:59.964Z</time></trkpt><trkpt lat="45.6301587" lon="11.3633454"><ele>430.42857142857144</ele><time>2026-05-03T08:01:03.964Z</time></trkpt><trkpt lat="45.6301403" lon="11.3634402"><ele>432.1428571428571</ele><time>2026-05-03T08:01:07.964Z</time></trkpt><trkpt lat="45.6301209" lon="11.3635328"><ele>433.8571428571429</ele><time>2026-05-03T08:01:13.964Z</time></trkpt><trkpt lat="45.6300896" lon="11.3636265"><ele>435.57142857142856</ele><time>2026-05-03T08:01:18.965Z</time></trkpt><trkpt lat="45.6300497" lon="11.3637019"><ele>437.2857142857143</ele><time>2026-05-03T08:01:23.964Z</time></trkpt><trkpt lat="45.6300101" lon="11.363791"><ele>439.0</ele><time>2026-05-03T08:01:29.964Z</time></trkpt><trkpt lat="45.6299765" lon="11.363868"><ele>439.0</ele><time>2026-05-03T08:01:33.964Z</time></trkpt><trkpt lat="45.6299305" lon="11.3639303"><ele>439.0</ele><time>2026-05-03T08:01:36.964Z</time></trkpt><trkpt lat="45.6298771" lon="11.3640083"><ele>439.0</ele><time>2026-05-03T08:01:39.964Z</time></trkpt><trkpt lat="45.6298335" lon="11.3640859"><ele>439.0</ele><time>2026-05-03T08:01:42.964Z</time></trkpt><trkpt lat="45.6297928" lon="11.3641697"><ele>439.0</ele><time>2026-05-03T08:01:46.964Z</time></trkpt><trkpt lat="45.6297359" lon="11.364239"><ele>439.0</ele><time>2026-05-03T08:01:50.964Z</time></trkpt><trkpt lat="45.6296726" lon="11.3643003"><ele>439.0</ele><time>2026-05-03T08:01:54.964Z</time></trkpt><trkpt lat="45.6296194" lon="11.3643747"><ele>439.00000000000006</ele><time>2026-05-03T08:01:58.964Z</time></trkpt><trkpt lat="45.629611" lon="11.3644746"><ele>439.0</ele><time>2026-05-03T08:02:03.964Z</time></trkpt><trkpt lat="45.6296162" lon="11.3645736"><ele>439.0</ele><time>2026-05-03T08:02:10.964Z</time></trkpt><trkpt lat="45.6296202" lon="11.3647043"><ele>439.0</ele><time>2026-05-03T08:02:14.965Z</time></trkpt><trkpt lat="45.6296258" lon="11.3648007"><ele>439.00000000000006</ele><time>2026-05-03T08:02:16.964Z</time></trkpt><trkpt lat="45.6296338" lon="11.3649283"><ele>439.0</ele><time>2026-05-03T08:02:18.964Z</time></trkpt><trkpt lat="45.6296403" lon="11.3650807"><ele>437.83333333333337</ele><time>2026-05-03T08:02:20.964Z</time></trkpt><trkpt lat="45.629625" lon="11.3651955"><ele>436.6666666666667</ele><time>2026-05-03T08:02:22.964Z</time></trkpt><trkpt lat="45.6295825" lon="11.3652989"><ele>435.5</ele><time>2026-05-03T08:02:24.964Z</time></trkpt><trkpt lat="45.6295595" lon="11.3653893"><ele>434.33333333333337</ele><time>2026-05-03T08:02:26.964Z</time></trkpt><trkpt lat="45.62951" lon="11.3654804"><ele>433.1666666666667</ele><time>2026-05-03T08:02:28.964Z</time></trkpt><trkpt lat="45.6294292" lon="11.3655679"><ele>432.0</ele><time>2026-05-03T08:02:30.964Z</time></trkpt><trkpt lat="45.6293667" lon="11.365639"><ele>432.0</ele><time>2026-05-03T08:02:32.964Z</time></trkpt><trkpt lat="45.6292804" lon="11.3656807"><ele>432.0</ele><time>2026-05-03T08:02:36.965Z</time></trkpt><trkpt lat="45.6292018" lon="11.3656995"><ele>432.0</ele><time>2026-05-03T08:02:39.964Z</time></trkpt><trkpt lat="45.6291268" lon="11.3657189"><ele>432.0</ele><time>2026-05-03T08:02:42.964Z</time></trkpt><trkpt lat="45.6290582" lon="11.3657188"><ele>432.0</ele><time>2026-05-03T08:02:44.963Z</time></trkpt><trkpt lat="45.6289604" lon="11.3657143"><ele>432.0</ele><time>2026-05-03T08:02:45.964Z</time></trkpt><trkpt lat="45.6288952" lon="11.3657729"><ele>432.0</ele><time>2026-05-03T08:02:50.964Z</time></trkpt><trkpt lat="45.6288171" lon="11.3658244"><ele>432.0</ele><time>2026-05-03T08:02:53.964Z</time></trkpt><trkpt lat="45.6287661" lon="11.3658845"><ele>432.0</ele><time>2026-05-03T08:02:55.964Z</time></trkpt><trkpt lat="45.6286846" lon="11.3659484"><ele>432.0</ele><time>2026-05-03T08:02:57.964Z</time></trkpt><trkpt lat="45.6286082" lon="11.3660085"><ele>432.0</ele><time>2026-05-03T08:02:59.964Z</time></trkpt><trkpt lat="45.6285214" lon="11.3660855"><ele>432.0</ele><time>2026-05-03T08:03:01.965Z</time></trkpt><trkpt lat="45.6284335" lon="11.3661589"><ele>434.0</ele><time>2026-05-03T08:03:03.964Z</time></trkpt><trkpt lat="45.6283615" lon="11.366218"><ele>436.0</ele><time>2026-05-03T08:03:05.964Z</time></trkpt><trkpt lat="45.628303" lon="11.3662626"><ele>438.0</ele><time>2026-05-03T08:03:07.965Z</time></trkpt><trkpt lat="45.6282261" lon="11.3663005"><ele>440.0</ele><time>2026-05-03T08:03:10.964Z</time></trkpt><trkpt lat="45.6281565" lon="11.3663043"><ele>442.0</ele><time>2026-05-03T08:03:13.964Z</time></trkpt><trkpt lat="45.6281089" lon="11.3662134"><ele>444.0</ele><time>2026-05-03T08:03:18.964Z</time></trkpt><trkpt lat="45.6280345" lon="11.3662543"><ele>444.0</ele><time>2026-05-03T08:03:21.964Z</time></trkpt><trkpt lat="45.6279745" lon="11.3663117"><ele>444.0</ele><time>2026-05-03T08:03:24.964Z</time></trkpt><trkpt lat="45.6279198" lon="11.366371"><ele>444.0</ele><time>2026-05-03T08:03:27.964Z</time></trkpt><trkpt lat="45.6279759" lon="11.3664557"><ele>444.0</ele><time>2026-05-03T08:03:31.964Z</time></trkpt><trkpt lat="45.6279774" lon="11.3665662"><ele>444.0</ele><time>2026-05-03T08:03:35.965Z</time></trkpt><trkpt lat="45.6279105" lon="11.3666316"><ele>444.0</ele><time>2026-05-03T08:03:39.964Z</time></trkpt><trkpt lat="45.6278369" lon="11.3666808"><ele>440.3333333333333</ele><time>2026-05-03T08:03:44.964Z</time></trkpt><trkpt lat="45.6278263" lon="11.366774"><ele>436.66666666666663</ele><time>2026-05-03T08:03:47.964Z</time></trkpt><trkpt lat="45.6278031" lon="11.3668863"><ele>433.0</ele><time>2026-05-03T08:03:51.964Z</time></trkpt><trkpt lat="45.627798" lon="11.3669923"><ele>429.3333333333333</ele><time>2026-05-03T08:03:54.964Z</time></trkpt><trkpt lat="45.6278102" lon="11.3671021"><ele>425.66666666666663</ele><time>2026-05-03T08:03:57.916Z</time></trkpt><trkpt lat="45.6278419" lon="11.3671811"><ele>422.0</ele><time>2026-05-03T08:03:59.964Z</time></trkpt><trkpt lat="45.6278778" lon="11.3673043"><ele>418.6</ele><time>2026-05-03T08:04:02.964Z</time></trkpt><trkpt lat="45.627913" lon="11.3673916"><ele>415.20000000000005</ele><time>2026-05-03T08:04:04.964Z</time></trkpt><trkpt lat="45.6281295" lon="11.3674608"><ele>411.8</ele><time>2026-05-03T08:04:06.964Z</time></trkpt><trkpt lat="45.6281912" lon="11.3675145"><ele>408.4</ele><time>2026-05-03T08:04:08.964Z</time></trkpt><trkpt lat="45.6282144" lon="11.3676258"><ele>405.0</ele><time>2026-05-03T08:04:11.964Z</time></trkpt><trkpt lat="45.6282645" lon="11.367707"><ele>405.0</ele><time>2026-05-03T08:04:13.895Z</time></trkpt><trkpt lat="45.6283404" lon="11.3678064"><ele>405.0</ele><time>2026-05-03T08:04:15.913Z</time></trkpt><trkpt lat="45.6285097" lon="11.3679684"><ele>405.0</ele><time>2026-05-03T08:04:17.964Z</time></trkpt><trkpt lat="45.62862" lon="11.3680627"><ele>405.0</ele><time>2026-05-03T08:04:18.964Z</time></trkpt><trkpt lat="45.6287191" lon="11.3680773"><ele>402.4</ele><time>2026-05-03T08:04:19.964Z</time></trkpt><trkpt lat="45.6288031" lon="11.3680312"><ele>399.8</ele><time>2026-05-03T08:04:20.964Z</time></trkpt><trkpt lat="45.6289063" lon="11.3679881"><ele>397.20000000000005</ele><time>2026-05-03T08:04:22.964Z</time></trkpt><trkpt lat="45.6289881" lon="11.3678991"><ele>394.6</ele><time>2026-05-03T08:04:24.964Z</time></trkpt><trkpt lat="45.6289667" lon="11.367807"><ele>392.0</ele><time>2026-05-03T08:04:26.964Z</time></trkpt><trkpt lat="45.6289982" lon="11.3679364"><ele>391.99999999999994</ele><time>2026-05-03T08:04:36.964Z</time></trkpt><trkpt lat="45.6289627" lon="11.3680169"><ele>392.0</ele><time>2026-05-03T08:04:38.964Z</time></trkpt><trkpt lat="45.6289227" lon="11.3681034"><ele>392.0</ele><time>2026-05-03T08:04:41.964Z</time></trkpt><trkpt lat="45.6289031" lon="11.3682059"><ele>392.0</ele><time>2026-05-03T08:04:45.964Z</time></trkpt><trkpt lat="45.6289169" lon="11.3683002"><ele>391.99999999999994</ele><time>2026-05-03T08:04:49.964Z</time></trkpt><trkpt lat="45.6288322" lon="11.3683663"><ele>392.0</ele><time>2026-05-03T08:05:12.964Z</time></trkpt><trkpt lat="45.6287511" lon="11.3684387"><ele>390.25</ele><time>2026-05-03T08:05:15.964Z</time></trkpt><trkpt lat="45.6285755" lon="11.3685168"><ele>388.5</ele><time>2026-05-03T08:05:16.965Z</time></trkpt><trkpt lat="45.6285182" lon="11.3685929"><ele>386.75</ele><time>2026-05-03T08:05:17.964Z</time></trkpt><trkpt lat="45.6284213" lon="11.3686653"><ele>385.0</ele><time>2026-05-03T08:05:18.964Z</time></trkpt><trkpt lat="45.6283093" lon="11.3687096"><ele>385.0</ele><time>2026-05-03T08:05:19.964Z</time></trkpt><trkpt lat="45.6282371" lon="11.3688044"><ele>385.0</ele><time>2026-05-03T08:05:20.964Z</time></trkpt><trkpt lat="45.6281385" lon="11.3688755"><ele>385.0</ele><time>2026-05-03T08:05:21.965Z</time></trkpt><trkpt lat="45.6280916" lon="11.3689388"><ele>385.0</ele><time>2026-05-03T08:05:22.964Z</time></trkpt><trkpt lat="45.6280164" lon="11.3690146"><ele>385.0</ele><time>2026-05-03T08:05:23.964Z</time></trkpt><trkpt lat="45.6279261" lon="11.3690631"><ele>381.2</ele><time>2026-05-03T08:05:24.964Z</time></trkpt><trkpt lat="45.6278326" lon="11.3691336"><ele>377.4</ele><time>2026-05-03T08:05:25.964Z</time></trkpt><trkpt lat="45.6277109" lon="11.3692372"><ele>373.6</ele><time>2026-05-03T08:05:26.964Z</time></trkpt><trkpt lat="45.6276327" lon="11.3692958"><ele>369.8</ele><time>2026-05-03T08:05:27.964Z</time></trkpt><trkpt lat="45.62755" lon="11.3693597"><ele>366.0</ele><time>2026-05-03T08:05:28.964Z</time></trkpt><trkpt lat="45.6274803" lon="11.3693929"><ele>365.8</ele><time>2026-05-03T08:05:29.964Z</time></trkpt><trkpt lat="45.6273542" lon="11.3693773"><ele>365.6</ele><time>2026-05-03T08:05:31.964Z</time></trkpt><trkpt lat="45.6272705" lon="11.3693836"><ele>365.4</ele><time>2026-05-03T08:05:32.964Z</time></trkpt><trkpt lat="45.6271655" lon="11.3693567"><ele>365.2</ele><time>2026-05-03T08:05:34.964Z</time></trkpt><trkpt lat="45.6270882" lon="11.3693552"><ele>365.0</ele><time>2026-05-03T08:05:37.965Z</time></trkpt><trkpt lat="45.6270133" lon="11.3693426"><ele>364.4</ele><time>2026-05-03T08:05:39.964Z</time></trkpt><trkpt lat="45.6269174" lon="11.369308"><ele>363.8</ele><time>2026-05-03T08:05:41.964Z</time></trkpt><trkpt lat="45.6268038" lon="11.3692729"><ele>363.20000000000005</ele><time>2026-05-03T08:05:43.964Z</time></trkpt><trkpt lat="45.6267191" lon="11.3692503"><ele>362.6</ele><time>2026-05-03T08:05:45.964Z</time></trkpt><trkpt lat="45.6266291" lon="11.3692482"><ele>362.0</ele><time>2026-05-03T08:05:47.964Z</time></trkpt><trkpt lat="45.6265118" lon="11.3692346"><ele>362.0</ele><time>2026-05-03T08:05:49.965Z</time></trkpt><trkpt lat="45.6264416" lon="11.3692262"><ele>362.0</ele><time>2026-05-03T08:05:50.964Z</time></trkpt><trkpt lat="45.6263633" lon="11.3692176"><ele>362.0</ele><time>2026-05-03T08:05:51.965Z</time></trkpt><trkpt lat="45.6262818" lon="11.3692134"><ele>362.0</ele><time>2026-05-03T08:05:52.964Z</time></trkpt><trkpt lat="45.626198" lon="11.3692175"><ele>362.0</ele><time>2026-05-03T08:05:53.964Z</time></trkpt><trkpt lat="45.6261159" lon="11.3692323"><ele>362.0</ele><time>2026-05-03T08:05:54.964Z</time></trkpt><trkpt lat="45.6259991" lon="11.3693276"><ele>361.0</ele><time>2026-05-03T08:05:55.964Z</time></trkpt><trkpt lat="45.6259112" lon="11.3693482"><ele>360.0</ele><time>2026-05-03T08:05:56.964Z</time></trkpt><trkpt lat="45.6258415" lon="11.3693869"><ele>359.0</ele><time>2026-05-03T08:05:57.964Z</time></trkpt><trkpt lat="45.625755" lon="11.3694279"><ele>358.0</ele><time>2026-05-03T08:05:58.964Z</time></trkpt><trkpt lat="45.6256844" lon="11.3694547"><ele>357.0</ele><time>2026-05-03T08:05:59.964Z</time></trkpt><trkpt lat="45.6255779" lon="11.3695388"><ele>357.0</ele><time>2026-05-03T08:06:01.965Z</time></trkpt><trkpt lat="45.6255265" lon="11.3696019"><ele>357.0</ele><time>2026-05-03T08:06:02.964Z</time></trkpt><trkpt lat="45.6254905" lon="11.3697139"><ele>357.0</ele><time>2026-05-03T08:06:03.964Z</time></trkpt><trkpt lat="45.6254466" lon="11.3698038"><ele>357.0</ele><time>2026-05-03T08:06:04.964Z</time></trkpt><trkpt lat="45.6254227" lon="11.3699481"><ele>357.0</ele><time>2026-05-03T08:06:05.965Z</time></trkpt><trkpt lat="45.625397" lon="11.3700751"><ele>357.0</ele><time>2026-05-03T08:06:06.964Z</time></trkpt><trkpt lat="45.6253651" lon="11.3701821"><ele>358.8</ele><time>2026-05-03T08:06:07.963Z</time></trkpt><trkpt lat="45.6253272" lon="11.3703196"><ele>360.6</ele><time>2026-05-03T08:06:08.964Z</time></trkpt><trkpt lat="45.6252821" lon="11.3704243"><ele>362.40000000000003</ele><time>2026-05-03T08:06:09.963Z</time></trkpt><trkpt lat="45.6252321" lon="11.3705351"><ele>364.20000000000005</ele><time>2026-05-03T08:06:10.963Z</time></trkpt><trkpt lat="45.625175" lon="11.3706389"><ele>366.0</ele><time>2026-05-03T08:06:11.963Z</time></trkpt><trkpt lat="45.6251035" lon="11.3707341"><ele>362.8333333333333</ele><time>2026-05-03T08:06:12.964Z</time></trkpt><trkpt lat="45.6250456" lon="11.3708212"><ele>359.6666666666667</ele><time>2026-05-03T08:06:13.963Z</time></trkpt><trkpt lat="45.624975" lon="11.3709173"><ele>356.5</ele><time>2026-05-03T08:06:14.964Z</time></trkpt><trkpt lat="45.624895" lon="11.3709784"><ele>353.33333333333337</ele><time>2026-05-03T08:06:15.963Z</time></trkpt><trkpt lat="45.624819" lon="11.3709802"><ele>350.1666666666667</ele><time>2026-05-03T08:06:16.964Z</time></trkpt><trkpt lat="45.6247363" lon="11.3710304"><ele>347.0</ele><time>2026-05-03T08:06:17.963Z</time></trkpt><trkpt lat="45.6246735" lon="11.3710847"><ele>347.0</ele><time>2026-05-03T08:06:18.964Z</time></trkpt><trkpt lat="45.6245966" lon="11.3710942"><ele>347.0</ele><time>2026-05-03T08:06:19.963Z</time></trkpt><trkpt lat="45.6245325" lon="11.3711331"><ele>347.0</ele><time>2026-05-03T08:06:20.962Z</time></trkpt><trkpt lat="45.6244403" lon="11.3711893"><ele>347.0</ele><time>2026-05-03T08:06:22.963Z</time></trkpt><trkpt lat="45.6243703" lon="11.3712579"><ele>347.0</ele><time>2026-05-03T08:06:24.963Z</time></trkpt><trkpt lat="45.624385" lon="11.3713522"><ele>347.0</ele><time>2026-05-03T08:06:26.963Z</time></trkpt><trkpt lat="45.6243976" lon="11.371452"><ele>347.0</ele><time>2026-05-03T08:06:27.963Z</time></trkpt><trkpt lat="45.6244558" lon="11.3715294"><ele>347.0</ele><time>2026-05-03T08:06:28.963Z</time></trkpt><trkpt lat="45.6244959" lon="11.371601"><ele>347.0</ele><time>2026-05-03T08:06:29.963Z</time></trkpt><trkpt lat="45.6245614" lon="11.3716408"><ele>347.0</ele><time>2026-05-03T08:06:31.963Z</time></trkpt><trkpt lat="45.624622" lon="11.3716761"><ele>347.0</ele><time>2026-05-03T08:06:32.963Z</time></trkpt><trkpt lat="45.6247013" lon="11.3717216"><ele>347.0</ele><time>2026-05-03T08:06:34.963Z</time></trkpt><trkpt lat="45.6247671" lon="11.3717565"><ele>347.0</ele><time>2026-05-03T08:06:36.963Z</time></trkpt><trkpt lat="45.6248445" lon="11.3717822"><ele>347.0</ele><time>2026-05-03T08:06:38.963Z</time></trkpt><trkpt lat="45.6249252" lon="11.3718164"><ele>347.0</ele><time>2026-05-03T08:06:40.963Z</time></trkpt><trkpt lat="45.6249878" lon="11.371852"><ele>347.0</ele><time>2026-05-03T08:06:42.963Z</time></trkpt><trkpt lat="45.6250415" lon="11.3719263"><ele>347.0</ele><time>2026-05-03T08:06:46.963Z</time></trkpt><trkpt lat="45.6250986" lon="11.372003"><ele>347.0</ele><time>2026-05-03T08:06:49.963Z</time></trkpt><trkpt lat="45.6251634" lon="11.3720676"><ele>347.0</ele><time>2026-05-03T08:06:52.963Z</time></trkpt><trkpt lat="45.6252244" lon="11.3721334"><ele>345.5</ele><time>2026-05-03T08:06:55.963Z</time></trkpt><trkpt lat="45.6252095" lon="11.3722436"><ele>344.0</ele><time>2026-05-03T08:06:59.963Z</time></trkpt><trkpt lat="45.6251922" lon="11.3723518"><ele>342.5</ele><time>2026-05-03T08:07:02.963Z</time></trkpt><trkpt lat="45.6251967" lon="11.3724596"><ele>341.0</ele><time>2026-05-03T08:07:05.963Z</time></trkpt><trkpt lat="45.6251861" lon="11.3725614"><ele>339.5</ele><time>2026-05-03T08:07:08.963Z</time></trkpt><trkpt lat="45.6251833" lon="11.3726713"><ele>338.0</ele><time>2026-05-03T08:07:11.963Z</time></trkpt><trkpt lat="45.6251975" lon="11.3727755"><ele>338.0</ele><time>2026-05-03T08:07:13.963Z</time></trkpt><trkpt lat="45.6252215" lon="11.3728818"><ele>338.0</ele><time>2026-05-03T08:07:15.963Z</time></trkpt><trkpt lat="45.6252694" lon="11.3729871"><ele>338.0</ele><time>2026-05-03T08:07:17.964Z</time></trkpt><trkpt lat="45.6253324" lon="11.3731019"><ele>338.0</ele><time>2026-05-03T08:07:19.963Z</time></trkpt><trkpt lat="45.6253765" lon="11.3732047"><ele>338.0</ele><time>2026-05-03T08:07:21.963Z</time></trkpt><trkpt lat="45.6254575" lon="11.3733403"><ele>341.0</ele><time>2026-05-03T08:07:23.964Z</time></trkpt><trkpt lat="45.6255131" lon="11.373425"><ele>344.0</ele><time>2026-05-03T08:07:24.963Z</time></trkpt><trkpt lat="45.6255667" lon="11.373503"><ele>347.0</ele><time>2026-05-03T08:07:25.963Z</time></trkpt><trkpt lat="45.6256168" lon="11.3735703"><ele>350.0</ele><time>2026-05-03T08:07:26.963Z</time></trkpt><trkpt lat="45.6256884" lon="11.3736389"><ele>353.0</ele><time>2026-05-03T08:07:27.963Z</time></trkpt><trkpt lat="45.6259122" lon="11.3736405"><ele>353.0</ele><time>2026-05-03T08:07:28.964Z</time></trkpt><trkpt lat="45.6260385" lon="11.373663"><ele>353.0</ele><time>2026-05-03T08:07:29.963Z</time></trkpt><trkpt lat="45.6261538" lon="11.3736638"><ele>353.0</ele><time>2026-05-03T08:07:30.963Z</time></trkpt><trkpt lat="45.6262437" lon="11.3736972"><ele>353.0</ele><time>2026-05-03T08:07:31.963Z</time></trkpt><trkpt lat="45.6263632" lon="11.3737095"><ele>350.75</ele><time>2026-05-03T08:07:32.963Z</time></trkpt><trkpt lat="45.6264962" lon="11.3737025"><ele>348.5</ele><time>2026-05-03T08:07:33.963Z</time></trkpt><trkpt lat="45.6266031" lon="11.3736974"><ele>346.25</ele><time>2026-05-03T08:07:34.963Z</time></trkpt><trkpt lat="45.6267083" lon="11.3736743"><ele>344.0</ele><time>2026-05-03T08:07:35.963Z</time></trkpt><trkpt lat="45.6268362" lon="11.3736504"><ele>344.0</ele><time>2026-05-03T08:07:36.963Z</time></trkpt><trkpt lat="45.6269326" lon="11.3736586"><ele>344.0</ele><time>2026-05-03T08:07:37.963Z</time></trkpt><trkpt lat="45.627047" lon="11.3736274"><ele>344.0</ele><time>2026-05-03T08:07:38.963Z</time></trkpt><trkpt lat="45.6271508" lon="11.3736772"><ele>344.0</ele><time>2026-05-03T08:07:39.963Z</time></trkpt><trkpt lat="45.6272563" lon="11.3736813"><ele>344.0</ele><time>2026-05-03T08:07:40.963Z</time></trkpt><trkpt lat="45.627378" lon="11.3736965"><ele>339.2</ele><time>2026-05-03T08:07:41.963Z</time></trkpt><trkpt lat="45.6274546" lon="11.3736984"><ele>334.4</ele><time>2026-05-03T08:07:42.963Z</time></trkpt><trkpt lat="45.6275613" lon="11.3736726"><ele>329.6</ele><time>2026-05-03T08:07:43.962Z</time></trkpt><trkpt lat="45.6276497" lon="11.3736692"><ele>324.8</ele><time>2026-05-03T08:07:44.963Z</time></trkpt><trkpt lat="45.6277531" lon="11.3735832"><ele>320.0</ele><time>2026-05-03T08:07:46.963Z</time></trkpt><trkpt lat="45.6278224" lon="11.3735167"><ele>320.0</ele><time>2026-05-03T08:07:48.963Z</time></trkpt><trkpt lat="45.6278664" lon="11.37336"><ele>320.0</ele><time>2026-05-03T08:07:49.964Z</time></trkpt><trkpt lat="45.6278023" lon="11.3734387"><ele>320.0</ele><time>2026-05-03T08:07:54.963Z</time></trkpt><trkpt lat="45.6277236" lon="11.3734702"><ele>320.0</ele><time>2026-05-03T08:07:55.963Z</time></trkpt><trkpt lat="45.6275888" lon="11.3735124"><ele>320.0</ele><time>2026-05-03T08:07:56.963Z</time></trkpt><trkpt lat="45.6278899" lon="11.3735745"><ele>317.2</ele><time>2026-05-03T08:08:00.963Z</time></trkpt><trkpt lat="45.6279702" lon="11.3735572"><ele>314.4</ele><time>2026-05-03T08:08:01.963Z</time></trkpt><trkpt lat="45.6280616" lon="11.3735634"><ele>311.6</ele><time>2026-05-03T08:08:02.963Z</time></trkpt><trkpt lat="45.628209" lon="11.3735518"><ele>308.8</ele><time>2026-05-03T08:08:03.963Z</time></trkpt><trkpt lat="45.628307" lon="11.3735672"><ele>306.0</ele><time>2026-05-03T08:08:04.963Z</time></trkpt><trkpt lat="45.6284165" lon="11.3736351"><ele>306.0</ele><time>2026-05-03T08:08:05.964Z</time></trkpt><trkpt lat="45.6285007" lon="11.3736587"><ele>306.0</ele><time>2026-05-03T08:08:06.963Z</time></trkpt><trkpt lat="45.6286263" lon="11.3736677"><ele>306.0</ele><time>2026-05-03T08:08:07.963Z</time></trkpt><trkpt lat="45.6287368" lon="11.3736789"><ele>306.0</ele><time>2026-05-03T08:08:08.963Z</time></trkpt><trkpt lat="45.6288461" lon="11.3736811"><ele>306.0</ele><time>2026-05-03T08:08:09.963Z</time></trkpt><trkpt lat="45.6289252" lon="11.3735544"><ele>302.6</ele><time>2026-05-03T08:08:10.963Z</time></trkpt><trkpt lat="45.6290025" lon="11.3735571"><ele>299.20000000000005</ele><time>2026-05-03T08:08:11.964Z</time></trkpt><trkpt lat="45.6291466" lon="11.3736039"><ele>295.79999999999995</ele><time>2026-05-03T08:08:12.963Z</time></trkpt><trkpt lat="45.6292554" lon="11.3736323"><ele>292.4</ele><time>2026-05-03T08:08:13.963Z</time></trkpt><trkpt lat="45.6293669" lon="11.3736162"><ele>289.0</ele><time>2026-05-03T08:08:14.963Z</time></trkpt><trkpt lat="45.6294805" lon="11.3735815"><ele>285.4</ele><time>2026-05-03T08:08:15.963Z</time></trkpt><trkpt lat="45.6295697" lon="11.3735908"><ele>281.79999999999995</ele><time>2026-05-03T08:08:16.963Z</time></trkpt><trkpt lat="45.6296893" lon="11.3735594"><ele>278.20000000000005</ele><time>2026-05-03T08:08:17.963Z</time></trkpt><trkpt lat="45.6297869" lon="11.3735893"><ele>274.6</ele><time>2026-05-03T08:08:18.963Z</time></trkpt><trkpt lat="45.6298916" lon="11.3735655"><ele>271.0</ele><time>2026-05-03T08:08:19.964Z</time></trkpt><trkpt lat="45.6300297" lon="11.3734918"><ele>271.0</ele><time>2026-05-03T08:08:20.963Z</time></trkpt><trkpt lat="45.6301431" lon="11.373437"><ele>271.0</ele><time>2026-05-03T08:08:21.964Z</time></trkpt><trkpt lat="45.6302527" lon="11.3733856"><ele>271.0</ele><time>2026-05-03T08:08:22.963Z</time></trkpt><trkpt lat="45.630357" lon="11.3733165"><ele>271.0</ele><time>2026-05-03T08:08:23.964Z</time></trkpt><trkpt lat="45.6304542" lon="11.3732508"><ele>271.2</ele><time>2026-05-03T08:08:24.964Z</time></trkpt><trkpt lat="45.6305254" lon="11.3731879"><ele>271.40000000000003</ele><time>2026-05-03T08:08:25.964Z</time></trkpt><trkpt lat="45.6305672" lon="11.373116"><ele>271.6</ele><time>2026-05-03T08:08:26.963Z</time></trkpt><trkpt lat="45.6306406" lon="11.3729998"><ele>271.8</ele><time>2026-05-03T08:08:28.963Z</time></trkpt><trkpt lat="45.6306868" lon="11.3729315"><ele>272.0</ele><time>2026-05-03T08:08:30.963Z</time></trkpt><trkpt lat="45.6306244" lon="11.3731098"><ele>268.83333333333337</ele><time>2026-05-03T08:08:33.963Z</time></trkpt><trkpt lat="45.6305823" lon="11.3731996"><ele>265.6666666666667</ele><time>2026-05-03T08:08:34.963Z</time></trkpt><trkpt lat="45.6305169" lon="11.3732421"><ele>262.5</ele><time>2026-05-03T08:08:35.963Z</time></trkpt><trkpt lat="45.6305282" lon="11.3733804"><ele>259.3333333333333</ele><time>2026-05-03T08:08:37.963Z</time></trkpt><trkpt lat="45.6305757" lon="11.3735068"><ele>256.16666666666663</ele><time>2026-05-03T08:08:39.963Z</time></trkpt><trkpt lat="45.6306639" lon="11.3735531"><ele>253.0</ele><time>2026-05-03T08:08:41.963Z</time></trkpt><trkpt lat="45.6308249" lon="11.3735237"><ele>253.0</ele><time>2026-05-03T08:08:44.963Z</time></trkpt><trkpt lat="45.6309182" lon="11.37348"><ele>253.0</ele><time>2026-05-03T08:08:46.963Z</time></trkpt><trkpt lat="45.6309983" lon="11.3734538"><ele>253.0</ele><time>2026-05-03T08:08:48.963Z</time></trkpt><trkpt lat="45.6310963" lon="11.3734334"><ele>253.0</ele><time>2026-05-03T08:08:50.963Z</time></trkpt><trkpt lat="45.6311982" lon="11.3733917"><ele>253.0</ele><time>2026-05-03T08:08:52.963Z</time></trkpt><trkpt lat="45.6312934" lon="11.3733032"><ele>252.49999999999997</ele><time>2026-05-03T08:08:54.963Z</time></trkpt><trkpt lat="45.6313781" lon="11.3732463"><ele>252.0</ele><time>2026-05-03T08:08:56.964Z</time></trkpt><trkpt lat="45.6314222" lon="11.373175"><ele>251.5</ele><time>2026-05-03T08:08:57.963Z</time></trkpt><trkpt lat="45.6314892" lon="11.3730878"><ele>251.0</ele><time>2026-05-03T08:08:59.963Z</time></trkpt><trkpt lat="45.6315649" lon="11.3730078"><ele>250.49999999999997</ele><time>2026-05-03T08:09:01.963Z</time></trkpt><trkpt lat="45.6316381" lon="11.3729284"><ele>250.0</ele><time>2026-05-03T08:09:03.963Z</time></trkpt><trkpt lat="45.6317017" lon="11.3728565"><ele>250.0</ele><time>2026-05-03T08:09:05.963Z</time></trkpt><trkpt lat="45.6317685" lon="11.3727812"><ele>250.0</ele><time>2026-05-03T08:09:07.963Z</time></trkpt><trkpt lat="45.631843" lon="11.3726932"><ele>250.0</ele><time>2026-05-03T08:09:09.963Z</time></trkpt><trkpt lat="45.631925" lon="11.3726177"><ele>250.0</ele><time>2026-05-03T08:09:11.963Z</time></trkpt><trkpt lat="45.6320163" lon="11.3725735"><ele>250.0</ele><time>2026-05-03T08:09:13.963Z</time></trkpt><trkpt lat="45.632097" lon="11.3725441"><ele>250.16666666666666</ele><time>2026-05-03T08:09:15.964Z</time></trkpt><trkpt lat="45.6321749" lon="11.3725274"><ele>250.33333333333331</ele><time>2026-05-03T08:09:17.963Z</time></trkpt><trkpt lat="45.6322475" lon="11.372532"><ele>250.5</ele><time>2026-05-03T08:09:19.963Z</time></trkpt><trkpt lat="45.6323141" lon="11.3725538"><ele>250.66666666666669</ele><time>2026-05-03T08:09:21.964Z</time></trkpt><trkpt lat="45.6323773" lon="11.3725754"><ele>250.83333333333334</ele><time>2026-05-03T08:09:23.963Z</time></trkpt><trkpt lat="45.6324687" lon="11.3725946"><ele>251.0</ele><time>2026-05-03T08:09:26.963Z</time></trkpt><trkpt lat="45.6325356" lon="11.3726378"><ele>250.99999999999997</ele><time>2026-05-03T08:09:28.963Z</time></trkpt><trkpt lat="45.6325982" lon="11.3726829"><ele>251.0</ele><time>2026-05-03T08:09:30.963Z</time></trkpt><trkpt lat="45.6326522" lon="11.3727299"><ele>250.99999999999997</ele><time>2026-05-03T08:09:32.963Z</time></trkpt><trkpt lat="45.632708" lon="11.3727841"><ele>250.99999999999997</ele><time>2026-05-03T08:09:34.963Z</time></trkpt><trkpt lat="45.6327653" lon="11.3728371"><ele>251.0</ele><time>2026-05-03T08:09:36.963Z</time></trkpt><trkpt lat="45.6328233" lon="11.3728756"><ele>250.99999999999997</ele><time>2026-05-03T08:09:38.963Z</time></trkpt><trkpt lat="45.6328926" lon="11.3729199"><ele>250.99999999999997</ele><time>2026-05-03T08:09:40.963Z</time></trkpt><trkpt lat="45.6329566" lon="11.3729547"><ele>251.4285714285714</ele><time>2026-05-03T08:09:42.963Z</time></trkpt><trkpt lat="45.6330328" lon="11.3729906"><ele>251.85714285714283</ele><time>2026-05-03T08:09:44.964Z</time></trkpt><trkpt lat="45.6331233" lon="11.3730289"><ele>252.28571428571428</ele><time>2026-05-03T08:09:46.963Z</time></trkpt><trkpt lat="45.6331862" lon="11.3730642"><ele>252.7142857142857</ele><time>2026-05-03T08:09:48.963Z</time></trkpt><trkpt lat="45.6332461" lon="11.3730957"><ele>253.1428571428571</ele><time>2026-05-03T08:09:50.963Z</time></trkpt><trkpt lat="45.6333051" lon="11.3731352"><ele>253.57142857142858</ele><time>2026-05-03T08:09:52.963Z</time></trkpt><trkpt lat="45.6333649" lon="11.3731814"><ele>254.0</ele><time>2026-05-03T08:09:54.963Z</time></trkpt><trkpt lat="45.6334222" lon="11.3732269"><ele>254.00000000000003</ele><time>2026-05-03T08:09:56.963Z</time></trkpt><trkpt lat="45.6334812" lon="11.373268"><ele>254.0</ele><time>2026-05-03T08:09:58.963Z</time></trkpt><trkpt lat="45.6335487" lon="11.3733214"><ele>254.0</ele><time>2026-05-03T08:10:00.963Z</time></trkpt><trkpt lat="45.6336162" lon="11.37336"><ele>254.0</ele><time>2026-05-03T08:10:02.963Z</time></trkpt><trkpt lat="45.6336995" lon="11.3733721"><ele>254.00000000000003</ele><time>2026-05-03T08:10:05.964Z</time></trkpt><trkpt lat="45.6337837" lon="11.3733674"><ele>254.0</ele><time>2026-05-03T08:10:08.963Z</time></trkpt><trkpt lat="45.6338448" lon="11.3734105"><ele>254.50000000000003</ele><time>2026-05-03T08:10:10.963Z</time></trkpt><trkpt lat="45.633909" lon="11.3734889"><ele>255.0</ele><time>2026-05-03T08:10:13.963Z</time></trkpt><trkpt lat="45.6339581" lon="11.3735825"><ele>255.5</ele><time>2026-05-03T08:10:16.963Z</time></trkpt><trkpt lat="45.633996" lon="11.3736925"><ele>256.0</ele><time>2026-05-03T08:10:19.963Z</time></trkpt><trkpt lat="45.6340397" lon="11.3737764"><ele>256.5</ele><time>2026-05-03T08:10:22.964Z</time></trkpt><trkpt lat="45.6340999" lon="11.3738486"><ele>257.0</ele><time>2026-05-03T08:10:26.964Z</time></trkpt><trkpt lat="45.6341432" lon="11.3739145"><ele>257.0</ele><time>2026-05-03T08:10:29.963Z</time></trkpt><trkpt lat="45.6342102" lon="11.3739661"><ele>257.0</ele><time>2026-05-03T08:10:33.963Z</time></trkpt><trkpt lat="45.6342679" lon="11.3740084"><ele>257.0</ele><time>2026-05-03T08:10:39.963Z</time></trkpt><trkpt lat="45.6343079" lon="11.3740834"><ele>257.0</ele><time>2026-05-03T08:10:44.963Z</time></trkpt><trkpt lat="45.634314" lon="11.3741751"><ele>257.0</ele><time>2026-05-03T08:10:49.963Z</time></trkpt><trkpt lat="45.6342836" lon="11.3742596"><ele>257.0</ele><time>2026-05-03T08:10:53.963Z</time></trkpt><trkpt lat="45.6342685" lon="11.3743738"><ele>257.0</ele><time>2026-05-03T08:10:57.963Z</time></trkpt><trkpt lat="45.6342763" lon="11.3744798"><ele>257.0</ele><time>2026-05-03T08:11:01.963Z</time></trkpt><trkpt lat="45.6342681" lon="11.3745789"><ele>257.0</ele><time>2026-05-03T08:11:05.963Z</time></trkpt><trkpt lat="45.6342631" lon="11.3746696"><ele>257.0</ele><time>2026-05-03T08:11:08.963Z</time></trkpt><trkpt lat="45.6342693" lon="11.3747633"><ele>257.0</ele><time>2026-05-03T08:11:11.963Z</time></trkpt><trkpt lat="45.6342701" lon="11.3748713"><ele>257.0</ele><time>2026-05-03T08:11:16.963Z</time></trkpt><trkpt lat="45.6342738" lon="11.3749855"><ele>257.0</ele><time>2026-05-03T08:11:20.963Z</time></trkpt><trkpt lat="45.6342607" lon="11.3750982"><ele>257.0</ele><time>2026-05-03T08:11:23.963Z</time></trkpt><trkpt lat="45.6342445" lon="11.3752029"><ele>258.0</ele><time>2026-05-03T08:11:25.963Z</time></trkpt><trkpt lat="45.6342003" lon="11.3753095"><ele>259.0</ele><time>2026-05-03T08:11:27.964Z</time></trkpt><trkpt lat="45.6341364" lon="11.375424"><ele>260.0</ele><time>2026-05-03T08:11:29.963Z</time></trkpt><trkpt lat="45.6340737" lon="11.3755067"><ele>261.0</ele><time>2026-05-03T08:11:30.963Z</time></trkpt><trkpt lat="45.6339921" lon="11.3756254"><ele>262.0</ele><time>2026-05-03T08:11:32.963Z</time></trkpt><trkpt lat="45.6339208" lon="11.3757494"><ele>262.5</ele><time>2026-05-03T08:11:34.964Z</time></trkpt><trkpt lat="45.633842" lon="11.3758657"><ele>263.0</ele><time>2026-05-03T08:11:36.963Z</time></trkpt><trkpt lat="45.6337982" lon="11.3759308"><ele>263.5</ele><time>2026-05-03T08:11:37.963Z</time></trkpt><trkpt lat="45.6337634" lon="11.3760228"><ele>264.0</ele><time>2026-05-03T08:11:39.963Z</time></trkpt><trkpt lat="45.6337102" lon="11.3761019"><ele>264.5</ele><time>2026-05-03T08:11:46.963Z</time></trkpt><trkpt lat="45.6336678" lon="11.3761712"><ele>265.0</ele><time>2026-05-03T08:11:49.964Z</time></trkpt><trkpt lat="45.6336119" lon="11.3762511"><ele>264.5</ele><time>2026-05-03T08:11:52.963Z</time></trkpt><trkpt lat="45.6335563" lon="11.3763165"><ele>264.0</ele><time>2026-05-03T08:11:54.963Z</time></trkpt><trkpt lat="45.6335088" lon="11.3763944"><ele>263.5</ele><time>2026-05-03T08:11:57.964Z</time></trkpt><trkpt lat="45.6334606" lon="11.3764873"><ele>263.0</ele><time>2026-05-03T08:12:00.963Z</time></trkpt><trkpt lat="45.6334396" lon="11.3766034"><ele>262.5</ele><time>2026-05-03T08:12:03.963Z</time></trkpt><trkpt lat="45.6334429" lon="11.3767204"><ele>262.0</ele><time>2026-05-03T08:12:06.963Z</time></trkpt><trkpt lat="45.6334042" lon="11.3767976"><ele>262.0</ele><time>2026-05-03T08:12:09.963Z</time></trkpt><trkpt lat="45.6333476" lon="11.3768799"><ele>262.0</ele><time>2026-05-03T08:12:12.963Z</time></trkpt><trkpt lat="45.6332994" lon="11.3769458"><ele>262.0</ele><time>2026-05-03T08:12:16.963Z</time></trkpt><trkpt lat="45.6332696" lon="11.3770313"><ele>262.0</ele><time>2026-05-03T08:12:20.963Z</time></trkpt><trkpt lat="45.6332319" lon="11.3771173"><ele>262.0</ele><time>2026-05-03T08:12:23.964Z</time></trkpt><trkpt lat="45.6331665" lon="11.3771945"><ele>262.0</ele><time>2026-05-03T08:12:28.963Z</time></trkpt><trkpt lat="45.6331377" lon="11.3772768"><ele>262.0</ele><time>2026-05-03T08:12:32.964Z</time></trkpt><trkpt lat="45.633121" lon="11.3773671"><ele>263.8571428571429</ele><time>2026-05-03T08:12:37.963Z</time></trkpt><trkpt lat="45.6331044" lon="11.3774548"><ele>265.7142857142857</ele><time>2026-05-03T08:12:41.963Z</time></trkpt><trkpt lat="45.6330855" lon="11.3775571"><ele>267.57142857142856</ele><time>2026-05-03T08:12:45.963Z</time></trkpt><trkpt lat="45.6330689" lon="11.3776574"><ele>269.42857142857144</ele><time>2026-05-03T08:12:50.963Z</time></trkpt><trkpt lat="45.6330315" lon="11.3777425"><ele>271.2857142857143</ele><time>2026-05-03T08:12:54.963Z</time></trkpt><trkpt lat="45.6329739" lon="11.3777835"><ele>273.14285714285717</ele><time>2026-05-03T08:13:00.963Z</time></trkpt><trkpt lat="45.6329545" lon="11.3778759"><ele>275.0</ele><time>2026-05-03T08:13:04.963Z</time></trkpt><trkpt lat="45.6329314" lon="11.377969"><ele>277.8571428571429</ele><time>2026-05-03T08:13:08.963Z</time></trkpt><trkpt lat="45.6329078" lon="11.3780547"><ele>280.7142857142857</ele><time>2026-05-03T08:13:12.963Z</time></trkpt><trkpt lat="45.6328912" lon="11.3781554"><ele>283.57142857142856</ele><time>2026-05-03T08:13:16.963Z</time></trkpt><trkpt lat="45.6328702" lon="11.3782424"><ele>286.42857142857144</ele><time>2026-05-03T08:13:20.964Z</time></trkpt><trkpt lat="45.6328581" lon="11.3783458"><ele>289.2857142857143</ele><time>2026-05-03T08:13:25.963Z</time></trkpt><trkpt lat="45.6328689" lon="11.378443"><ele>292.14285714285717</ele><time>2026-05-03T08:13:29.963Z</time></trkpt><trkpt lat="45.6328728" lon="11.3785401"><ele>295.0</ele><time>2026-05-03T08:13:34.963Z</time></trkpt><trkpt lat="45.6328785" lon="11.3786552"><ele>295.00000000000006</ele><time>2026-05-03T08:13:40.963Z</time></trkpt><trkpt lat="45.6328902" lon="11.3787499"><ele>295.0</ele><time>2026-05-03T08:13:44.962Z</time></trkpt><trkpt lat="45.6328951" lon="11.3788442"><ele>295.0</ele><time>2026-05-03T08:13:49.963Z</time></trkpt><trkpt lat="45.6328619" lon="11.3789416"><ele>295.0</ele><time>2026-05-03T08:13:55.962Z</time></trkpt><trkpt lat="45.6328635" lon="11.3790323"><ele>295.0</ele><time>2026-05-03T08:13:59.962Z</time></trkpt><trkpt lat="45.6328665" lon="11.379133"><ele>295.00000000000006</ele><time>2026-05-03T08:14:03.962Z</time></trkpt><trkpt lat="45.6328404" lon="11.3792232"><ele>295.0</ele><time>2026-05-03T08:14:10.962Z</time></trkpt><trkpt lat="45.6328277" lon="11.3793266"><ele>297.00000000000006</ele><time>2026-05-03T08:14:15.962Z</time></trkpt><trkpt lat="45.6328263" lon="11.3794231"><ele>299.0</ele><time>2026-05-03T08:14:19.962Z</time></trkpt><trkpt lat="45.6328243" lon="11.3795187"><ele>301.0</ele><time>2026-05-03T08:14:23.962Z</time></trkpt><trkpt lat="45.6328253" lon="11.3796299"><ele>303.0</ele><time>2026-05-03T08:14:28.962Z</time></trkpt><trkpt lat="45.6328258" lon="11.379737"><ele>305.0</ele><time>2026-05-03T08:14:32.962Z</time></trkpt><trkpt lat="45.6328283" lon="11.379833"><ele>307.00000000000006</ele><time>2026-05-03T08:14:37.962Z</time></trkpt><trkpt lat="45.6328233" lon="11.3799387"><ele>309.0</ele><time>2026-05-03T08:14:43.962Z</time></trkpt><trkpt lat="45.6328399" lon="11.3800417"><ele>310.14285714285717</ele><time>2026-05-03T08:14:48.962Z</time></trkpt><trkpt lat="45.6328354" lon="11.3801349"><ele>311.2857142857143</ele><time>2026-05-03T08:14:54.962Z</time></trkpt><trkpt lat="45.6328516" lon="11.380237"><ele>312.42857142857144</ele><time>2026-05-03T08:15:00.963Z</time></trkpt><trkpt lat="45.6328471" lon="11.3803411"><ele>313.57142857142856</ele><time>2026-05-03T08:15:04.962Z</time></trkpt><trkpt lat="45.6328434" lon="11.3804548"><ele>314.7142857142857</ele><time>2026-05-03T08:15:08.961Z</time></trkpt><trkpt lat="45.6328219" lon="11.3805567"><ele>315.8571428571429</ele><time>2026-05-03T08:15:14.962Z</time></trkpt><trkpt lat="45.6328018" lon="11.3806435"><ele>317.0</ele><time>2026-05-03T08:15:19.962Z</time></trkpt><trkpt lat="45.6327703" lon="11.3807304"><ele>313.57142857142856</ele><time>2026-05-03T08:15:25.962Z</time></trkpt><trkpt lat="45.6327342" lon="11.380816"><ele>310.1428571428571</ele><time>2026-05-03T08:15:32.962Z</time></trkpt><trkpt lat="45.6327168" lon="11.380906"><ele>306.71428571428567</ele><time>2026-05-03T08:15:37.962Z</time></trkpt><trkpt lat="45.6326927" lon="11.3810059"><ele>303.2857142857143</ele><time>2026-05-03T08:15:41.962Z</time></trkpt><trkpt lat="45.6326726" lon="11.3811109"><ele>299.85714285714283</ele><time>2026-05-03T08:15:45.962Z</time></trkpt><trkpt lat="45.6326742" lon="11.3812214"><ele>296.4285714285714</ele><time>2026-05-03T08:15:51.962Z</time></trkpt><trkpt lat="45.6326591" lon="11.3813379"><ele>293.0</ele><time>2026-05-03T08:15:55.962Z</time></trkpt><trkpt lat="45.6326529" lon="11.3814538"><ele>292.99999999999994</ele><time>2026-05-03T08:15:59.962Z</time></trkpt><trkpt lat="45.6326401" lon="11.3815676"><ele>293.0</ele><time>2026-05-03T08:16:03.962Z</time></trkpt><trkpt lat="45.6326464" lon="11.3816576"><ele>293.0</ele><time>2026-05-03T08:16:06.963Z</time></trkpt><trkpt lat="45.632662" lon="11.3817496"><ele>293.0</ele><time>2026-05-03T08:16:09.962Z</time></trkpt><trkpt lat="45.632693" lon="11.3818307"><ele>293.0</ele><time>2026-05-03T08:16:13.963Z</time></trkpt><trkpt lat="45.6327271" lon="11.3819258"><ele>292.99999999999994</ele><time>2026-05-03T08:16:17.962Z</time></trkpt><trkpt lat="45.6327477" lon="11.3820179"><ele>293.0</ele><time>2026-05-03T08:16:23.963Z</time></trkpt><trkpt lat="45.6327589" lon="11.3821237"><ele>293.83333333333337</ele><time>2026-05-03T08:16:29.962Z</time></trkpt><trkpt lat="45.632731" lon="11.3822166"><ele>294.6666666666667</ele><time>2026-05-03T08:16:32.962Z</time></trkpt><trkpt lat="45.6327115" lon="11.3823344"><ele>295.5</ele><time>2026-05-03T08:16:36.962Z</time></trkpt><trkpt lat="45.6326881" lon="11.3824224"><ele>296.3333333333333</ele><time>2026-05-03T08:16:39.962Z</time></trkpt><trkpt lat="45.6326333" lon="11.3825268"><ele>297.16666666666663</ele><time>2026-05-03T08:16:42.963Z</time></trkpt><trkpt lat="45.6325845" lon="11.3826528"><ele>298.0</ele><time>2026-05-03T08:16:44.962Z</time></trkpt><trkpt lat="45.632521" lon="11.3828029"><ele>298.0</ele><time>2026-05-03T08:16:46.962Z</time></trkpt><trkpt lat="45.6324768" lon="11.3828857"><ele>298.0</ele><time>2026-05-03T08:16:47.962Z</time></trkpt><trkpt lat="45.6324192" lon="11.3829617"><ele>298.0</ele><time>2026-05-03T08:16:48.963Z</time></trkpt><trkpt lat="45.632357" lon="11.3830312"><ele>298.0</ele><time>2026-05-03T08:16:49.962Z</time></trkpt><trkpt lat="45.6322801" lon="11.3830819"><ele>298.0</ele><time>2026-05-03T08:16:50.963Z</time></trkpt><trkpt lat="45.6321094" lon="11.3831754"><ele>297.8333333333333</ele><time>2026-05-03T08:16:51.962Z</time></trkpt><trkpt lat="45.6320505" lon="11.3832337"><ele>297.66666666666663</ele><time>2026-05-03T08:16:52.963Z</time></trkpt><trkpt lat="45.6319768" lon="11.3833795"><ele>297.5</ele><time>2026-05-03T08:16:54.963Z</time></trkpt><trkpt lat="45.6319497" lon="11.3834627"><ele>297.3333333333333</ele><time>2026-05-03T08:16:55.962Z</time></trkpt><trkpt lat="45.6319126" lon="11.3835388"><ele>297.1666666666667</ele><time>2026-05-03T08:16:56.962Z</time></trkpt><trkpt lat="45.6318403" lon="11.3836497"><ele>297.0</ele><time>2026-05-03T08:16:58.962Z</time></trkpt><trkpt lat="45.6317803" lon="11.3837802"><ele>297.8</ele><time>2026-05-03T08:17:00.962Z</time></trkpt><trkpt lat="45.6317263" lon="11.3839066"><ele>298.6</ele><time>2026-05-03T08:17:02.963Z</time></trkpt><trkpt lat="45.6316805" lon="11.3840316"><ele>299.40000000000003</ele><time>2026-05-03T08:17:04.962Z</time></trkpt><trkpt lat="45.6316054" lon="11.3840656"><ele>300.2</ele><time>2026-05-03T08:17:06.962Z</time></trkpt><trkpt lat="45.6315127" lon="11.3841275"><ele>301.0</ele><time>2026-05-03T08:17:08.963Z</time></trkpt><trkpt lat="45.6314063" lon="11.3841652"><ele>301.0</ele><time>2026-05-03T08:17:10.962Z</time></trkpt><trkpt lat="45.6313198" lon="11.3841992"><ele>301.0</ele><time>2026-05-03T08:17:12.962Z</time></trkpt><trkpt lat="45.6312417" lon="11.3842737"><ele>301.0</ele><time>2026-05-03T08:17:14.962Z</time></trkpt><trkpt lat="45.631165" lon="11.3843372"><ele>301.0</ele><time>2026-05-03T08:17:16.963Z</time></trkpt><trkpt lat="45.6310834" lon="11.3844256"><ele>301.0</ele><time>2026-05-03T08:17:18.962Z</time></trkpt><trkpt lat="45.6310063" lon="11.38452"><ele>302.3333333333333</ele><time>2026-05-03T08:17:20.962Z</time></trkpt><trkpt lat="45.630946" lon="11.3846434"><ele>303.6666666666667</ele><time>2026-05-03T08:17:22.962Z</time></trkpt><trkpt lat="45.6309313" lon="11.3847401"><ele>305.0</ele><time>2026-05-03T08:17:24.963Z</time></trkpt><trkpt lat="45.6306603" lon="11.3851422"><ele>305.0</ele><time>2026-05-03T08:17:32.962Z</time></trkpt><trkpt lat="45.6305185" lon="11.3853514"><ele>305.0</ele><time>2026-05-03T08:17:33.963Z</time></trkpt><trkpt lat="45.6304947" lon="11.3855261"><ele>305.0</ele><time>2026-05-03T08:17:38.962Z</time></trkpt><trkpt lat="45.6304353" lon="11.3856317"><ele>305.0</ele><time>2026-05-03T08:17:39.962Z</time></trkpt><trkpt lat="45.6304731" lon="11.3857891"><ele>301.6</ele><time>2026-05-03T08:17:40.961Z</time></trkpt><trkpt lat="45.6304962" lon="11.3859677"><ele>298.2</ele><time>2026-05-03T08:17:41.962Z</time></trkpt><trkpt lat="45.6305176" lon="11.3860707"><ele>294.8</ele><time>2026-05-03T08:17:42.961Z</time></trkpt><trkpt lat="45.6305543" lon="11.3861979"><ele>291.4</ele><time>2026-05-03T08:17:43.963Z</time></trkpt><trkpt lat="45.630595" lon="11.386272"><ele>288.0</ele><time>2026-05-03T08:17:44.963Z</time></trkpt><trkpt lat="45.6306952" lon="11.3863273"><ele>288.3333333333333</ele><time>2026-05-03T08:17:45.962Z</time></trkpt><trkpt lat="45.6307746" lon="11.3864712"><ele>288.6666666666667</ele><time>2026-05-03T08:17:47.962Z</time></trkpt><trkpt lat="45.630825" lon="11.3865279"><ele>289.0</ele><time>2026-05-03T08:17:48.962Z</time></trkpt><trkpt lat="45.6308833" lon="11.3865755"><ele>289.33333333333337</ele><time>2026-05-03T08:17:49.962Z</time></trkpt><trkpt lat="45.6309037" lon="11.3866925"><ele>289.6666666666667</ele><time>2026-05-03T08:17:51.962Z</time></trkpt><trkpt lat="45.6308667" lon="11.3868217"><ele>290.0</ele><time>2026-05-03T08:17:53.962Z</time></trkpt><trkpt lat="45.6308263" lon="11.3869623"><ele>290.0</ele><time>2026-05-03T08:17:55.963Z</time></trkpt><trkpt lat="45.6307915" lon="11.387064"><ele>290.0</ele><time>2026-05-03T08:17:57.962Z</time></trkpt><trkpt lat="45.6307492" lon="11.3872085"><ele>290.0</ele><time>2026-05-03T08:17:59.962Z</time></trkpt><trkpt lat="45.6307032" lon="11.3873127"><ele>290.0</ele><time>2026-05-03T08:18:01.962Z</time></trkpt><trkpt lat="45.6306867" lon="11.3874785"><ele>290.0</ele><time>2026-05-03T08:18:02.962Z</time></trkpt><trkpt lat="45.6306662" lon="11.3875693"><ele>289.0</ele><time>2026-05-03T08:18:03.962Z</time></trkpt><trkpt lat="45.6306036" lon="11.3877238"><ele>288.0</ele><time>2026-05-03T08:18:05.962Z</time></trkpt><trkpt lat="45.6305851" lon="11.387841"><ele>287.0</ele><time>2026-05-03T08:18:07.962Z</time></trkpt><trkpt lat="45.6305526" lon="11.3879644"><ele>286.0</ele><time>2026-05-03T08:18:09.962Z</time></trkpt><trkpt lat="45.6305126" lon="11.3881108"><ele>285.0</ele><time>2026-05-03T08:18:11.962Z</time></trkpt><trkpt lat="45.6304554" lon="11.3882096"><ele>284.6666666666667</ele><time>2026-05-03T08:18:13.961Z</time></trkpt><trkpt lat="45.6303947" lon="11.3883083"><ele>284.3333333333333</ele><time>2026-05-03T08:18:15.962Z</time></trkpt><trkpt lat="45.6303492" lon="11.3883779"><ele>284.0</ele><time>2026-05-03T08:18:16.962Z</time></trkpt><trkpt lat="45.630311" lon="11.3884496"><ele>283.66666666666663</ele><time>2026-05-03T08:18:17.962Z</time></trkpt><trkpt lat="45.6302608" lon="11.3885719"><ele>283.3333333333333</ele><time>2026-05-03T08:18:19.962Z</time></trkpt><trkpt lat="45.6302264" lon="11.3886662"><ele>283.0</ele><time>2026-05-03T08:18:21.962Z</time></trkpt><trkpt lat="45.6302001" lon="11.3887495"><ele>282.6</ele><time>2026-05-03T08:18:23.962Z</time></trkpt><trkpt lat="45.6301276" lon="11.3888415"><ele>282.20000000000005</ele><time>2026-05-03T08:18:25.962Z</time></trkpt><trkpt lat="45.6300607" lon="11.3888801"><ele>281.8</ele><time>2026-05-03T08:18:26.962Z</time></trkpt><trkpt lat="45.6299681" lon="11.3889703"><ele>281.40000000000003</ele><time>2026-05-03T08:18:28.962Z</time></trkpt><trkpt lat="45.6298924" lon="11.3890202"><ele>281.0</ele><time>2026-05-03T08:18:30.962Z</time></trkpt><trkpt lat="45.6298163" lon="11.3890815"><ele>278.2</ele><time>2026-05-03T08:18:31.963Z</time></trkpt><trkpt lat="45.6297385" lon="11.3891711"><ele>275.40000000000003</ele><time>2026-05-03T08:18:33.963Z</time></trkpt><trkpt lat="45.6296611" lon="11.3892484"><ele>272.6</ele><time>2026-05-03T08:18:35.962Z</time></trkpt><trkpt lat="45.6296033" lon="11.389309"><ele>269.8</ele><time>2026-05-03T08:18:37.962Z</time></trkpt><trkpt lat="45.6295441" lon="11.3893692"><ele>267.0</ele><time>2026-05-03T08:18:40.962Z</time></trkpt><trkpt lat="45.629747" lon="11.3890845"><ele>267.0</ele><time>2026-05-03T08:18:42.963Z</time></trkpt><trkpt lat="45.6298593" lon="11.3889184"><ele>267.0</ele><time>2026-05-03T08:18:43.962Z</time></trkpt><trkpt lat="45.6299011" lon="11.3888489"><ele>267.0</ele><time>2026-05-03T08:18:45.962Z</time></trkpt><trkpt lat="45.6295621" lon="11.3892424"><ele>267.3333333333333</ele><time>2026-05-03T08:18:49.962Z</time></trkpt><trkpt lat="45.6294073" lon="11.3894272"><ele>267.66666666666663</ele><time>2026-05-03T08:18:50.921Z</time></trkpt><trkpt lat="45.6292881" lon="11.3895714"><ele>268.0</ele><time>2026-05-03T08:18:51.962Z</time></trkpt><trkpt lat="45.6292109" lon="11.3896629"><ele>265.5</ele><time>2026-05-03T08:18:53.962Z</time></trkpt><trkpt lat="45.6291344" lon="11.3897761"><ele>263.0</ele><time>2026-05-03T08:18:56.962Z</time></trkpt><trkpt lat="45.6291006" lon="11.3898781"><ele>260.5</ele><time>2026-05-03T08:18:59.942Z</time></trkpt><trkpt lat="45.6290417" lon="11.3899519"><ele>258.0</ele><time>2026-05-03T08:19:02.927Z</time></trkpt><trkpt lat="45.6289742" lon="11.3899864"><ele>255.49999999999997</ele><time>2026-05-03T08:19:04.963Z</time></trkpt><trkpt lat="45.6289085" lon="11.3900078"><ele>253.0</ele><time>2026-05-03T08:19:06.962Z</time></trkpt><trkpt lat="45.6288216" lon="11.3900432"><ele>254.0</ele><time>2026-05-03T08:19:09.962Z</time></trkpt><trkpt lat="45.6286098" lon="11.3902473"><ele>255.0</ele><time>2026-05-03T08:19:10.962Z</time></trkpt><trkpt lat="45.6285586" lon="11.3903009"><ele>256.0</ele><time>2026-05-03T08:19:13.961Z</time></trkpt><trkpt lat="45.6285065" lon="11.3903828"><ele>257.0</ele><time>2026-05-03T08:19:16.962Z</time></trkpt><trkpt lat="45.6284536" lon="11.3904506"><ele>257.0</ele><time>2026-05-03T08:19:18.962Z</time></trkpt><trkpt lat="45.628397" lon="11.3905008"><ele>257.0</ele><time>2026-05-03T08:19:20.963Z</time></trkpt><trkpt lat="45.6283372" lon="11.3905472"><ele>257.0</ele><time>2026-05-03T08:19:22.962Z</time></trkpt><trkpt lat="45.6282574" lon="11.3906082"><ele>257.0</ele><time>2026-05-03T08:19:25.962Z</time></trkpt><trkpt lat="45.6281682" lon="11.3906616"><ele>257.0</ele><time>2026-05-03T08:19:28.962Z</time></trkpt><trkpt lat="45.628096" lon="11.3907244"><ele>257.0</ele><time>2026-05-03T08:19:30.962Z</time></trkpt><trkpt lat="45.6280244" lon="11.3907947"><ele>256.6666666666667</ele><time>2026-05-03T08:19:32.962Z</time></trkpt><trkpt lat="45.6279726" lon="11.3908558"><ele>256.33333333333337</ele><time>2026-05-03T08:19:34.963Z</time></trkpt><trkpt lat="45.6279022" lon="11.3908988"><ele>256.0</ele><time>2026-05-03T08:19:36.963Z</time></trkpt><trkpt lat="45.6278296" lon="11.3909217"><ele>255.66666666666669</ele><time>2026-05-03T08:19:38.962Z</time></trkpt><trkpt lat="45.6277436" lon="11.3909459"><ele>255.33333333333334</ele><time>2026-05-03T08:19:40.962Z</time></trkpt><trkpt lat="45.6276655" lon="11.3909627"><ele>255.0</ele><time>2026-05-03T08:19:42.963Z</time></trkpt><trkpt lat="45.6275884" lon="11.3909804"><ele>255.0</ele><time>2026-05-03T08:19:44.962Z</time></trkpt><trkpt lat="45.6275035" lon="11.3909777"><ele>255.0</ele><time>2026-05-03T08:19:47.962Z</time></trkpt><trkpt lat="45.6274338" lon="11.3909919"><ele>255.0</ele><time>2026-05-03T08:19:50.962Z</time></trkpt><trkpt lat="45.6273539" lon="11.3910162"><ele>255.0</ele><time>2026-05-03T08:19:53.962Z</time></trkpt><trkpt lat="45.6272712" lon="11.3910589"><ele>255.0</ele><time>2026-05-03T08:19:55.962Z</time></trkpt><trkpt lat="45.6272087" lon="11.3910984"><ele>255.0</ele><time>2026-05-03T08:19:57.961Z</time></trkpt><trkpt lat="45.6271445" lon="11.3911401"><ele>255.0</ele><time>2026-05-03T08:19:59.962Z</time></trkpt><trkpt lat="45.6270546" lon="11.3911747"><ele>255.0</ele><time>2026-05-03T08:20:01.962Z</time></trkpt><trkpt lat="45.6269498" lon="11.3912022"><ele>255.0</ele><time>2026-05-03T08:20:03.962Z</time></trkpt><trkpt lat="45.62686" lon="11.3912068"><ele>255.0</ele><time>2026-05-03T08:20:05.962Z</time></trkpt><trkpt lat="45.6266426" lon="11.3912088"><ele>256.0</ele><time>2026-05-03T08:20:06.962Z</time></trkpt><trkpt lat="45.6265538" lon="11.3911793"><ele>257.0</ele><time>2026-05-03T08:20:10.963Z</time></trkpt><trkpt lat="45.6264637" lon="11.3912057"><ele>258.0</ele><time>2026-05-03T08:20:12.962Z</time></trkpt><trkpt lat="45.6263607" lon="11.3912746"><ele>259.0</ele><time>2026-05-03T08:20:14.962Z</time></trkpt><trkpt lat="45.6262649" lon="11.3913429"><ele>260.0</ele><time>2026-05-03T08:20:16.963Z</time></trkpt><trkpt lat="45.626018" lon="11.3914607"><ele>254.33333333333334</ele><time>2026-05-03T08:20:18.963Z</time></trkpt><trkpt lat="45.6259438" lon="11.3915254"><ele>248.66666666666669</ele><time>2026-05-03T08:20:20.963Z</time></trkpt><trkpt lat="45.6258925" lon="11.391593"><ele>243.0</ele><time>2026-05-03T08:20:22.962Z</time></trkpt><trkpt lat="45.6258201" lon="11.3917058"><ele>237.33333333333331</ele><time>2026-05-03T08:20:25.962Z</time></trkpt><trkpt lat="45.6257418" lon="11.3917849"><ele>231.66666666666666</ele><time>2026-05-03T08:20:27.962Z</time></trkpt><trkpt lat="45.6256857" lon="11.3918743"><ele>226.0</ele><time>2026-05-03T08:20:29.962Z</time></trkpt><trkpt lat="45.6256422" lon="11.3919686"><ele>225.99999999999997</ele><time>2026-05-03T08:20:31.962Z</time></trkpt><trkpt lat="45.6255945" lon="11.3920506"><ele>226.0</ele><time>2026-05-03T08:20:33.962Z</time></trkpt><trkpt lat="45.6255599" lon="11.3921483"><ele>226.0</ele><time>2026-05-03T08:20:35.963Z</time></trkpt><trkpt lat="45.625516" lon="11.392238"><ele>226.0</ele><time>2026-05-03T08:20:38.962Z</time></trkpt><trkpt lat="45.6254607" lon="11.3923493"><ele>225.99999999999997</ele><time>2026-05-03T08:20:41.962Z</time></trkpt><trkpt lat="45.6253985" lon="11.3924247"><ele>226.0</ele><time>2026-05-03T08:20:43.962Z</time></trkpt><trkpt lat="45.6253583" lon="11.3925043"><ele>228.49999999999997</ele><time>2026-05-03T08:20:45.962Z</time></trkpt><trkpt lat="45.6253235" lon="11.3926116"><ele>231.0</ele><time>2026-05-03T08:20:48.963Z</time></trkpt><trkpt lat="45.625259" lon="11.3926906"><ele>233.5</ele><time>2026-05-03T08:20:51.962Z</time></trkpt><trkpt lat="45.6251928" lon="11.3927599"><ele>236.0</ele><time>2026-05-03T08:20:54.963Z</time></trkpt><trkpt lat="45.6251502" lon="11.3928302"><ele>238.49999999999997</ele><time>2026-05-03T08:20:57.962Z</time></trkpt><trkpt lat="45.6250924" lon="11.3928937"><ele>241.0</ele><time>2026-05-03T08:20:59.962Z</time></trkpt><trkpt lat="45.6250535" lon="11.3929674"><ele>238.16666666666666</ele><time>2026-05-03T08:21:01.962Z</time></trkpt><trkpt lat="45.6250057" lon="11.3930345"><ele>235.33333333333331</ele><time>2026-05-03T08:21:04.962Z</time></trkpt><trkpt lat="45.6249518" lon="11.3931258"><ele>232.5</ele><time>2026-05-03T08:21:07.962Z</time></trkpt><trkpt lat="45.624914" lon="11.3932191"><ele>229.66666666666669</ele><time>2026-05-03T08:21:09.962Z</time></trkpt><trkpt lat="45.6248988" lon="11.3933223"><ele>226.83333333333334</ele><time>2026-05-03T08:21:11.962Z</time></trkpt><trkpt lat="45.6249022" lon="11.3934646"><ele>224.0</ele><time>2026-05-03T08:21:13.963Z</time></trkpt><trkpt lat="45.6249355" lon="11.3935423"><ele>224.00000000000003</ele><time>2026-05-03T08:21:24.962Z</time></trkpt><trkpt lat="45.6249083" lon="11.3936371"><ele>224.0</ele><time>2026-05-03T08:21:30.962Z</time></trkpt><trkpt lat="45.624903" lon="11.3937456"><ele>224.0</ele><time>2026-05-03T08:21:33.962Z</time></trkpt><trkpt lat="45.6249027" lon="11.393848"><ele>224.0</ele><time>2026-05-03T08:21:35.962Z</time></trkpt><trkpt lat="45.6248971" lon="11.3939495"><ele>224.00000000000003</ele><time>2026-05-03T08:21:37.962Z</time></trkpt><trkpt lat="45.6248917" lon="11.39407"><ele>224.0</ele><time>2026-05-03T08:21:40.961Z</time></trkpt><trkpt lat="45.6248756" lon="11.3941852"><ele>222.83333333333334</ele><time>2026-05-03T08:21:43.962Z</time></trkpt><trkpt lat="45.6248166" lon="11.3942784"><ele>221.66666666666669</ele><time>2026-05-03T08:21:46.963Z</time></trkpt><trkpt lat="45.6247656" lon="11.3943566"><ele>220.5</ele><time>2026-05-03T08:21:48.963Z</time></trkpt><trkpt lat="45.6247464" lon="11.3944566"><ele>219.33333333333331</ele><time>2026-05-03T08:21:50.962Z</time></trkpt><trkpt lat="45.6247255" lon="11.3945685"><ele>218.16666666666666</ele><time>2026-05-03T08:21:53.961Z</time></trkpt><trkpt lat="45.6247195" lon="11.3947322"><ele>217.0</ele><time>2026-05-03T08:21:55.962Z</time></trkpt><trkpt lat="45.624734" lon="11.3948856"><ele>216.39999999999998</ele><time>2026-05-03T08:21:57.962Z</time></trkpt><trkpt lat="45.6247399" lon="11.3950336"><ele>215.79999999999998</ele><time>2026-05-03T08:21:59.962Z</time></trkpt><trkpt lat="45.6247567" lon="11.3952647"><ele>215.2</ele><time>2026-05-03T08:22:01.962Z</time></trkpt><trkpt lat="45.624714" lon="11.3953843"><ele>214.6</ele><time>2026-05-03T08:22:02.962Z</time></trkpt><trkpt lat="45.6246938" lon="11.3954762"><ele>214.0</ele><time>2026-05-03T08:22:03.962Z</time></trkpt><trkpt lat="45.6246714" lon="11.3956273"><ele>213.39999999999998</ele><time>2026-05-03T08:22:04.963Z</time></trkpt><trkpt lat="45.6246601" lon="11.3957708"><ele>212.79999999999998</ele><time>2026-05-03T08:22:05.962Z</time></trkpt><trkpt lat="45.6246603" lon="11.3959368"><ele>212.2</ele><time>2026-05-03T08:22:07.962Z</time></trkpt><trkpt lat="45.6246479" lon="11.3961306"><ele>211.60000000000002</ele><time>2026-05-03T08:22:08.962Z</time></trkpt><trkpt lat="45.6246334" lon="11.3962493"><ele>211.0</ele><time>2026-05-03T08:22:09.963Z</time></trkpt><trkpt lat="45.6246255" lon="11.3963646"><ele>209.5</ele><time>2026-05-03T08:22:10.962Z</time></trkpt><trkpt lat="45.6245914" lon="11.3965513"><ele>208.0</ele><time>2026-05-03T08:22:12.962Z</time></trkpt><trkpt lat="45.6246013" lon="11.3966974"><ele>206.5</ele><time>2026-05-03T08:22:13.962Z</time></trkpt><trkpt lat="45.6245851" lon="11.3968212"><ele>205.0</ele><time>2026-05-03T08:22:14.963Z</time></trkpt><trkpt lat="45.6246033" lon="11.3970539"><ele>202.8</ele><time>2026-05-03T08:22:15.961Z</time></trkpt><trkpt lat="45.6245872" lon="11.3972065"><ele>200.6</ele><time>2026-05-03T08:22:16.963Z</time></trkpt><trkpt lat="45.6245694" lon="11.3973145"><ele>198.39999999999998</ele><time>2026-05-03T08:22:17.962Z</time></trkpt><trkpt lat="45.6245581" lon="11.3974599"><ele>196.2</ele><time>2026-05-03T08:22:18.962Z</time></trkpt><trkpt lat="45.6245238" lon="11.3976091"><ele>194.0</ele><time>2026-05-03T08:22:19.962Z</time></trkpt><trkpt lat="45.6244751" lon="11.3977148"><ele>196.6</ele><time>2026-05-03T08:22:20.962Z</time></trkpt><trkpt lat="45.6244472" lon="11.3978145"><ele>199.2</ele><time>2026-05-03T08:22:21.962Z</time></trkpt><trkpt lat="45.6244129" lon="11.3979102"><ele>201.79999999999998</ele><time>2026-05-03T08:22:22.962Z</time></trkpt><trkpt lat="45.6243801" lon="11.39804"><ele>204.39999999999998</ele><time>2026-05-03T08:22:23.962Z</time></trkpt><trkpt lat="45.6243467" lon="11.3982253"><ele>207.0</ele><time>2026-05-03T08:22:24.962Z</time></trkpt><trkpt lat="45.6242963" lon="11.3983519"><ele>207.0</ele><time>2026-05-03T08:22:25.962Z</time></trkpt><trkpt lat="45.6242417" lon="11.3984462"><ele>207.0</ele><time>2026-05-03T08:22:26.962Z</time></trkpt><trkpt lat="45.6242014" lon="11.3985548"><ele>207.0</ele><time>2026-05-03T08:22:27.962Z</time></trkpt><trkpt lat="45.6241285" lon="11.3987521"><ele>207.0</ele><time>2026-05-03T08:22:28.962Z</time></trkpt><trkpt lat="45.6240265" lon="11.3988701"><ele>202.0</ele><time>2026-05-03T08:22:29.962Z</time></trkpt><trkpt lat="45.6239488" lon="11.3989913"><ele>197.0</ele><time>2026-05-03T08:22:30.962Z</time></trkpt><trkpt lat="45.6238717" lon="11.3991049"><ele>192.0</ele><time>2026-05-03T08:22:31.963Z</time></trkpt><trkpt lat="45.6238251" lon="11.3993073"><ele>187.0</ele><time>2026-05-03T08:22:32.962Z</time></trkpt><trkpt lat="45.623773" lon="11.3994591"><ele>187.0</ele><time>2026-05-03T08:22:33.962Z</time></trkpt><trkpt lat="45.6237123" lon="11.3996159"><ele>187.0</ele><time>2026-05-03T08:22:34.962Z</time></trkpt><trkpt lat="45.6236498" lon="11.3997336"><ele>187.0</ele><time>2026-05-03T08:22:35.962Z</time></trkpt><trkpt lat="45.6235938" lon="11.3998331"><ele>187.0</ele><time>2026-05-03T08:22:36.962Z</time></trkpt><trkpt lat="45.6235479" lon="11.3999653"><ele>187.0</ele><time>2026-05-03T08:22:37.962Z</time></trkpt><trkpt lat="45.6234916" lon="11.4001209"><ele>186.0</ele><time>2026-05-03T08:22:38.962Z</time></trkpt><trkpt lat="45.6234407" lon="11.400236"><ele>185.0</ele><time>2026-05-03T08:22:39.963Z</time></trkpt><trkpt lat="45.6233673" lon="11.4002658"><ele>184.0</ele><time>2026-05-03T08:22:40.962Z</time></trkpt><trkpt lat="45.6232925" lon="11.4002281"><ele>183.0</ele><time>2026-05-03T08:22:41.962Z</time></trkpt><trkpt lat="45.6232335" lon="11.4003298"><ele>182.0</ele><time>2026-05-03T08:22:42.963Z</time></trkpt><trkpt lat="45.6231816" lon="11.4004189"><ele>181.0</ele><time>2026-05-03T08:22:44.962Z</time></trkpt><trkpt lat="45.6232377" lon="11.4004946"><ele>178.8</ele><time>2026-05-03T08:22:45.962Z</time></trkpt><trkpt lat="45.6232698" lon="11.4005952"><ele>176.60000000000002</ele><time>2026-05-03T08:22:47.963Z</time></trkpt><trkpt lat="45.6233368" lon="11.4006051"><ele>174.4</ele><time>2026-05-03T08:22:48.962Z</time></trkpt><trkpt lat="45.6234527" lon="11.4006579"><ele>172.2</ele><time>2026-05-03T08:22:50.963Z</time></trkpt><trkpt lat="45.6236054" lon="11.4006646"><ele>170.0</ele><time>2026-05-03T08:22:52.962Z</time></trkpt><trkpt lat="45.6236703" lon="11.4006873"><ele>168.5</ele><time>2026-05-03T08:22:53.962Z</time></trkpt><trkpt lat="45.6237358" lon="11.4006938"><ele>167.0</ele><time>2026-05-03T08:22:54.962Z</time></trkpt><trkpt lat="45.6238152" lon="11.4006996"><ele>165.5</ele><time>2026-05-03T08:22:55.962Z</time></trkpt><trkpt lat="45.6238883" lon="11.4007087"><ele>164.0</ele><time>2026-05-03T08:22:56.962Z</time></trkpt><trkpt lat="45.6239986" lon="11.400698"><ele>162.5</ele><time>2026-05-03T08:22:57.962Z</time></trkpt><trkpt lat="45.6241177" lon="11.4006857"><ele>161.0</ele><time>2026-05-03T08:22:58.963Z</time></trkpt><trkpt lat="45.6242174" lon="11.4006566"><ele>161.0</ele><time>2026-05-03T08:22:59.962Z</time></trkpt><trkpt lat="45.6243338" lon="11.4005463"><ele>161.0</ele><time>2026-05-03T08:23:00.962Z</time></trkpt><trkpt lat="45.6244337" lon="11.4004868"><ele>161.0</ele><time>2026-05-03T08:23:01.962Z</time></trkpt><trkpt lat="45.6245328" lon="11.4004513"><ele>161.0</ele><time>2026-05-03T08:23:02.963Z</time></trkpt><trkpt lat="45.6246547" lon="11.4004677"><ele>160.8</ele><time>2026-05-03T08:23:03.962Z</time></trkpt><trkpt lat="45.62478" lon="11.4004808"><ele>160.60000000000002</ele><time>2026-05-03T08:23:04.962Z</time></trkpt><trkpt lat="45.6248879" lon="11.4004947"><ele>160.4</ele><time>2026-05-03T08:23:05.963Z</time></trkpt><trkpt lat="45.6249909" lon="11.400483"><ele>160.2</ele><time>2026-05-03T08:23:06.962Z</time></trkpt><trkpt lat="45.6250972" lon="11.4004998"><ele>160.0</ele><time>2026-05-03T08:23:07.963Z</time></trkpt><trkpt lat="45.6251736" lon="11.4005435"><ele>157.4</ele><time>2026-05-03T08:23:08.962Z</time></trkpt><trkpt lat="45.6252809" lon="11.4005399"><ele>154.8</ele><time>2026-05-03T08:23:09.963Z</time></trkpt><trkpt lat="45.6253803" lon="11.4005418"><ele>152.2</ele><time>2026-05-03T08:23:10.962Z</time></trkpt><trkpt lat="45.62546" lon="11.400534"><ele>149.6</ele><time>2026-05-03T08:23:11.962Z</time></trkpt><trkpt lat="45.6255366" lon="11.4005561"><ele>147.0</ele><time>2026-05-03T08:23:12.962Z</time></trkpt><trkpt lat="45.6256159" lon="11.4006415"><ele>146.2</ele><time>2026-05-03T08:23:13.963Z</time></trkpt><trkpt lat="45.6257158" lon="11.4007349"><ele>145.39999999999998</ele><time>2026-05-03T08:23:15.962Z</time></trkpt><trkpt lat="45.6257703" lon="11.4008281"><ele>144.60000000000002</ele><time>2026-05-03T08:23:16.962Z</time></trkpt><trkpt lat="45.6258078" lon="11.4009359"><ele>143.8</ele><time>2026-05-03T08:23:17.962Z</time></trkpt><trkpt lat="45.6258372" lon="11.4010277"><ele>143.0</ele><time>2026-05-03T08:23:18.962Z</time></trkpt><trkpt lat="45.6258215" lon="11.4011603"><ele>143.0</ele><time>2026-05-03T08:23:20.962Z</time></trkpt><trkpt lat="45.6258184" lon="11.4013261"><ele>143.0</ele><time>2026-05-03T08:23:22.962Z</time></trkpt><trkpt lat="45.6257735" lon="11.4014045"><ele>143.0</ele><time>2026-05-03T08:23:23.963Z</time></trkpt><trkpt lat="45.6257462" lon="11.4015474"><ele>143.0</ele><time>2026-05-03T08:23:24.962Z</time></trkpt><trkpt lat="45.6257413" lon="11.4016608"><ele>143.0</ele><time>2026-05-03T08:23:25.962Z</time></trkpt><trkpt lat="45.6257413" lon="11.4018086"><ele>141.20000000000002</ele><time>2026-05-03T08:23:26.962Z</time></trkpt><trkpt lat="45.6257469" lon="11.4019732"><ele>139.4</ele><time>2026-05-03T08:23:28.962Z</time></trkpt><trkpt lat="45.6258045" lon="11.402024"><ele>137.60000000000002</ele><time>2026-05-03T08:23:29.962Z</time></trkpt><trkpt lat="45.6258386" lon="11.4021118"><ele>135.8</ele><time>2026-05-03T08:23:30.963Z</time></trkpt><trkpt lat="45.6258862" lon="11.4022222"><ele>134.0</ele><time>2026-05-03T08:23:31.962Z</time></trkpt><trkpt lat="45.6260312" lon="11.4021009"><ele>134.0</ele><time>2026-05-03T08:23:32.962Z</time></trkpt><trkpt lat="45.6261051" lon="11.4020917"><ele>134.0</ele><time>2026-05-03T08:23:33.962Z</time></trkpt><trkpt lat="45.626201" lon="11.4020582"><ele>134.0</ele><time>2026-05-03T08:23:34.963Z</time></trkpt><trkpt lat="45.6263054" lon="11.4020247"><ele>134.0</ele><time>2026-05-03T08:23:35.963Z</time></trkpt><trkpt lat="45.6263878" lon="11.4019843"><ele>134.0</ele><time>2026-05-03T08:23:36.962Z</time></trkpt><trkpt lat="45.6264542" lon="11.4019179"><ele>134.0</ele><time>2026-05-03T08:23:37.962Z</time></trkpt><trkpt lat="45.6265115" lon="11.4018708"><ele>130.6</ele><time>2026-05-03T08:23:38.963Z</time></trkpt><trkpt lat="45.6266077" lon="11.4018421"><ele>127.2</ele><time>2026-05-03T08:23:40.963Z</time></trkpt><trkpt lat="45.6266365" lon="11.4020235"><ele>123.79999999999998</ele><time>2026-05-03T08:23:42.962Z</time></trkpt><trkpt lat="45.6266457" lon="11.4021152"><ele>120.39999999999999</ele><time>2026-05-03T08:23:43.962Z</time></trkpt><trkpt lat="45.6266252" lon="11.4022326"><ele>117.0</ele><time>2026-05-03T08:23:44.963Z</time></trkpt><trkpt lat="45.6266215" lon="11.4023519"><ele>116.16666666666667</ele><time>2026-05-03T08:23:45.963Z</time></trkpt><trkpt lat="45.6266135" lon="11.4024534"><ele>115.33333333333334</ele><time>2026-05-03T08:23:46.962Z</time></trkpt><trkpt lat="45.6266119" lon="11.4025448"><ele>114.5</ele><time>2026-05-03T08:23:47.962Z</time></trkpt><trkpt lat="45.6266014" lon="11.4026932"><ele>113.66666666666667</ele><time>2026-05-03T08:23:49.962Z</time></trkpt><trkpt lat="45.6266131" lon="11.4028197"><ele>112.83333333333334</ele><time>2026-05-03T08:23:50.962Z</time></trkpt><trkpt lat="45.6266037" lon="11.402941"><ele>112.0</ele><time>2026-05-03T08:23:51.962Z</time></trkpt><trkpt lat="45.6266019" lon="11.4030402"><ele>111.33333333333334</ele><time>2026-05-03T08:23:52.962Z</time></trkpt><trkpt lat="45.6266237" lon="11.4031705"><ele>110.66666666666667</ele><time>2026-05-03T08:23:53.963Z</time></trkpt><trkpt lat="45.6266175" lon="11.4032778"><ele>110.0</ele><time>2026-05-03T08:23:54.963Z</time></trkpt><trkpt lat="45.6266047" lon="11.4034036"><ele>109.33333333333334</ele><time>2026-05-03T08:23:55.962Z</time></trkpt><trkpt lat="45.6265653" lon="11.4034989"><ele>108.66666666666667</ele><time>2026-05-03T08:23:56.962Z</time></trkpt><trkpt lat="45.6265407" lon="11.4035949"><ele>108.0</ele><time>2026-05-03T08:23:57.963Z</time></trkpt><trkpt lat="45.6264868" lon="11.4037207"><ele>108.0</ele><time>2026-05-03T08:23:58.962Z</time></trkpt><trkpt lat="45.626434" lon="11.4037817"><ele>108.0</ele><time>2026-05-03T08:23:59.962Z</time></trkpt><trkpt lat="45.6263772" lon="11.4038549"><ele>108.0</ele><time>2026-05-03T08:24:00.962Z</time></trkpt><trkpt lat="45.6263046" lon="11.4040028"><ele>108.0</ele><time>2026-05-03T08:24:02.962Z</time></trkpt><trkpt lat="45.6262575" lon="11.4040813"><ele>108.0</ele><time>2026-05-03T08:24:03.962Z</time></trkpt><trkpt lat="45.6262492" lon="11.4041722"><ele>108.0</ele><time>2026-05-03T08:24:04.962Z</time></trkpt><trkpt lat="45.6263356" lon="11.4043092"><ele>107.4</ele><time>2026-05-03T08:24:05.963Z</time></trkpt><trkpt lat="45.6263926" lon="11.4044364"><ele>106.80000000000001</ele><time>2026-05-03T08:24:06.962Z</time></trkpt><trkpt lat="45.6264786" lon="11.404536"><ele>106.2</ele><time>2026-05-03T08:24:07.962Z</time></trkpt><trkpt lat="45.6265439" lon="11.4046187"><ele>105.6</ele><time>2026-05-03T08:24:08.963Z</time></trkpt><trkpt lat="45.6266206" lon="11.4047064"><ele>105.0</ele><time>2026-05-03T08:24:09.962Z</time></trkpt><trkpt lat="45.6266778" lon="11.4047974"><ele>103.2</ele><time>2026-05-03T08:24:10.962Z</time></trkpt><trkpt lat="45.62673" lon="11.4048881"><ele>101.4</ele><time>2026-05-03T08:24:11.963Z</time></trkpt><trkpt lat="45.6267966" lon="11.4049822"><ele>99.6</ele><time>2026-05-03T08:24:12.962Z</time></trkpt><trkpt lat="45.6268371" lon="11.4050742"><ele>97.8</ele><time>2026-05-03T08:24:13.962Z</time></trkpt><trkpt lat="45.6268883" lon="11.4051521"><ele>96.0</ele><time>2026-05-03T08:24:14.962Z</time></trkpt><trkpt lat="45.6269783" lon="11.4052765"><ele>95.16666666666667</ele><time>2026-05-03T08:24:16.962Z</time></trkpt><trkpt lat="45.6270336" lon="11.4053415"><ele>94.33333333333333</ele><time>2026-05-03T08:24:17.962Z</time></trkpt><trkpt lat="45.6271152" lon="11.4054092"><ele>93.5</ele><time>2026-05-03T08:24:18.962Z</time></trkpt><trkpt lat="45.6271836" lon="11.4054922"><ele>92.66666666666666</ele><time>2026-05-03T08:24:19.962Z</time></trkpt><trkpt lat="45.6272634" lon="11.4055559"><ele>91.83333333333333</ele><time>2026-05-03T08:24:20.962Z</time></trkpt><trkpt lat="45.6273392" lon="11.4056086"><ele>91.0</ele><time>2026-05-03T08:24:21.962Z</time></trkpt><trkpt lat="45.6274046" lon="11.4056759"><ele>90.71428571428571</ele><time>2026-05-03T08:24:22.962Z</time></trkpt><trkpt lat="45.6274772" lon="11.4057342"><ele>90.42857142857143</ele><time>2026-05-03T08:24:23.962Z</time></trkpt><trkpt lat="45.6275175" lon="11.4058113"><ele>90.14285714285714</ele><time>2026-05-03T08:24:24.962Z</time></trkpt><trkpt lat="45.6275752" lon="11.4058672"><ele>89.85714285714286</ele><time>2026-05-03T08:24:25.962Z</time></trkpt><trkpt lat="45.6276273" lon="11.4059442"><ele>89.57142857142857</ele><time>2026-05-03T08:24:26.962Z</time></trkpt><trkpt lat="45.6276812" lon="11.4060043"><ele>89.28571428571428</ele><time>2026-05-03T08:24:27.963Z</time></trkpt><trkpt lat="45.627729" lon="11.4060741"><ele>89.0</ele><time>2026-05-03T08:24:28.962Z</time></trkpt><trkpt lat="45.6277747" lon="11.4061473"><ele>89.5</ele><time>2026-05-03T08:24:29.961Z</time></trkpt><trkpt lat="45.6278227" lon="11.4062147"><ele>90.0</ele><time>2026-05-03T08:24:30.962Z</time></trkpt><trkpt lat="45.627885" lon="11.4063339"><ele>90.5</ele><time>2026-05-03T08:24:32.962Z</time></trkpt><trkpt lat="45.6279268" lon="11.4064134"><ele>91.0</ele><time>2026-05-03T08:24:33.962Z</time></trkpt><trkpt lat="45.6280379" lon="11.4064652"><ele>91.5</ele><time>2026-05-03T08:24:36.962Z</time></trkpt><trkpt lat="45.6280817" lon="11.4064"><ele>92.0</ele><time>2026-05-03T08:24:37.963Z</time></trkpt><trkpt lat="45.6281151" lon="11.4063168"><ele>92.0</ele><time>2026-05-03T08:24:39.962Z</time></trkpt><trkpt lat="45.6281482" lon="11.4064243"><ele>92.0</ele><time>2026-05-03T08:24:44.961Z</time></trkpt><trkpt lat="45.6281136" lon="11.406548"><ele>92.0</ele><time>2026-05-03T08:24:46.962Z</time></trkpt><trkpt lat="45.6281097" lon="11.4066399"><ele>92.0</ele><time>2026-05-03T08:24:47.963Z</time></trkpt><trkpt lat="45.628146" lon="11.4067849"><ele>92.0</ele><time>2026-05-03T08:24:49.962Z</time></trkpt><trkpt lat="45.6281839" lon="11.4068721"><ele>92.0</ele><time>2026-05-03T08:24:50.962Z</time></trkpt><trkpt lat="45.6282433" lon="11.4070452"><ele>92.0</ele><time>2026-05-03T08:24:52.962Z</time></trkpt><trkpt lat="45.6283034" lon="11.4071217"><ele>92.0</ele><time>2026-05-03T08:24:53.962Z</time></trkpt><trkpt lat="45.628364" lon="11.4071647"><ele>92.0</ele><time>2026-05-03T08:24:54.962Z</time></trkpt><trkpt lat="45.628475" lon="11.4072072"><ele>92.0</ele><time>2026-05-03T08:24:56.962Z</time></trkpt><trkpt lat="45.6285621" lon="11.4072266"><ele>92.0</ele><time>2026-05-03T08:24:58.962Z</time></trkpt><trkpt lat="45.6287095" lon="11.4072263"><ele>93.28571428571429</ele><time>2026-05-03T08:25:08.962Z</time></trkpt><trkpt lat="45.6287789" lon="11.4072468"><ele>94.57142857142857</ele><time>2026-05-03T08:25:14.961Z</time></trkpt><trkpt lat="45.6288383" lon="11.407277"><ele>95.85714285714286</ele><time>2026-05-03T08:25:19.961Z</time></trkpt><trkpt lat="45.6289052" lon="11.4073219"><ele>97.14285714285714</ele><time>2026-05-03T08:25:25.961Z</time></trkpt><trkpt lat="45.628954" lon="11.4074095"><ele>98.42857142857142</ele><time>2026-05-03T08:25:31.961Z</time></trkpt><trkpt lat="45.6290193" lon="11.4074427"><ele>99.71428571428571</ele><time>2026-05-03T08:25:35.961Z</time></trkpt><trkpt lat="45.6290608" lon="11.4075258"><ele>101.0</ele><time>2026-05-03T08:25:41.961Z</time></trkpt><trkpt lat="45.6290757" lon="11.4076308"><ele>101.0</ele><time>2026-05-03T08:25:47.961Z</time></trkpt><trkpt lat="45.6291105" lon="11.4077126"><ele>101.0</ele><time>2026-05-03T08:25:53.962Z</time></trkpt><trkpt lat="45.6291389" lon="11.4078135"><ele>101.0</ele><time>2026-05-03T08:25:59.961Z</time></trkpt><trkpt lat="45.6291753" lon="11.4078914"><ele>101.0</ele><time>2026-05-03T08:26:05.961Z</time></trkpt><trkpt lat="45.6292089" lon="11.4079786"><ele>101.0</ele><time>2026-05-03T08:26:11.962Z</time></trkpt><trkpt lat="45.6292307" lon="11.4080655"><ele>101.0</ele><time>2026-05-03T08:26:16.961Z</time></trkpt><trkpt lat="45.6292645" lon="11.4081448"><ele>101.0</ele><time>2026-05-03T08:26:22.961Z</time></trkpt><trkpt lat="45.6292994" lon="11.4082288"><ele>101.14285714285714</ele><time>2026-05-03T08:26:30.961Z</time></trkpt><trkpt lat="45.6293284" lon="11.4083182"><ele>101.28571428571428</ele><time>2026-05-03T08:26:35.961Z</time></trkpt><trkpt lat="45.6293337" lon="11.4084132"><ele>101.42857142857143</ele><time>2026-05-03T08:26:41.961Z</time></trkpt><trkpt lat="45.6293463" lon="11.4085127"><ele>101.57142857142857</ele><time>2026-05-03T08:26:46.961Z</time></trkpt><trkpt lat="45.629355" lon="11.4086046"><ele>101.71428571428572</ele><time>2026-05-03T08:26:51.962Z</time></trkpt><trkpt lat="45.6293662" lon="11.4087076"><ele>101.85714285714286</ele><time>2026-05-03T08:26:56.961Z</time></trkpt><trkpt lat="45.6293863" lon="11.4088038"><ele>102.0</ele><time>2026-05-03T08:27:01.961Z</time></trkpt><trkpt lat="45.6293937" lon="11.4089082"><ele>102.57142857142857</ele><time>2026-05-03T08:27:06.961Z</time></trkpt><trkpt lat="45.629382" lon="11.4090098"><ele>103.14285714285714</ele><time>2026-05-03T08:27:11.961Z</time></trkpt><trkpt lat="45.6293789" lon="11.4091167"><ele>103.71428571428572</ele><time>2026-05-03T08:27:16.961Z</time></trkpt><trkpt lat="45.6293755" lon="11.4092095"><ele>104.28571428571428</ele><time>2026-05-03T08:27:21.962Z</time></trkpt><trkpt lat="45.6293911" lon="11.4093113"><ele>104.85714285714285</ele><time>2026-05-03T08:27:26.961Z</time></trkpt><trkpt lat="45.6293961" lon="11.4094171"><ele>105.42857142857143</ele><time>2026-05-03T08:27:31.961Z</time></trkpt><trkpt lat="45.6294216" lon="11.409506"><ele>106.0</ele><time>2026-05-03T08:27:35.961Z</time></trkpt><trkpt lat="45.6294455" lon="11.4095944"><ele>110.57142857142858</ele><time>2026-05-03T08:27:39.961Z</time></trkpt><trkpt lat="45.6294879" lon="11.4096699"><ele>115.14285714285714</ele><time>2026-05-03T08:27:43.961Z</time></trkpt><trkpt lat="45.6295013" lon="11.4097678"><ele>119.71428571428572</ele><time>2026-05-03T08:27:47.961Z</time></trkpt><trkpt lat="45.6295065" lon="11.4098709"><ele>124.28571428571429</ele><time>2026-05-03T08:27:51.961Z</time></trkpt><trkpt lat="45.6294952" lon="11.4099702"><ele>128.85714285714286</ele><time>2026-05-03T08:27:56.962Z</time></trkpt><trkpt lat="45.6294989" lon="11.4100674"><ele>133.42857142857144</ele><time>2026-05-03T08:28:01.96Z</time></trkpt><trkpt lat="45.6295062" lon="11.4101683"><ele>138.0</ele><time>2026-05-03T08:28:07.961Z</time></trkpt><trkpt lat="45.6295192" lon="11.4102678"><ele>138.0</ele><time>2026-05-03T08:28:11.961Z</time></trkpt><trkpt lat="45.6295552" lon="11.4103633"><ele>138.0</ele><time>2026-05-03T08:28:16.961Z</time></trkpt><trkpt lat="45.6295997" lon="11.4104445"><ele>138.0</ele><time>2026-05-03T08:28:20.962Z</time></trkpt><trkpt lat="45.6296426" lon="11.4105222"><ele>138.0</ele><time>2026-05-03T08:28:25.961Z</time></trkpt><trkpt lat="45.629666" lon="11.4106072"><ele>138.0</ele><time>2026-05-03T08:28:31.962Z</time></trkpt><trkpt lat="45.6296739" lon="11.4107221"><ele>138.0</ele><time>2026-05-03T08:28:36.961Z</time></trkpt><trkpt lat="45.6296965" lon="11.4108378"><ele>138.0</ele><time>2026-05-03T08:28:39.96Z</time></trkpt><trkpt lat="45.6297077" lon="11.4109699"><ele>135.83333333333334</ele><time>2026-05-03T08:28:42.961Z</time></trkpt><trkpt lat="45.6297211" lon="11.4110789"><ele>133.66666666666666</ele><time>2026-05-03T08:28:44.961Z</time></trkpt><trkpt lat="45.6297443" lon="11.4112305"><ele>131.5</ele><time>2026-05-03T08:28:46.961Z</time></trkpt><trkpt lat="45.6297648" lon="11.4113236"><ele>129.33333333333331</ele><time>2026-05-03T08:28:47.962Z</time></trkpt><trkpt lat="45.6297864" lon="11.4114096"><ele>127.16666666666666</ele><time>2026-05-03T08:28:48.961Z</time></trkpt><trkpt lat="45.6298547" lon="11.4115532"><ele>125.0</ele><time>2026-05-03T08:28:50.961Z</time></trkpt><trkpt lat="45.6299285" lon="11.4116527"><ele>122.99999999999999</ele><time>2026-05-03T08:28:52.961Z</time></trkpt><trkpt lat="45.6299937" lon="11.4117427"><ele>121.0</ele><time>2026-05-03T08:28:55.961Z</time></trkpt><trkpt lat="45.6300409" lon="11.4118434"><ele>119.0</ele><time>2026-05-03T08:28:58.961Z</time></trkpt><trkpt lat="45.6300953" lon="11.4119402"><ele>117.0</ele><time>2026-05-03T08:29:01.961Z</time></trkpt><trkpt lat="45.6301372" lon="11.4120296"><ele>114.99999999999999</ele><time>2026-05-03T08:29:04.961Z</time></trkpt><trkpt lat="45.6301599" lon="11.4121396"><ele>113.0</ele><time>2026-05-03T08:29:08.96Z</time></trkpt><trkpt lat="45.6301488" lon="11.4122503"><ele>111.99999999999999</ele><time>2026-05-03T08:29:12.961Z</time></trkpt><trkpt lat="45.6301323" lon="11.4123598"><ele>111.0</ele><time>2026-05-03T08:29:15.961Z</time></trkpt><trkpt lat="45.6301518" lon="11.4124779"><ele>110.0</ele><time>2026-05-03T08:29:18.962Z</time></trkpt><trkpt lat="45.6301704" lon="11.4125853"><ele>109.0</ele><time>2026-05-03T08:29:21.961Z</time></trkpt><trkpt lat="45.6301826" lon="11.4127058"><ele>107.99999999999999</ele><time>2026-05-03T08:29:24.961Z</time></trkpt><trkpt lat="45.6301959" lon="11.412796"><ele>107.0</ele><time>2026-05-03T08:29:27.96Z</time></trkpt><trkpt lat="45.6301954" lon="11.4128936"><ele>106.33333333333333</ele><time>2026-05-03T08:29:30.961Z</time></trkpt><trkpt lat="45.6302026" lon="11.4129953"><ele>105.66666666666666</ele><time>2026-05-03T08:29:33.961Z</time></trkpt><trkpt lat="45.6302239" lon="11.4130876"><ele>105.0</ele><time>2026-05-03T08:29:36.961Z</time></trkpt><trkpt lat="45.630246" lon="11.4132059"><ele>104.33333333333334</ele><time>2026-05-03T08:29:39.961Z</time></trkpt><trkpt lat="45.6302876" lon="11.4133155"><ele>103.66666666666667</ele><time>2026-05-03T08:29:41.961Z</time></trkpt><trkpt lat="45.6303563" lon="11.4134298"><ele>103.0</ele><time>2026-05-03T08:29:43.961Z</time></trkpt><trkpt lat="45.6304005" lon="11.4134942"><ele>103.83333333333334</ele><time>2026-05-03T08:29:44.961Z</time></trkpt><trkpt lat="45.6304431" lon="11.4135625"><ele>104.66666666666667</ele><time>2026-05-03T08:29:45.961Z</time></trkpt><trkpt lat="45.6304847" lon="11.4136437"><ele>105.5</ele><time>2026-05-03T08:29:46.961Z</time></trkpt><trkpt lat="45.6305261" lon="11.413737"><ele>106.33333333333334</ele><time>2026-05-03T08:29:47.962Z</time></trkpt><trkpt lat="45.6305711" lon="11.4138415"><ele>107.16666666666667</ele><time>2026-05-03T08:29:48.961Z</time></trkpt><trkpt lat="45.6306183" lon="11.4139457"><ele>108.0</ele><time>2026-05-03T08:29:49.961Z</time></trkpt><trkpt lat="45.6306595" lon="11.4140357"><ele>108.0</ele><time>2026-05-03T08:29:50.961Z</time></trkpt><trkpt lat="45.6307949" lon="11.414253"><ele>108.0</ele><time>2026-05-03T08:29:51.961Z</time></trkpt><trkpt lat="45.6308633" lon="11.4143105"><ele>108.0</ele><time>2026-05-03T08:29:52.961Z</time></trkpt><trkpt lat="45.6309505" lon="11.4144068"><ele>108.0</ele><time>2026-05-03T08:29:53.962Z</time></trkpt><trkpt lat="45.6311303" lon="11.4144399"><ele>110.57142857142857</ele><time>2026-05-03T08:30:04.961Z</time></trkpt><trkpt lat="45.631159" lon="11.4143527"><ele>113.14285714285714</ele><time>2026-05-03T08:30:10.961Z</time></trkpt><trkpt lat="45.6312095" lon="11.4142829"><ele>115.71428571428572</ele><time>2026-05-03T08:30:18.961Z</time></trkpt><trkpt lat="45.6312531" lon="11.4141954"><ele>118.28571428571428</ele><time>2026-05-03T08:30:25.961Z</time></trkpt><trkpt lat="45.6313207" lon="11.4141873"><ele>120.85714285714286</ele><time>2026-05-03T08:30:35.961Z</time></trkpt><trkpt lat="45.6313868" lon="11.4142182"><ele>123.42857142857143</ele><time>2026-05-03T08:30:43.961Z</time></trkpt><trkpt lat="45.6314547" lon="11.4142465"><ele>126.0</ele><time>2026-05-03T08:30:49.961Z</time></trkpt><trkpt lat="45.6316092" lon="11.414258"><ele>126.0</ele><time>2026-05-03T08:31:02.961Z</time></trkpt><trkpt lat="45.6317007" lon="11.4142733"><ele>126.0</ele><time>2026-05-03T08:31:11.961Z</time></trkpt><trkpt lat="45.6317588" lon="11.414336"><ele>126.0</ele><time>2026-05-03T08:31:18.961Z</time></trkpt><trkpt lat="45.6318221" lon="11.4143704"><ele>126.0</ele><time>2026-05-03T08:31:25.961Z</time></trkpt><trkpt lat="45.6318773" lon="11.4144204"><ele>126.0</ele><time>2026-05-03T08:31:33.961Z</time></trkpt><trkpt lat="45.6319138" lon="11.4145149"><ele>126.0</ele><time>2026-05-03T08:31:40.962Z</time></trkpt><trkpt lat="45.6319469" lon="11.414594"><ele>126.0</ele><time>2026-05-03T08:31:46.961Z</time></trkpt><trkpt lat="45.6320106" lon="11.4146472"><ele>128.42857142857142</ele><time>2026-05-03T08:31:53.961Z</time></trkpt><trkpt lat="45.6320653" lon="11.4146997"><ele>130.85714285714286</ele><time>2026-05-03T08:31:58.961Z</time></trkpt><trkpt lat="45.6320856" lon="11.4147961"><ele>133.28571428571428</ele><time>2026-05-03T08:32:05.961Z</time></trkpt><trkpt lat="45.6321393" lon="11.4148733"><ele>135.71428571428572</ele><time>2026-05-03T08:32:12.961Z</time></trkpt><trkpt lat="45.6322064" lon="11.4149034"><ele>138.14285714285714</ele><time>2026-05-03T08:32:16.96Z</time></trkpt><trkpt lat="45.6322322" lon="11.4149881"><ele>140.57142857142856</ele><time>2026-05-03T08:32:21.961Z</time></trkpt><trkpt lat="45.632268" lon="11.4150713"><ele>143.0</ele><time>2026-05-03T08:32:25.962Z</time></trkpt><trkpt lat="45.632281" lon="11.4151659"><ele>142.99999999999997</ele><time>2026-05-03T08:32:30.961Z</time></trkpt><trkpt lat="45.6323194" lon="11.4152518"><ele>143.0</ele><time>2026-05-03T08:32:34.961Z</time></trkpt><trkpt lat="45.6323656" lon="11.415317"><ele>143.0</ele><time>2026-05-03T08:32:38.961Z</time></trkpt><trkpt lat="45.6324134" lon="11.4154035"><ele>143.0</ele><time>2026-05-03T08:32:42.961Z</time></trkpt><trkpt lat="45.6324455" lon="11.415504"><ele>143.0</ele><time>2026-05-03T08:32:47.961Z</time></trkpt><trkpt lat="45.6324729" lon="11.4156061"><ele>142.99999999999997</ele><time>2026-05-03T08:32:52.961Z</time></trkpt><trkpt lat="45.6325258" lon="11.4156919"><ele>143.0</ele><time>2026-05-03T08:32:55.961Z</time></trkpt><trkpt lat="45.6325666" lon="11.4157823"><ele>143.42857142857142</ele><time>2026-05-03T08:32:58.961Z</time></trkpt><trkpt lat="45.6326212" lon="11.4158708"><ele>143.85714285714286</ele><time>2026-05-03T08:33:02.961Z</time></trkpt><trkpt lat="45.6326636" lon="11.415944"><ele>144.28571428571428</ele><time>2026-05-03T08:33:05.961Z</time></trkpt><trkpt lat="45.6327273" lon="11.4159971"><ele>144.71428571428572</ele><time>2026-05-03T08:33:08.961Z</time></trkpt><trkpt lat="45.6327891" lon="11.4160847"><ele>145.14285714285714</ele><time>2026-05-03T08:33:11.961Z</time></trkpt><trkpt lat="45.6328187" lon="11.4161672"><ele>145.57142857142856</ele><time>2026-05-03T08:33:13.962Z</time></trkpt><trkpt lat="45.632853" lon="11.4162563"><ele>146.0</ele><time>2026-05-03T08:33:15.961Z</time></trkpt><trkpt lat="45.6328922" lon="11.4163406"><ele>144.28571428571428</ele><time>2026-05-03T08:33:17.962Z</time></trkpt><trkpt lat="45.6329504" lon="11.4164341"><ele>142.57142857142858</ele><time>2026-05-03T08:33:20.961Z</time></trkpt><trkpt lat="45.6329863" lon="11.4165197"><ele>140.85714285714286</ele><time>2026-05-03T08:33:24.962Z</time></trkpt><trkpt lat="45.6330028" lon="11.4166223"><ele>139.14285714285714</ele><time>2026-05-03T08:33:28.961Z</time></trkpt><trkpt lat="45.6330519" lon="11.4166939"><ele>137.42857142857142</ele><time>2026-05-03T08:33:31.961Z</time></trkpt><trkpt lat="45.6331123" lon="11.4167437"><ele>135.71428571428572</ele><time>2026-05-03T08:33:34.961Z</time></trkpt><trkpt lat="45.6331771" lon="11.4168001"><ele>134.0</ele><time>2026-05-03T08:33:37.962Z</time></trkpt><trkpt lat="45.633243" lon="11.4168479"><ele>134.0</ele><time>2026-05-03T08:33:41.962Z</time></trkpt><trkpt lat="45.6332968" lon="11.4169131"><ele>134.0</ele><time>2026-05-03T08:33:45.962Z</time></trkpt><trkpt lat="45.6333366" lon="11.4169942"><ele>134.0</ele><time>2026-05-03T08:33:50.962Z</time></trkpt><trkpt lat="45.6333951" lon="11.4170653"><ele>134.0</ele><time>2026-05-03T08:33:55.962Z</time></trkpt><trkpt lat="45.6334572" lon="11.4171021"><ele>134.0</ele><time>2026-05-03T08:33:58.962Z</time></trkpt><trkpt lat="45.6335248" lon="11.4170962"><ele>134.0</ele><time>2026-05-03T08:34:01.961Z</time></trkpt><trkpt lat="45.6335941" lon="11.4170817"><ele>134.0</ele><time>2026-05-03T08:34:06.962Z</time></trkpt><trkpt lat="45.6336468" lon="11.4170127"><ele>135.42857142857144</ele><time>2026-05-03T08:34:11.962Z</time></trkpt><trkpt lat="45.6336834" lon="11.4169165"><ele>136.85714285714286</ele><time>2026-05-03T08:34:16.962Z</time></trkpt><trkpt lat="45.6337104" lon="11.4168273"><ele>138.28571428571428</ele><time>2026-05-03T08:34:22.961Z</time></trkpt><trkpt lat="45.6337138" lon="11.4167327"><ele>139.71428571428572</ele><time>2026-05-03T08:34:27.961Z</time></trkpt><trkpt lat="45.6337349" lon="11.4166345"><ele>141.14285714285714</ele><time>2026-05-03T08:34:33.961Z</time></trkpt><trkpt lat="45.6337178" lon="11.416546"><ele>142.57142857142858</ele><time>2026-05-03T08:34:39.961Z</time></trkpt><trkpt lat="45.6336778" lon="11.4164736"><ele>144.0</ele><time>2026-05-03T08:34:43.962Z</time></trkpt><trkpt lat="45.6337002" lon="11.4163843"><ele>145.2857142857143</ele><time>2026-05-03T08:34:56.961Z</time></trkpt><trkpt lat="45.6337144" lon="11.4162819"><ele>146.57142857142858</ele><time>2026-05-03T08:35:02.961Z</time></trkpt><trkpt lat="45.633776" lon="11.4162326"><ele>147.85714285714286</ele><time>2026-05-03T08:35:08.961Z</time></trkpt><trkpt lat="45.6338416" lon="11.416183"><ele>149.14285714285717</ele><time>2026-05-03T08:35:14.961Z</time></trkpt><trkpt lat="45.6338941" lon="11.41613"><ele>150.42857142857144</ele><time>2026-05-03T08:35:19.961Z</time></trkpt><trkpt lat="45.6339595" lon="11.4160806"><ele>151.71428571428572</ele><time>2026-05-03T08:35:24.961Z</time></trkpt><trkpt lat="45.6340083" lon="11.4160143"><ele>153.0</ele><time>2026-05-03T08:35:28.962Z</time></trkpt><trkpt lat="45.6340618" lon="11.4159494"><ele>153.0</ele><time>2026-05-03T08:35:31.961Z</time></trkpt><trkpt lat="45.6341203" lon="11.4158682"><ele>153.0</ele><time>2026-05-03T08:35:34.961Z</time></trkpt><trkpt lat="45.634178" lon="11.415832"><ele>153.0</ele><time>2026-05-03T08:35:37.961Z</time></trkpt><trkpt lat="45.6342415" lon="11.4158027"><ele>153.0</ele><time>2026-05-03T08:35:40.961Z</time></trkpt><trkpt lat="45.6342953" lon="11.415745"><ele>153.0</ele><time>2026-05-03T08:35:44.961Z</time></trkpt><trkpt lat="45.6343002" lon="11.4156421"><ele>153.0</ele><time>2026-05-03T08:35:48.961Z</time></trkpt><trkpt lat="45.6343137" lon="11.4155443"><ele>153.0</ele><time>2026-05-03T08:35:52.961Z</time></trkpt><trkpt lat="45.6343487" lon="11.4154677"><ele>153.0</ele><time>2026-05-03T08:35:57.961Z</time></trkpt><trkpt lat="45.6342701" lon="11.4154239"><ele>153.0</ele><time>2026-05-03T08:36:16.961Z</time></trkpt></trkseg></trk></gpx>